logo
Games tagged Text-Based
# Game Release date
Price
Score rank
(Userscore / Metascore)
Owners
Players
Playtime (Median)
Developer(s)
Publisher(s)
1 Lacuna – A Sci-Fi Noir Adventure May 20, 2021 $15.99N/A (N/A/86%)200,000 .. 500,0000%00:00 (00:00)DigiTales InteractiveAssemble Entertainment, WhisperGames, Mayflower Entertainment
2 Football Manager 2022 Nov 8, 2021 $54.99N/A (N/A/85%)500,000 .. 1,000,00037.5%14:47 (15:17)Sports InteractiveSEGA
3 The Darkside Detective: A Fumble in the Dark Apr 15, 2021 $12.99N/A (N/A/84%)20,000 .. 50,0000%00:00 (00:00)Spooky DoorwayAkupara Games
4 The Great Ace Attorney Chronicles Jul 26, 2021 $39.99N/A (N/A/83%)100,000 .. 200,00011.11%23:20 (07:46)CAPCOM Co., Ltd.CAPCOM Co., Ltd.
5 Subsurface Circular Aug 17, 2017 $5.99N/A (N/A/83%)50,000 .. 100,0000%00:00 (00:00)Bithell GamesBithell Games
6 Citizen Sleeper May 5, 2022 $19.99N/A (N/A/82%)200,000 .. 500,0000%00:00 (00:00)Jump Over The AgeFellow Traveller
7 The Life and Suffering of Sir Brante Mar 4, 2021 $19.99N/A (N/A/82%)100,000 .. 200,0000%00:00 (00:00)Sever101XP
8 Doki Doki Literature Club Plus! Jun 30, 2021 $14.99N/A (N/A/81%)500,000 .. 1,000,0003.45%01:31 (00:30)Team SalvatoSerenity Forge
9 Overboard! Jun 2, 2021 $14.99N/A (N/A/81%)50,000 .. 100,0000%00:00 (00:00)inkle Ltdinkle Ltd
10 Doctor Who: The Lonely Assassins Mar 18, 2021 $5.99N/A (N/A/81%)50,000 .. 100,0000%00:00 (00:00)Kaigan Games OÜMaze Theory, Another Indie
11 Suzerain Dec 4, 2020 $14.99N/A (N/A/81%)500,000 .. 1,000,0000%00:00 (00:00)Torpor GamesFellow Traveller
12 Stronghold: A Hero's Fate Nov 16, 2018 $5.99N/A (N/A/81%)0 .. 20,0000%00:00 (00:00)Choice of GamesChoice of Games
13 Emily is Away Too May 26, 2017 $4.99N/A (N/A/81%)200,000 .. 500,0000%00:00 (00:00)Kyle SeeleyKyle Seeley
14 Stories Untold Feb 27, 2017 $9.99N/A (N/A/81%)100,000 .. 200,0000%00:00 (00:00)No CodeDevolver Digital
15 Wanderlust: Travel Stories Sep 26, 2019 $14.99N/A (N/A/79%)0 .. 20,0000%00:00 (00:00)Different TalesWalkabout
16 Sarawak Jan 27, 2021 $5.99N/A (N/A/78%)0 .. 20,0000%00:00 (00:00)Cowleyfornia StudiosCowleyfornia Studios
17 Werewolf: The Apocalypse — Heart of the Forest Oct 13, 2020 $14.99N/A (N/A/78%)100,000 .. 200,0000%00:00 (00:00)Different TalesWalkabout, Different Tales
18 Signs of the Sojourner May 14, 2020 $19.99N/A (N/A/77%)0 .. 20,0000%00:00 (00:00)Echodog GamesEchodog Games
19 Trolley Problem, Inc. Apr 21, 2022 $10.99N/A (N/A/76%)0 .. 20,0000%00:00 (00:00)Read GravesYogscast Games
20 Arcadia Fallen Nov 17, 2021 $24.99N/A (N/A/76%)0 .. 20,0000%00:00 (00:00)Galdra StudiosGaldra Studios
21 Event[0] Sep 14, 2016 $19.99N/A (N/A/75%)100,000 .. 200,0000%00:00 (00:00)Ocelot SocietyOcelot Society
22 Uplink Aug 23, 2006 $9.99N/A (N/A/75%)500,000 .. 1,000,0000%00:00 (00:00)Introversion SoftwareIntroversion Software
23 Insurmountable Apr 29, 2021 $24.99N/A (N/A/74%)20,000 .. 50,0000%00:00 (00:00)ByteRockers' GamesDaedalic Entertainment
24 The Innsmouth Case Jun 23, 2020 $12.49N/A (N/A/73%)0 .. 20,0000%00:00 (00:00)RobotPumpkin GamesAssemble Entertainment
25 A Place for the Unwilling Jul 25, 2019 $14.99N/A (N/A/73%)0 .. 20,0000%00:00 (00:00)ALPixel GamesALPixel Games
26 Quarantine Circular May 22, 2018 $5.99N/A (N/A/73%)0 .. 20,0000%00:00 (00:00)Bithell GamesBithell Games
27 Gamedec - Definitive Edition Sep 16, 2021 $23.99N/A (N/A/72%)100,000 .. 200,0000%00:00 (00:00)Anshar StudiosAnshar Publishing
28 Cultist Simulator May 31, 2018 $19.99N/A (N/A/71%)500,000 .. 1,000,0001.39%11:47 (03:55)Weather FactoryWeather Factory
29 SIMULACRA 2 Jan 30, 2020 $7.99N/A (N/A/69%)100,000 .. 200,0000%00:00 (00:00)Kaigan GamesNeon Doctrine
30 The Wanderer: Frankenstein’s Creature Oct 30, 2019 $15.99N/A (N/A/69%)0 .. 20,0000%00:00 (00:00)La Belle Games, ARTE FranceARTE France
31 Sorcery! Parts 1 and 2 Feb 2, 2016 $12.99N/A (N/A/69%)100,000 .. 200,0000%00:00 (00:00)inkle Ltdinkle Ltd
32 Wheels of Aurelia Sep 20, 2016 $14.99N/A (N/A/63%)0 .. 20,0000%00:00 (00:00)Santa RagioneSanta Ragione
33 Achtung! Cthulhu Tactics Oct 4, 2018 $24.99N/A (N/A/56%)0 .. 20,0000%00:00 (00:00)Auroch DigitalRipstone
34 Idle Research Jul 31, 2022 FreeN/A (N/A)100,000 .. 200,0000%00:00 (00:00)CryptoGrounds Games LLCCryptoGrounds Games LLC
35 Stay Safe 2020 Dec 7, 2021 FreeN/A (N/A)0 .. 20,0000%00:00 (00:00)Mohamed ShiyamMohamed Shiyam
36 圣歌德嘉的晚钟 Dec 4, 2021 FreeN/A (N/A)100,000 .. 200,0000%00:00 (00:00)二律背反旅人计划
37 Blood of Titans Oct 11, 2021 FreeN/A (N/A)0 .. 20,0000%00:00 (00:00)Sugar GamesSugar Games
38 Aspiring Light Aug 5, 2021 FreeN/A (N/A)0 .. 20,0000%00:00 (00:00)JY_2000JY_2000
39 副作用之瞳-Tlicolity Eyes- Jun 29, 2021 FreeN/A (N/A)50,000 .. 100,0000%00:00 (00:00)IDEA FACTORY, Frontier Works, JoyMoe Interactive Entertainment LimitedJoyMoe Interactive Entertainment Limited
40 Last Message Jun 24, 2021 FreeN/A (N/A)20,000 .. 50,0000%00:00 (00:00)JamesGamesNZJamesGamesNZ
41 幽灵高校(Ghost College) May 28, 2021 FreeN/A (N/A)50,000 .. 100,0000%00:00 (00:00)血色双眸血色双眸
42 cyberpunkdreams May 14, 2021 FreeN/A (N/A)50,000 .. 100,0000%00:00 (00:00)Late Night GamesLate Night Games
43 Untrusted May 9, 2021 FreeN/A (N/A)100,000 .. 200,0000%00:00 (00:00)evolvedlabsevolvedlabs
44 Pandemic Love Apr 27, 2021 FreeN/A (N/A)20,000 .. 50,0000%00:00 (00:00)Red SkaldRed Skald
45 Your Chronicle Apr 4, 2021 FreeN/A (N/A)100,000 .. 200,0000%00:00 (00:00)Samurai GamesSamurai Games
46 Incremental Epic Breakers Mar 17, 2021 FreeN/A (N/A)0 .. 20,0000%00:00 (00:00)HapiwakuIdle System, Inc.
47 Silent Earth Mar 5, 2021 FreeN/A (N/A)0 .. 20,0000%00:00 (00:00)Fring Frang GamesFring Frang Games
48 Oakrot - it's literally a book Mar 5, 2021 FreeN/A (N/A)0 .. 20,0000%00:00 (00:00)louis morellouis morel
49 RPG IDLE Mar 3, 2021 FreeN/A (N/A)0 .. 20,0000%00:00 (00:00)Renan Miguelote ViannaRenan Miguelote Vianna
50 揭谛/GATE Mar 3, 2021 FreeN/A (N/A)0 .. 20,0000%00:00 (00:00)团购规划局团购规划局
51 修真之路 Feb 6, 2021 FreeN/A (N/A)0 .. 20,0000%00:00 (00:00)游韵游戏网络公司游韵游戏网络公司
52 Nostalgici Anonimi Jan 24, 2021 FreeN/A (N/A)20,000 .. 50,0000%00:00 (00:00)Hufu Interactive StorytellingFondazione MITE
53 轮回修真OL Jan 23, 2021 FreeN/A (N/A)20,000 .. 50,0000%00:00 (00:00)大鸟工作室大鸟工作室
54 Hachi Hachi Mystery Jan 19, 2021 FreeN/A (N/A)0 .. 20,0000%00:00 (00:00)Ondori GamesOndori Games
55 Empire IDLE Jan 16, 2021 N/AN/A (N/A)0 .. 20,0000%00:00 (00:00)Renan Miguelote ViannaRenan Miguelote Vianna
56 Fujiwara Bittersweet Jan 16, 2021 FreeN/A (N/A)50,000 .. 100,0000%00:00 (00:00)MagicBenchVNMagicBenchVN
57 Acolyte: Prologue Jan 10, 2021 FreeN/A (N/A)50,000 .. 100,0000%00:00 (00:00)SuperstringSuperstring
58 Horus IDLE Jan 6, 2021 N/AN/A (N/A)0 .. 20,0000%00:00 (00:00)Renan Miguelote ViannaRenan Miguelote Vianna
59 Tales From Yeoldeburg Jan 5, 2021 N/AN/A (N/A)0 .. 20,0000%00:00 (00:00)Magic Dog StudiosMagic Dog Studios
60 Mission IDLE Dec 31, 2020 FreeN/A (N/A)20,000 .. 50,0000%00:00 (00:00)Renan Miguelote ViannaRenan Miguelote Vianna
61 I Want to Fly Dec 24, 2020 FreeN/A (N/A)0 .. 20,0000%00:00 (00:00)RaharabinRaharabin Games
62 Spooky Speakeasy Dec 21, 2020 FreeN/A (N/A)0 .. 20,0000%00:00 (00:00)Open AlphaOpen Alpha
63 Gladiators IDLE Dec 17, 2020 N/AN/A (N/A)0 .. 20,0000%00:00 (00:00)Renan Miguelote ViannaRenan Miguelote Vianna
64 Soccer Manager 2021 Dec 16, 2020 FreeN/A (N/A)500,000 .. 1,000,0000%00:00 (00:00)Invincibles Studio LtdInvincibles Studio Ltd
65 These Nights Alone Dec 5, 2020 FreeN/A (N/A)20,000 .. 50,0000%00:00 (00:00)ryArtryArt
66 ALLBLACK Phase 1 Dec 5, 2020 FreeN/A (N/A)50,000 .. 100,0000%00:00 (00:00)NSAIDNSAID
67 Interactive Empathy Dec 4, 2020 FreeN/A (N/A)0 .. 20,0000%00:00 (00:00)Animafest Workshop 2019Goethe Institute in Croatia and French Institute in Croatia and Gamechuck
68 The Life and Suffering of Sir Brante — Chapter 1&2 Dec 1, 2020 FreeN/A (N/A)100,000 .. 200,0000%00:00 (00:00)Sever101XP
69 Nevermore - Documentary Kinetic Novel Nov 30, 2020 N/AN/A (N/A)0 .. 20,0000%00:00 (00:00)Nikita Kaf Jam ProductionsNikita Kaf Jam Publishing
70 英雄坛说X·归来 Nov 27, 2020 FreeN/A (N/A)0 .. 20,0000%00:00 (00:00)成都盟布克科技有限公司成都盟布克科技有限公司
71 Sakura Dimensions Nov 26, 2020 FreeN/A (N/A)0 .. 20,0000%00:00 (00:00)BerCh1nBerCh1n
72 Tribal Wars Nov 12, 2020 FreeN/A (N/A)100,000 .. 200,0000%00:00 (00:00)InnoGamesInnoGames
73 BO020880 Nov 4, 2020 FreeN/A (N/A)20,000 .. 50,0000%00:00 (00:00)Italian Party of Indie DeveloperIV Productions
74 Keywords of A Life Nov 2, 2020 N/AN/A (N/A)20,000 .. 50,0000%00:00 (00:00)Fatih MertFatih Mert
75 LA Monsters Oct 31, 2020 FreeN/A (N/A)0 .. 20,0000%00:00 (00:00)ben lunatoben lunato
76 Witches x Warlocks Oct 31, 2020 FreeN/A (N/A)20,000 .. 50,0000%00:00 (00:00)Nifty VisualsNifty Productions
77 MVorpheus "Content Organizer" Oct 22, 2020 N/AN/A (N/A)0 .. 20,0000%00:00 (00:00)MVGamesMVStudios
78 Vital Signs: Emergency Department Oct 15, 2020 FreeN/A (N/A)0 .. 20,0000%00:00 (00:00)BreakAway GamesBreakAway Games
79 PP Puncher Oct 7, 2020 FreeN/A (N/A)20,000 .. 50,0000%00:00 (00:00)brennfeubrennfeu
80 Cooking Companions: Appetizer Edition Oct 6, 2020 FreeN/A (N/A)20,000 .. 50,0000%00:00 (00:00)Deer Dream StudiosDeer Dream Studios
81 Guilt Free Oct 2, 2020 FreeN/A (N/A)20,000 .. 50,0000%00:00 (00:00)Lateral GamesLateral Games
82 安堂的心理咨询室:杯中之心〈ANDOU:Pulse of cup〉 Oct 1, 2020 FreeN/A (N/A)20,000 .. 50,0000%00:00 (00:00)机械神狐教制作组机械神狐教制作组
83 POWER Sep 3, 2020 FreeN/A (N/A)20,000 .. 50,0000%00:00 (00:00)Oppressive GamesOppressive Games
84 Corona Sector Sep 1, 2020 N/AN/A (N/A)0 .. 20,0000%00:00 (00:00)iBlackpeniBlackpen
85 Without Romance Aug 31, 2020 FreeN/A (N/A)0 .. 20,0000%00:00 (00:00)Moonlit WorksMoonlit Works
86 Incremental Adventures Aug 11, 2020 FreeN/A (N/A)100,000 .. 200,0000%00:00 (00:00)GnillerGniller
87 Obreno: Chapter One Aug 3, 2020 FreeN/A (N/A)50,000 .. 100,0000%00:00 (00:00)Out Of Time InteractiveOut Of Time Interactive
88 曙光之诗 Jul 30, 2020 FreeN/A (N/A)20,000 .. 50,0000%00:00 (00:00)729白起生贺组729白起生贺组
89 ARISEN: Prologue Jul 18, 2020 N/AN/A (N/A)20,000 .. 50,0000%00:00 (00:00)MaratusMaratus
90 be you 2 Jul 18, 2020 FreeN/A (N/A)0 .. 20,0000%00:00 (00:00)louis morellouis morel
91 Jiangshi x Daoshi Jul 16, 2020 FreeN/A (N/A)20,000 .. 50,0000%00:00 (00:00)Dendo DenkidoFruitbat Factory
92 Linda & Joan Prologue: “Four Months Earlier” Jul 14, 2020 FreeN/A (N/A)0 .. 20,0000%00:00 (00:00)False Vacuum GamesFalse Vacuum Games
93 The Horrors at Castle Wülhein Jul 13, 2020 N/AN/A (N/A)20,000 .. 50,0000%00:00 (00:00)Alex RyanAlex Ryan
94 The Peresmeshnik Jul 7, 2020 FreeN/A (N/A)20,000 .. 50,0000%00:00 (00:00)Sean ArnoldSean Arnold
95 The Night Fisherman Jun 29, 2020 FreeN/A (N/A)100,000 .. 200,0000%00:00 (00:00)de Fault, Chard, Richard CampbellFar Few Giants
96 AKER FERN May 31, 2020 FreeN/A (N/A)20,000 .. 50,0000%00:00 (00:00)Chaos Group GamesChaos Group Games
97 Wanderlust: Bangkok Prelude May 28, 2020 FreeN/A (N/A)0 .. 20,0000%00:00 (00:00)Different TalesWalkabout
98 Tyrania - A Kinetic Visual Novel May 27, 2020 FreeN/A (N/A)20,000 .. 50,0000%00:00 (00:00)LeviathanimationLeviathanimation
99 Meditation 3 ~ Sophia Code May 27, 2020 N/AN/A (N/A)0 .. 20,0000%00:00 (00:00)Kooly From ParisKooly From Paris
100 Meditation 2 ~ Wisdom and Christian Art May 24, 2020 N/AN/A (N/A)0 .. 20,0000%00:00 (00:00)Kooly From ParisKooly From Paris
101 잭과 콩나무: 숨겨진 이야기 Apr 22, 2020 FreeN/A (N/A)20,000 .. 50,0000%00:00 (00:00)JAB teamJAB team
102 Genius! Mar 18, 2020 FreeN/A (N/A)0 .. 20,0000%00:00 (00:00)Hypoxanthine, ZelHypoxanthine
103 Iveri: The 1.000 Story Mar 14, 2020 N/AN/A (N/A)0 .. 20,0000%00:00 (00:00)Blender Games
104 HumanBloodSandwich Mar 6, 2020 N/AN/A (N/A)0 .. 20,0000%00:00 (00:00)AmyBerylAmyBeryl
105 Space Bear Mar 5, 2020 FreeN/A (N/A)20,000 .. 50,0000%00:00 (00:00)Damon SmithSpace Bear Games
106 Mar 3, 2020 N/AN/A (N/A)0 .. 20,0000%00:00 (00:00)Xiexe
107 The Crimson Diamond: Chapter 1 Feb 5, 2020 FreeN/A (N/A)0 .. 20,0000%00:00 (00:00)Julia MinamataJulia Minamata
108 Feb 4, 2020 N/AN/A (N/A)0 .. 20,0000%00:00 (00:00)Tender Claws
109 Log 141 Jan 31, 2020 FreeN/A (N/A)0 .. 20,0000%00:00 (00:00)AwesomeLeakAwesomeLeak
110 PRISON OF SON Jan 30, 2020 FreeN/A (N/A)0 .. 20,0000%00:00 (00:00)Limperopoulos AlfeiosLimperopoulos Alfeios
111 Two Love Jan 25, 2020 FreeN/A (N/A)0 .. 20,0000%00:00 (00:00)Reporter ZeroReporter Zero
112 AVROD Jan 5, 2020 FreeN/A (N/A)0 .. 20,0000%00:00 (00:00)AVROD Technologies Inc.AVROD Technologies Inc.
113 Adventure or Normality? Oct 29, 2019 N/AN/A (N/A)0 .. 20,0000%00:00 (00:00)Soiree Games
114 Interactive Horror Stories Oct 25, 2019 FreeN/A (N/A)20,000 .. 50,0000%00:00 (00:00)Aslan Game StudioAslan Game Studio
115 ChatAid Jul 30, 2019 N/AN/A (N/A)0 .. 20,0000%00:00 (00:00)Next2VR
116 Clickable Coffee Shop Jul 26, 2019 FreeN/A (N/A)0 .. 20,0000%00:00 (00:00)aaror874 (Ajay Arora)aaror874 (Ajay Arora)
117 Agent Of Love - Josei Otome Visual Novel Jul 14, 2019 FreeN/A (N/A)0 .. 20,0000%00:00 (00:00)Delusional IncDelusional Inc
118 Reverse Me! Rez/Ru Jun 28, 2019 N/AN/A (N/A)0 .. 20,0000%00:00 (00:00)Vaasy, Elisey Waylone
119 The Mansion Jun 13, 2019 N/AN/A (N/A)0 .. 20,0000%00:00 (00:00)TriorityTriority
120 Ivanoile ~ Christalixeur Corruption Jun 6, 2019 N/AN/A (N/A)0 .. 20,0000%00:00 (00:00)Growfall Games
121 Divine D.I.V.A. May 6, 2019 N/AN/A (N/A)20,000 .. 50,0000%00:00 (00:00)MediaSpark
122 Hotel Tutwin Apr 15, 2019 FreeN/A (N/A)0 .. 20,0000%00:00 (00:00)Roxiano CreationsRoxiano Creations
123 vApe Escape Mar 15, 2019 FreeN/A (N/A)20,000 .. 50,0000%00:00 (00:00)GamechuckGamechuck
124 Hellink Mar 7, 2019 FreeN/A (N/A)50,000 .. 100,0000%00:00 (00:00)IkigaiIkigai
125 Shantalia and Corali'hulu Mar 1, 2019 N/AN/A (N/A)0 .. 20,0000%00:00 (00:00)So Dank Studio
126 One Synth Feb 16, 2019 FreeN/A (N/A)0 .. 20,0000%00:00 (00:00)Kawaiisun GamesKawaiisun Games
127 Dream Enders RPG Feb 8, 2019 FreeN/A (N/A)20,000 .. 50,0000%00:00 (00:00)C.A.WitheyC.A.Withey
128 VKT Prime System Crash Feb 6, 2019 N/AN/A (N/A)0 .. 20,0000%00:00 (00:00)Frutgames
129 The Pepper Prince: Episode 1 - Red Hot Chili Wedding Jan 3, 2019 FreeN/A (N/A)0 .. 20,0000%00:00 (00:00)Hypnotic OwlHypnotic Owl
130 Hir Corruption Nov 28, 2018 N/AN/A (N/A)0 .. 20,0000%00:00 (00:00)JustE Publishing
131 Automobiels and the Eisenhower Hiway System the Game Nov 1, 2018 FreeN/A (N/A)0 .. 20,0000%00:00 (00:00)Jeffrey MarshJeffrey marsh
132 Red and Blue ~ Cycles of Existence Sep 25, 2018 N/AN/A (N/A)0 .. 20,0000%00:00 (00:00)Etqan Company
133 Just One Line Sep 12, 2018 FreeN/A (N/A)0 .. 20,0000%00:00 (00:00)JOL StudiosJOL Studios
134 Entre-Deux: Cursed Sep 12, 2018 N/AN/A (N/A)0 .. 20,0000%00:00 (00:00)T1 Games
135 A.L.A.N.: Rift Breakers Sep 5, 2018 N/AN/A (N/A)0 .. 20,0000%00:00 (00:00)CasGames
136 We Are Terror: The First Days Sep 1, 2018 FreeN/A (N/A)0 .. 20,0000%00:00 (00:00)KuzcopiaHDamas
137 Me Smart Orc Aug 28, 2018 FreeN/A (N/A)20,000 .. 50,0000%00:00 (00:00)Bill RicardiBill Ricardi
138 Hack the Core Aug 23, 2018 N/AN/A (N/A)0 .. 20,0000%00:00 (00:00)Plug In Digital
139 Les 4 Alice: Lorange Journey Aug 13, 2018 N/AN/A (N/A)0 .. 20,0000%00:00 (00:00)PalveGames
140 Downtown Mafia: Gang Wars Jul 25, 2018 FreeN/A (N/A)50,000 .. 100,0000%00:00 (00:00)DYNAMICNEXTDYNAMICNEXT
141 Non-Linear Text Quests Jul 24, 2018 FreeN/A (N/A)0 .. 20,0000%00:00 (00:00)NLB projectNLB project
142 Fighting Fantasy Classics Jun 5, 2018 FreeN/A (N/A)50,000 .. 100,0000%00:00 (00:00)Tin Man GamesTin Man Games
143 Penny Black May 17, 2018 FreeN/A (N/A)0 .. 20,0000%00:00 (00:00)Bobby ZealBobby Zeal
144 Idle Adventure Apr 13, 2018 FreeN/A (N/A)100,000 .. 200,0000%00:00 (00:00)zha7, Phaedruns, Yingke Wuzha7
145 Chess: King of Crowns Chess Online Mar 27, 2018 N/AN/A (N/A)20,000 .. 50,0000%00:00 (00:00)nonenone
146 Kare wa Kanojo Jan 5, 2018 N/AN/A (N/A)0 .. 20,0000%00:00 (00:00)JMF GamesJMF Games
147 Holyday City: Reloaded Dec 14, 2017 FreeN/A (N/A)200,000 .. 500,0000%00:00 (00:00)Holyday StudiosHolyday Studios
148 Vacation: dayOFF Dec 12, 2017 FreeN/A (N/A)0 .. 20,0000%00:00 (00:00)turninGear-In.
149 Don't Make Love Oct 26, 2017 FreeN/A (N/A)20,000 .. 50,0000%00:00 (00:00)MaggeseMaggese
150 City of Ages: Picture Supportive Text MUD (server and client included) Oct 23, 2017 FreeN/A (N/A)0 .. 20,0000%00:00 (00:00)Darren N LoryFormsmatter
151 Les Quatre Alices Aug 28, 2017 N/AN/A (N/A)0 .. 20,0000%00:00 (00:00)Paradise Project
152 MINDNIGHT Aug 4, 2017 FreeN/A (N/A)200,000 .. 500,0000%00:00 (00:00)No MoonNo Moon
153 The Adliberum Engine (ADLENGINE) Jun 23, 2017 FreeN/A (N/A)0 .. 20,0000%00:00 (00:00)Liam TwoseLiam Twose
154 Detective Butler: Maiden Voyage Murder May 26, 2017 FreeN/A (N/A)50,000 .. 100,0000%00:00 (00:00)Goldbar GamesGoldbar Games
155 Blossoms Bloom Brightest Apr 28, 2017 N/AN/A (N/A)20,000 .. 50,0000%00:00 (00:00)Reine WorksReine Works
156 Ishmael Apr 7, 2017 FreeN/A (N/A)0 .. 20,0000%00:00 (00:00)Jordan MagnusonJordan Magnuson
157 Lifeline Mar 16, 2017 N/AN/A (N/A)0 .. 20,0000%00:00 (00:00)3 Minute GamesBig Fish Games
158 Idling to Rule the Gods May 27, 2016 FreeN/A (N/A)200,000 .. 500,0000%00:00 (00:00)Shugasu GmbHShugasu GmbH
159 Sepia Tears Jan 8, 2016 FreeN/A (N/A)100,000 .. 200,0000%00:00 (00:00)Scarlet String StudiosScarlet String Studios
160 Emily is Away Nov 20, 2015 FreeN/A (N/A)1,000,000 .. 2,000,0000%00:00 (00:00)Kyle SeeleyKyle Seeley
161 One Way To Die Sep 1, 2015 FreeN/A (N/A)50,000 .. 100,0000%00:00 (00:00)CoaguCo IndustriesCoaguCo Industries
162 Mainland May 8, 2015 FreeN/A (N/A)100,000 .. 200,0000%00:00 (00:00)Vasily Voronkov, Ryan Joseph, Peter KosyhINSTEAD Community
163 Depression Quest Aug 11, 2014 N/AN/A (N/A)200,000 .. 500,0000%00:00 (00:00)The Quinnspiracy, Patrick Lindsey, Isaac SchanklerThe Quinnspiracy
164 EnviroGolf Jan 15, 2014 FreeN/A (N/A)0 .. 20,0000%00:00 (00:00)Seemingly PointlessSeemingly Pointless
165 Exotica: Petshop Simulator Oct 1, 2022 $17.99N/A (N/A)0 .. 20,0000%00:00 (00:00)Konrul GameKonrul Game
166 What Is Love? Anime Visual Novel Vol. 1 Sep 30, 2022 $18.99N/A (N/A)0 .. 20,0000%00:00 (00:00)Baka DogBaka Dog
167 Learning Geography: Countries of the World Sep 29, 2022 $0.59N/A (N/A)0 .. 20,0000%00:00 (00:00)Tom's Feral Cat GamesTom's Feral Cat Games
168 活字引擎 Sep 29, 2022 $11.19N/A (N/A)0 .. 20,0000%00:00 (00:00)狸子Neazle狸子Neazle
169 Dawn of Kagura: Maika's Story - The Dragon's Wrath Sep 29, 2022 $15.99N/A (N/A)0 .. 20,0000%00:00 (00:00)Debonosu WorksShiravune
170 Mosaic Chronicles Sep 29, 2022 $6.99N/A (N/A)0 .. 20,0000%00:00 (00:00)Error 300Error 300
171 Paper Bride 3 Unresolved Love Sep 28, 2022 $8.99N/A (N/A)20,000 .. 50,0000%00:00 (00:00)HeartBeat PlusHeartBeat Plus
172 ValiDate: Struggling Singles in your Area Sep 28, 2022 $12.44N/A (N/A)0 .. 20,0000%00:00 (00:00)Veritable Joy StudiosVeritable Joy Studios
173 AQRA Tenses [Learn English] Sep 27, 2022 $11.99N/A (N/A)0 .. 20,0000%00:00 (00:00)Samer HammamiSamer Hammami
174 Haunted Girls Sep 25, 2022 $4.99N/A (N/A)0 .. 20,0000%00:00 (00:00)ひとりサークル「匙投げ部」Waku Waku Games
175 Project Alex Sep 23, 2022 $2.99N/A (N/A)0 .. 20,0000%00:00 (00:00)PAWorksPAGames
176 The Billion Clicker Sep 23, 2022 $4.99N/A (N/A)0 .. 20,0000%00:00 (00:00)PaulArtPaulArt
177 Watamari - A Match Made in Heaven Part1 Sep 23, 2022 $18.99N/A (N/A)0 .. 20,0000%00:00 (00:00)Kuro Irodoru YomijiSekai Project
178 Ean's End Sep 20, 2022 $1.99N/A (N/A)0 .. 20,0000%00:00 (00:00)u_twinkle_staru_twinkle_star
179 Room 301 NO.6 Sep 20, 2022 $3.99N/A (N/A)0 .. 20,0000%00:00 (00:00)Inter Frame StudioGamera Games, YLS Program
180 Plan B - Goddess's cards Sep 16, 2022 $1.99N/A (N/A)0 .. 20,0000%00:00 (00:00)PP TecPP Tec
181 Card Survival: Tropical Island Sep 16, 2022 $24.99N/A (N/A)0 .. 20,0000%00:00 (00:00)WinterSpring GamesWinterSpring Games
182 モノマギア・カンタービレ Sep 12, 2022 $29.99N/A (N/A)0 .. 20,0000%00:00 (00:00)MBA INTERNATIONALMBA INTERNATIONAL
183 AIdventure Sep 12, 2022 $12N/A (N/A)0 .. 20,0000%00:00 (00:00)Lyaaaaa GamesLyaaaaa Games
184 Roadwarden Sep 12, 2022 $10.99N/A (N/A)0 .. 20,00050%00:22 (00:22)Moral Anxiety StudioAssemble Entertainment
185 回忆画册~MemoriesAlbum~ Sep 9, 2022 $4.99N/A (N/A)0 .. 20,0000%00:00 (00:00)RubyHaruSoftwareRubyHaruSoftware
186 Socialism Simulator Sep 9, 2022 $3.99N/A (N/A)0 .. 20,0000%00:00 (00:00)Sempiternal RainSempiternal Rain
187 HimeYoku: A Sacrifice of Lust and Grace Sep 8, 2022 $19.99N/A (N/A)0 .. 20,0000%00:00 (00:00)Escu:deShiravune
188 Odd Guy Meets Odd Farmers - Comedy BL Yaoi Visual Novel Sep 8, 2022 $4.99N/A (N/A)0 .. 20,0000%00:00 (00:00)ChaniMKChaniMK
189 Mottia - The gem hunters Sep 8, 2022 $4.99N/A (N/A)20,000 .. 50,0000%00:00 (00:00)4 hats4 hats
190 Mozart Requiem Sep 7, 2022 $29.99N/A (N/A)20,000 .. 50,0000%00:00 (00:00)Hoplite Research LLCGS2 Games Inc, Funbox Media Ltd
191 From atom to modern Sep 6, 2022 $4.99N/A (N/A)0 .. 20,0000%00:00 (00:00)YamateYamate
192 Drakkon World Builder Sep 1, 2022 $2.99N/A (N/A)20,000 .. 50,0000%00:00 (00:00)Electric Falcon LLCElectric Falcon LLC
193 Kardun Sep 1, 2022 $3.99N/A (N/A)0 .. 20,0000%00:00 (00:00)RokasRokas
194 Spam Text Sep 1, 2022 $2.99N/A (N/A)0 .. 20,0000%00:00 (00:00)Half-Eaten EntertainmentHalf-Eaten Entertainment
195 LO FI - A YEAR TO FULFILL MY DREAM.mp3 Sep 1, 2022 $6.99N/A (N/A)0 .. 20,0000%00:00 (00:00)Ponpipaipidupi, Saukutsuki, Chin_719, Wu_JoJoRotating Gear Studio
196 Omi Oh My AI Sep 1, 2022 $9.99N/A (N/A)0 .. 20,0000%00:00 (00:00)EverySecond StudioEverySecond Studio
197 Draft Day Sports: College Football 2023 Aug 31, 2022 $39.99N/A (N/A)0 .. 20,0000%00:00 (00:00)Wolverine StudiosWolverine Studios
198 I Can't Hear Your Words, So I Want To Listen To Your Heart Aug 30, 2022 $4.99N/A (N/A)0 .. 20,0000%00:00 (00:00)箱崎奈绪(Hakozaki Nao)箱崎奈绪(Hakozaki Nao)
199 The Monster Under Your Skin Aug 29, 2022 $7.99N/A (N/A)0 .. 20,0000%00:00 (00:00)Róman ORóman O
200 My Divorce Story Aug 29, 2022 $7.99N/A (N/A)0 .. 20,0000%00:00 (00:00)NONIL STUDIOCFK Co., Ltd.
201 Fishing Game Aug 25, 2022 $1.99N/A (N/A)0 .. 20,0000%00:00 (00:00)louis morelOakrot Games
202 슬픈 가족사 - 산장으로부터의 탈출 Aug 25, 2022 $6.99N/A (N/A)0 .. 20,0000%00:00 (00:00)C's earthC's earth
203 Noblesse Oblige Aug 25, 2022 $4.99N/A (N/A)0 .. 20,0000%00:00 (00:00)Choice of GamesChoice of Games
204 外道催眠術師と囚われのマリオネット - The Savage Hypnotist's Puppets - Aug 24, 2022 $19.99N/A (N/A)0 .. 20,0000%00:00 (00:00)CyberStep, Inc., Rideon Works Co. Ltd,CyberStep, Inc.
205 LA FORET DE PAGO 2 : SOUVENIR DE GLACE Aug 24, 2022 $8.39N/A (N/A)20,000 .. 50,0000%00:00 (00:00)FuturtechNova's Army
206 Are You Smarter Than A 5th Grader Aug 23, 2022 $29.99N/A (N/A)0 .. 20,0000%00:00 (00:00)Massive MiniteamHandyGames
207 The witch of the Ihanashi Aug 19, 2022 $17.99N/A (N/A)0 .. 20,0000%00:00 (00:00)FragariaFragaria, Seikei Production
208 Soul Light Aug 19, 2022 $6.99N/A (N/A)0 .. 20,0000%00:00 (00:00)VorobushekVorobushek
209 Heart of Battle Aug 18, 2022 $5.99N/A (N/A)0 .. 20,0000%00:00 (00:00)Heart's ChoiceHeart's Choice
210 Eyes Over Us Aug 18, 2022 $2.99N/A (N/A)20,000 .. 50,0000%00:00 (00:00)Curse Box StudiosCurse Box Studios
211 Anvil Life Aug 17, 2022 $2.99N/A (N/A)50,000 .. 100,0000%00:00 (00:00)Emre BulutEmre Bulut
212 Easy Poetry Aug 17, 2022 $44.99N/A (N/A)0 .. 20,0000%00:00 (00:00)Egg Fried RiceEgg Fried Rice
213 My Cat Girl Lover Aug 15, 2022 $1.99N/A (N/A)0 .. 20,0000%00:00 (00:00)琉璃花糖制作组, Garakowa MarshmallowWindField Games, 琉璃花糖制作组, Garakowa Marshmallow
214 Ferrule Instincts Aug 12, 2022 $4.99N/A (N/A)0 .. 20,0000%00:00 (00:00)Yellow OpticYellow Optic
215 Animal Trail ☆ Girlish Square Aug 12, 2022 $14.99N/A (N/A)0 .. 20,0000%00:00 (00:00)WhirlpoolSekai Project
216 Re;quartz零度 Aug 12, 2022 $34.99N/A (N/A)0 .. 20,0000%00:00 (00:00)B-clusterB-cluster
217 Revenge of the Orcs: Flag of Conquest Aug 11, 2022 $14.99N/A (N/A)0 .. 20,0000%00:00 (00:00)DieselmineShiravune
218 Paranormal Preparatory School Aug 11, 2022 $5.99N/A (N/A)0 .. 20,0000%00:00 (00:00)Choice of Games LLCChoice of Games LLC
219 Milliopoly - Language Quiz and Learning Aug 9, 2022 $9.99N/A (N/A)0 .. 20,0000%00:00 (00:00)Aurora - Mídia & GamesAurora - Mídia & Games
220 Miko no Kanata: Curious Tales from Oguni Shrine -Cycles- Aug 5, 2022 $12.99N/A (N/A)0 .. 20,0000%00:00 (00:00)Fan-naSekai Project
221 Great Deceiver Aug 4, 2022 $19.99N/A (N/A)0 .. 20,0000%00:00 (00:00)Empress, ElfShiravune
222 A Mage Reborn Aug 4, 2022 $3.99N/A (N/A)0 .. 20,0000%00:00 (00:00)Hosted GamesHosted Games
223 Fight For It Aug 3, 2022 $4.99N/A (N/A)0 .. 20,0000%00:00 (00:00)3xl3xl
224 Hooked on You: A Dead by Daylight Dating Sim Aug 3, 2022 $9.99N/A (N/A)100,000 .. 200,0000%00:00 (00:00)PsyopBehaviour Interactive Inc.
225 In Your Books Aug 3, 2022 $7.99N/A (N/A)0 .. 20,0000%00:00 (00:00)UnderhillUnderhill
226 All Ashes and Illusions Aug 3, 2022 $12.99N/A (N/A)0 .. 20,0000%00:00 (00:00)ebi-himeebi-hime
227 Koncolos Aug 2, 2022 $3.99N/A (N/A)0 .. 20,0000%00:00 (00:00)Deniz KayacanDeniz Kayacan
228 War of Bellrook Aug 1, 2022 $3.99N/A (N/A)0 .. 20,0000%00:00 (00:00)Plagen ShikiPlagen Shiki
229 Star Boss Jul 28, 2022 $7.99N/A (N/A)0 .. 20,0000%00:00 (00:00)BeautifulWorldBeautifulWorld
230 피랍 일지 - 그 남자로부터의 탈출 Jul 28, 2022 $3.99N/A (N/A)20,000 .. 50,0000%00:00 (00:00)C's earthC's earth
231 The Dragon and the Djinn Jul 28, 2022 $7.99N/A (N/A)0 .. 20,0000%00:00 (00:00)Choice of GamesChoice of Games
232 Digimon Survive Jul 28, 2022 $59.99N/A (N/A)50,000 .. 100,0000%00:00 (00:00)HYDE, Inc.Bandai Namco Entertainment Inc.
233 幻恋逢星之时 Jul 26, 2022 $13.99N/A (N/A)0 .. 20,0000%00:00 (00:00)风月同天工作室风月同天工作室
234 Fastest Fantasy Life Simulator Jul 26, 2022 $0.99N/A (N/A)0 .. 20,0000%00:00 (00:00)Rand.Exe StudiosRand.Exe Studios
235 AnotherQuizzGame Jul 26, 2022 $5.99N/A (N/A)0 .. 20,0000%00:00 (00:00)VorTeXDevVorTeXDev
236 Dead Forest Jul 26, 2022 $11.99N/A (N/A)0 .. 20,0000%00:00 (00:00)Manul GamesManul Games
237 Chameleon - DYH Jul 25, 2022 $9.99N/A (N/A)0 .. 20,0000%00:00 (00:00)DYHWinCode
238 CozyTyper Jul 22, 2022 $4.99N/A (N/A)0 .. 20,0000%00:00 (00:00)imophiimophi
239 Azrael Jul 21, 2022 $1.99N/A (N/A)0 .. 20,0000%00:00 (00:00)Spafnar StudiosSpafnar Studios
240 미연시 시뮬레이터 : 미소녀 게임의 주인공을 조종하는 게임 Jul 21, 2022 $2.99N/A (N/A)0 .. 20,0000%00:00 (00:00)C's earthC's earth
241 Target:Summit(目标:登顶 ) Jul 21, 2022 $1.99N/A (N/A)0 .. 20,0000%00:00 (00:00)LosingIsFun StudioLosingIsFun Studio
242 Hell of Sins: soul Jul 21, 2022 $8.99N/A (N/A)0 .. 20,0000%00:00 (00:00)GHF GAMEGamera Games
243 Victorian Debutante Jul 20, 2022 $4.99N/A (N/A)0 .. 20,0000%00:00 (00:00)Liquid DarknessLiquid Darkness
244 晴末置雨 Jul 20, 2022 $1.99N/A (N/A)0 .. 20,0000%00:00 (00:00)置雨制作组龍之咲, WindField Games
245 Muv-Luv Alternative Total Eclipse Remastered Jul 20, 2022 $39.99N/A (N/A)0 .. 20,0000%00:00 (00:00)aNCHOR Inc., fuzz, Inc.aNCHOR Inc.
246 Ansiolisis Jul 19, 2022 $0.89N/A (N/A)50,000 .. 100,0000%00:00 (00:00)JuneJune
247 A Pact With Me - BL Yaoi Visual Novel Jul 16, 2022 $4.99N/A (N/A)0 .. 20,0000%00:00 (00:00)ChaniMKChaniMK
248 江湖百异图 Jul 15, 2022 $13.99N/A (N/A)20,000 .. 50,0000%00:00 (00:00)恒睿游戏恒睿游戏
249 Cheese Runner Jul 14, 2022 $2.99N/A (N/A)50,000 .. 100,0000%00:00 (00:00)Kai HutchenceMassive Corporation Game Studios
250 Profession investigator Jul 13, 2022 $12.99N/A (N/A)0 .. 20,0000%00:00 (00:00)Indie-GeekIndie-Geek
251 Second Thoughts Jul 12, 2022 $1.99N/A (N/A)0 .. 20,0000%00:00 (00:00)Gestmorph GamesGestmorph Games
252 Escape From Hard Drive Jul 11, 2022 $6.99N/A (N/A)0 .. 20,0000%00:00 (00:00)FewjixFewjix
253 Drifter's Tales Jul 9, 2022 $4.99N/A (N/A)0 .. 20,0000%00:00 (00:00)Teddy GandonThe First Spine
254 Seven Deadly Dates Jul 7, 2022 $6.99N/A (N/A)0 .. 20,0000%00:00 (00:00)MythiKiwiMythiKiwi
255 The Sword of Rhivenia Jul 7, 2022 $6.99N/A (N/A)0 .. 20,0000%00:00 (00:00)Hosted GamesHosted Games
256 NIRAVASI Jul 6, 2022 $9.99N/A (N/A)0 .. 20,0000%00:00 (00:00)SOVERAMSOVERAM
257 Whisper Books Jul 1, 2022 $5.99N/A (N/A)20,000 .. 50,0000%00:00 (00:00)滑稽猫滑稽猫
258 Interactive Fiction and Adventure Creator (IFAC) Jun 30, 2022 $29.99N/A (N/A)0 .. 20,0000%00:00 (00:00)Andy JenningsCodeUpNYC
259 你与选择 You and Choice Jun 25, 2022 $0.99N/A (N/A)0 .. 20,0000%00:00 (00:00)灵虚之幽灵虚之幽
260 Yonder World: Interview with the Void Jun 23, 2022 $12.99N/A (N/A)0 .. 20,0000%00:00 (00:00)Fluttering AbyssFluttering Abyss
261 Social Services of the Doomed Jun 23, 2022 $7.99N/A (N/A)0 .. 20,0000%00:00 (00:00)Choice of GamesChoice of Games
262 30 days in red army Jun 22, 2022 $2.99N/A (N/A)0 .. 20,0000%00:00 (00:00)Eny Project s.r.o.Eny Project s.r.o.
263 Krypt Jun 21, 2022 $1.99N/A (N/A)0 .. 20,0000%00:00 (00:00)Sean Murley, Billy CoeSW Games
264 懒人修仙传2 Jun 21, 2022 $7.99N/A (N/A)50,000 .. 100,0000%00:00 (00:00)托更的修罗托更的修罗
265 我感染HIV了吗 Jun 20, 2022 $0.99N/A (N/A)20,000 .. 50,0000%00:00 (00:00)硬石工作室硬石工作室
266 New Year's Eve Miracle Jun 20, 2022 $1.99N/A (N/A)0 .. 20,0000%00:00 (00:00)Poesha GamesPoesha Games
267 WORDLAND - Let's Travel Jun 20, 2022 $1.99N/A (N/A)0 .. 20,0000%00:00 (00:00)Robotizar GamesRobotizar Games
268 xiuzhen idle Jun 20, 2022 $3.99N/A (N/A)50,000 .. 100,00050%332:42 (166:21)游戏养家工作室跪求愿望
269 三国英雄坛 Jun 17, 2022 $0.99N/A (N/A)0 .. 20,0000%00:00 (00:00)Bob GameBob Game
270 DnD Adventure: Wizard's Choice Jun 15, 2022 $4.99N/A (N/A)0 .. 20,0000%00:00 (00:00)CCSDelight Games
271 The Last Bastion Jun 15, 2022 $14.99N/A (N/A)0 .. 20,0000%00:00 (00:00)Voidpeak GamesVoidpeak Games
272 Hardcore Trivia Jun 14, 2022 $3.99N/A (N/A)0 .. 20,0000%00:00 (00:00)F-GamesJTS Development
273 Mugsy & Mugsy's Revenge Jun 13, 2022 $1.99N/A (N/A)0 .. 20,0000%00:00 (00:00)Beam Software, Melbourne HousePixel Games UK
274 『絵話 -kaiwa-』 Jun 7, 2022 $4.99N/A (N/A)0 .. 20,0000%00:00 (00:00)852話852話
275 停留此刻 Stay in the moment Jun 3, 2022 $0.99N/A (N/A)0 .. 20,0000%00:00 (00:00)遇见咖啡厅遇见咖啡厅
276 The Golden Rose: Book One Jun 2, 2022 $9.99N/A (N/A)0 .. 20,0000%00:00 (00:00)Hosted GamesHosted Games
277 Hellscape Jun 1, 2022 $1.99N/A (N/A)0 .. 20,0000%00:00 (00:00)Dawson MatthewsDawson Matthews
278 Something Strange May 31, 2022 $0.99N/A (N/A)0 .. 20,0000%00:00 (00:00)Ethan ZimmerleMr. Hand
279 Ante Mortem May 31, 2022 $3.99N/A (N/A)0 .. 20,0000%00:00 (00:00)Neil AugereauCoffee Interactive
280 Godland : The Fire Quest May 31, 2022 $2.99N/A (N/A)50,000 .. 100,0000%00:00 (00:00)Rabah ChikhiRabah Chikhi
281 Love Delivery May 30, 2022 $14.99N/A (N/A)20,000 .. 50,0000%00:00 (00:00)Onfire GamesOnfire Games
282 Upirja May 29, 2022 $7.99N/A (N/A)20,000 .. 50,0000%00:00 (00:00)Sgriu SoftSgriu Soft
283 Charlotte: Dragon Slayer May 29, 2022 $3.99N/A (N/A)20,000 .. 50,0000%00:00 (00:00)Succubella GamesAngel And Demons
284 Freshman Magic: Spellbooks and Tangled Sheets May 26, 2022 $5.99N/A (N/A)0 .. 20,0000%00:00 (00:00)Heart's Choice LLCHeart's Choice LLC
285 Fabled Lands May 26, 2022 $18.99N/A (N/A)20,000 .. 50,0000%00:00 (00:00)Prime GamesPrime Games
286 Our Fate Forsaken - Yaoi BL Visual Novel May 20, 2022 $4.99N/A (N/A)0 .. 20,0000%00:00 (00:00)ChaniMKChaniMK
287 Will Die Alone May 19, 2022 $4.99N/A (N/A)0 .. 20,0000%00:00 (00:00)Arianna RavioliFantastico Studio
288 真探 May 19, 2022 $7.99N/A (N/A)50,000 .. 100,0000%00:00 (00:00)黑袍IndieArk
289 Heroes of Book & Paper May 18, 2022 $6.99N/A (N/A)0 .. 20,0000%00:00 (00:00)LeMachingaLeMachinga
290 Tennis Manager 2022 May 17, 2022 $39.99N/A (N/A)0 .. 20,0000%00:00 (00:00)Rebound CGRebound CG
291 World Seed May 17, 2022 FreeN/A (N/A)20,000 .. 50,0000%00:00 (00:00)KortesApe Egg
292 烛光迷局 Candlelight May 13, 2022 $1.99N/A (N/A)20,000 .. 50,0000%00:00 (00:00)正方形劳伦斯, Lawsquare133正方形劳伦斯
293 Kaverini Nuuk Adventures May 13, 2022 $9.99N/A (N/A)20,000 .. 50,0000%00:00 (00:00)Jared Gimbel, Kaverini KorpKaverini Korp
294 Cepheus Protocol Anthology Season 1 May 12, 2022 $4.99N/A (N/A)0 .. 20,0000%00:00 (00:00)Halcyon WindsHalcyon Winds
295 Nikola Tesla: War of the Currents May 12, 2022 $6.99N/A (N/A)0 .. 20,0000%00:00 (00:00)Choice of GamesChoice of Games
296 The Liminal May 10, 2022 $2.49N/A (N/A)20,000 .. 50,0000%00:00 (00:00)AmygdalumAmygdalum
297 Naxos May 9, 2022 $4.99N/A (N/A)0 .. 20,0000%00:00 (00:00)PixelaborPixelabor
298 最后的仙门 The last Practice Sect May 9, 2022 $3.99N/A (N/A)50,000 .. 100,0000%00:00 (00:00)栖鸾工作室栖鸾工作室
299 Absolute Tennis Manager May 9, 2022 $19N/A (N/A)0 .. 20,0000%00:00 (00:00)ATEMIXATEMIX
300 The Detail's In The Devils May 6, 2022 $0.99N/A (N/A)0 .. 20,0000%00:00 (00:00)Cameron James LowCameron James Low
301 Dere-chat May 5, 2022 $0.99N/A (N/A)0 .. 20,0000%00:00 (00:00)Sleepy_Fox_InteractiveSleepy_Fox_Interactive
302 Paradox Factor May 5, 2022 $1.99N/A (N/A)0 .. 20,0000%00:00 (00:00)Hosted GamesHosted Games
303 Life of a Space Force Captain May 5, 2022 $5.99N/A (N/A)0 .. 20,0000%00:00 (00:00)Hosted GamesHosted Games
304 游戏玩家中医体质测试及养生指南 May 5, 2022 $2.99N/A (N/A)0 .. 20,0000%00:00 (00:00)曲波曲波
305 How to Sing to Open Your Heart Remastered May 5, 2022 $14.99N/A (N/A)0 .. 20,0000%00:00 (00:00)ROSEVERTEROSEVERTE
306 Sky Caravan May 5, 2022 $9.99N/A (N/A)0 .. 20,0000%00:00 (00:00)Studio BravardaStudio Bravarda
307 Age of Grit May 3, 2022 $14.99N/A (N/A)0 .. 20,0000%00:00 (00:00)IQ SoupIQ Soup
308 The Missing Thing May 1, 2022 $2.99N/A (N/A)0 .. 20,0000%00:00 (00:00)Tommy GamesTommy Games
309 Parallelia Apr 29, 2022 $0.49N/A (N/A)0 .. 20,0000%00:00 (00:00)SincArt StudioSincArt Studio
310 Knotwords Apr 28, 2022 $11.99N/A (N/A)0 .. 20,0000%00:00 (00:00)Zach Gage, Jack SchlesingerZach Gage
311 Tasty Love Apr 28, 2022 $15.99N/A (N/A)0 .. 20,0000%00:00 (00:00)Drunken KittenDrunken Kitten
312 Trapper: Drug Dealing RPG Apr 28, 2022 $14.99N/A (N/A)0 .. 20,0000%00:00 (00:00)Sancho Lathon JrSancho Lathon Jr
313 Terranova Apr 27, 2022 $20.04N/A (N/A)0 .. 20,0000%00:00 (00:00)CJ Knight, Matt KnightStudio Terranova
314 Hana no No ni Saku Utakata no Apr 22, 2022 $29.99N/A (N/A)0 .. 20,0000%00:00 (00:00)AppliqueHIKARI FIELD
315 Rocco's Inferno Apr 22, 2022 $2.99N/A (N/A)0 .. 20,0000%00:00 (00:00)Pupil 19 StudiosPupil 19 Studios
316 Rockstar Life Apr 21, 2022 $7.99N/A (N/A)0 .. 20,0000%00:00 (00:00)Worthy GameWorthy Game
317 Grey Eyes of Death Apr 21, 2022 $5.99N/A (N/A)0 .. 20,0000%00:00 (00:00)Hosted GamesHosted Games
318 Small phrases Great stories Apr 21, 2022 $0.99N/A (N/A)0 .. 20,0000%00:00 (00:00)Mardozux StudioMardozux Studio
319 内卷三年竟穿越:皇帝模拟器 Apr 19, 2022 $2.99N/A (N/A)0 .. 20,0000%00:00 (00:00)HexGameStudioHexGameStudio
320 灵异爱情.冷 Apr 16, 2022 $1.99N/A (N/A)0 .. 20,0000%00:00 (00:00)ghostGame devghostGame dev
321 Siege of Treboulain Apr 14, 2022 $5.99N/A (N/A)0 .. 20,0000%00:00 (00:00)Choice of Games LLCChoice of Games LLC
322 Suhoshin Apr 13, 2022 $12.72N/A (N/A)0 .. 20,0000%00:00 (00:00)No More 500No More 500
323 Athanasy Apr 13, 2022 $6.99N/A (N/A)20,000 .. 50,0000%00:00 (00:00)Wirion7DOTS
324 NEKO-MIMI SWEET HOUSEMATES Vol. 1 Apr 8, 2022 $15.99N/A (N/A)0 .. 20,0000%00:00 (00:00)Animal HerbSekai Project
325 边缘项目 / Living Island Project Apr 8, 2022 $9.99N/A (N/A)0 .. 20,0000%00:00 (00:00)LIP制作组LIP制作组
326 Relics 2: The Crusader's Tomb Apr 8, 2022 $6.99N/A (N/A)0 .. 20,0000%00:00 (00:00)Hosted GamesHosted Games
327 CHRONO CROSS: THE RADICAL DREAMERS EDITION Apr 7, 2022 $19.99N/A (N/A)50,000 .. 100,0000%00:00 (00:00)Square Enix, D4Enterprise Co.,Ltd.Square Enix
328 Tower Words Apr 7, 2022 $1.49N/A (N/A)0 .. 20,0000%00:00 (00:00)Company Not FoundCompany Not Found
329 How to Fool a Liar King Remastered Apr 7, 2022 $11.99N/A (N/A)0 .. 20,0000%00:00 (00:00)ROSEVERTEROSEVERTE
330 MOVEIT Apr 7, 2022 $0.99N/A (N/A)0 .. 20,0000%00:00 (00:00)DnovelTrinity Project
331 Lenin Simulator Apr 6, 2022 $4.99N/A (N/A)0 .. 20,0000%00:00 (00:00)lsimullsimul
332 Sakura Succubus 5 Apr 4, 2022 $9.99N/A (N/A)0 .. 20,0000%00:00 (00:00)Winged CloudWinged Cloud
333 SACROSANCT Apr 3, 2022 $6.99N/A (N/A)0 .. 20,0000%00:00 (00:00)FEYXUANFEYXUAN
334 Murasame Apr 3, 2022 $13.99N/A (N/A)0 .. 20,0000%00:00 (00:00)あいあんそぉどあいあんそぉど
335 Grim Quest - Old School RPG Apr 1, 2022 $7.99N/A (N/A)0 .. 20,0000%00:00 (00:00)MonomythMonomyth
336 start;again Mar 31, 2022 $5.99N/A (N/A)0 .. 20,0000%00:00 (00:00)Two and a Half StudiosTwo and a Half Studios
337 Queen of the flies 蝇后 Mar 31, 2022 $0.49N/A (N/A)0 .. 20,0000%00:00 (00:00)吃了就睡工作室, 夜神说话吃了就睡工作室
338 A=B Mar 29, 2022 $4.99N/A (N/A)20,000 .. 50,0000%00:00 (00:00)Artless GamesArtless Games
339 恋~一些小清新的猎奇故事~ Mar 29, 2022 $1.49N/A (N/A)0 .. 20,0000%00:00 (00:00)桐生バトラ(疑狐社)Miwu Studio, WindField Games
340 Forgotten Realms: The Archives - Collection One Mar 29, 2022 $9.99N/A (N/A)0 .. 20,0000%00:00 (00:00)Westwood Associates, Strategic SimulationsSNEG
341 Satan's puzzle 666 Mar 29, 2022 $1.59N/A (N/A)0 .. 20,0000%00:00 (00:00)Silvestre Gore ArtGorestation
342 Last Threshold Mar 24, 2022 $4.99N/A (N/A)0 .. 20,0000%00:00 (00:00)Astrolabe StoriesAstrolabe Stories
343 Mixed Feelings: While You Were Away (Yaoi BL Visual Novel) Mar 24, 2022 $4.99N/A (N/A)0 .. 20,0000%00:00 (00:00)ChaniMKChaniMK
344 Vampire: The Masquerade — Sins of the Sires Mar 24, 2022 $9.99N/A (N/A)0 .. 20,0000%00:00 (00:00)Choice of GamesChoice of Games
345 League Manager 2022 Mar 24, 2022 $24.99N/A (N/A)20,000 .. 50,0000%00:00 (00:00)AG SOFTAG SOFT
346 World Empire 2027 Mar 23, 2022 $14.99N/A (N/A)0 .. 20,0000%00:00 (00:00)iGindisGamesiGindisGames
347 Chronicles of Tal'Dun: The Remainder Mar 23, 2022 $19.99N/A (N/A)0 .. 20,0000%00:00 (00:00)Square Weasel StudioSquare Weasel Studio
348 Hate Free Heroes Tactics: Strategy Building MMO Mar 22, 2022 $14.99N/A (N/A)0 .. 20,0000%00:00 (00:00)Hate Free HeroesHate Free Heroes
349 9-nine-:NewEpisode Mar 18, 2022 $9.99N/A (N/A)0 .. 20,0000%00:00 (00:00)PALETTESekai Project
350 Cactus Clicker - Bofete Stories Mar 18, 2022 $0.59N/A (N/A)0 .. 20,0000%00:00 (00:00)DreamlikeDreamlike
351 A List Of People Who Went Missing In The Scheleirland National Forest Mar 14, 2022 $5.99N/A (N/A)0 .. 20,0000%00:00 (00:00)F.SDRIF.SDRI
352 道不可道 Mar 12, 2022 $1.99N/A (N/A)200,000 .. 500,0000%00:00 (00:00)乐子人乐子人
353 虫鸣 Mar 11, 2022 $7.99N/A (N/A)50,000 .. 100,0000%00:00 (00:00)深圳市创源互娱科技有限公司深圳市创源互娱科技有限公司
354 Coral Drive Mar 10, 2022 $3.99N/A (N/A)0 .. 20,0000%00:00 (00:00)HappyDaram Inc.HappyDaram Inc.
355 Draft Day Sports: College Basketball 2022 Mar 10, 2022 $29.99N/A (N/A)0 .. 20,0000%00:00 (00:00)Wolverine StudiosWolverine Studios
356 Back 2 School Mar 9, 2022 $4.99N/A (N/A)0 .. 20,0000%00:00 (00:00)Goldenrod GamesGoldenrod Games
357 LAMBDA end THEORY Mar 8, 2022 $1.99N/A (N/A)0 .. 20,0000%00:00 (00:00)PixleavesPixleaves
358 Help Me Remember, Satori-sama! Mar 7, 2022 $6.99N/A (N/A)50,000 .. 100,0000%00:00 (00:00)ISYISY
359 How to Take Off Your Mask Remastered Mar 4, 2022 $14.99N/A (N/A)20,000 .. 50,0000%00:00 (00:00)ROSEVERTEROSEVERTE
360 Dungeon Alone Mar 4, 2022 $2.99N/A (N/A)0 .. 20,0000%00:00 (00:00)HexGameStudioHexGameStudio
361 雾尽时分 Mar 3, 2022 $9.99N/A (N/A)0 .. 20,0000%00:00 (00:00)济沧海工作室Pujia8 Studio
362 AI Roguelite Mar 2, 2022 $6.99N/A (N/A)100,000 .. 200,0000%00:00 (00:00)Max LohMax Loh
363 Yumeiri Mar 1, 2022 $8N/A (N/A)0 .. 20,0000%00:00 (00:00)AffilityAffility
364 The Dark Prophecy Feb 28, 2022 $9.99N/A (N/A)0 .. 20,0000%00:00 (00:00)Start WarpMeridian4
365 Showbiz Tycoon Feb 25, 2022 $10.99N/A (N/A)0 .. 20,0000%00:00 (00:00)Olie GamesOlie Games
366 ASCIILL Feb 25, 2022 $4.99N/A (N/A)0 .. 20,0000%00:00 (00:00)UAB Puzzle LabDIGITAL LOUNGE
367 Cube Runk Feb 25, 2022 $1.99N/A (N/A)50,000 .. 100,0000%00:00 (00:00)HeliongamesHeliongames
368 Revolution Diabolique Feb 24, 2022 $7.99N/A (N/A)0 .. 20,0000%00:00 (00:00)Choice of GamesChoice of Games
369 Mr. Rainer's Solve-It Service Feb 21, 2022 $5.99N/A (N/A)0 .. 20,0000%00:00 (00:00)etheraneetherane
370 Perfect Tides Feb 21, 2022 $14.99N/A (N/A)0 .. 20,0000%00:00 (00:00)Three BeesThree Bees
371 Learn Programming: Python - Remake Feb 21, 2022 $2.99N/A (N/A)0 .. 20,0000%00:00 (00:00)Niema MoshiriNiema Moshiri
372 One day after the snow and wind Feb 20, 2022 $0.99N/A (N/A)0 .. 20,0000%00:00 (00:00)灵虚之幽灵虚之幽
373 Mysteria of the World: The forest of Death Feb 19, 2022 $5.99N/A (N/A)0 .. 20,0000%00:00 (00:00)Remnants of mosaicRemnants of mosaic
374 浮生箓 Floating Life Feb 17, 2022 $2.99N/A (N/A)0 .. 20,0000%00:00 (00:00)心流工作室(Heart Stream Studio)心流工作室(Heart Stream Studio)
375 Bad Credit Feb 17, 2022 $5.99N/A (N/A)0 .. 20,0000%00:00 (00:00)Riley Sampson, Arthur O'KeefeSoldier Girl Interactive
376 精神病大王花 Flowering Abyss Feb 13, 2022 $7.99N/A (N/A)0 .. 20,0000%00:00 (00:00)CHARONPujia8 Studio
377 To Make a Game Feb 12, 2022 $0.99N/A (N/A)0 .. 20,0000%00:00 (00:00)TheBluePenguinTheBluePenguin
378 她曾经活过啊 Feb 11, 2022 $0.99N/A (N/A)0 .. 20,0000%00:00 (00:00)shushanmaoshushanmao
379 Inua - A Story in Ice and Time Feb 10, 2022 $14.99N/A (N/A)0 .. 20,0000%00:00 (00:00)The Pixel Hunt, IKO, ARTE FranceARTE France
380 Brimstone Manor Feb 10, 2022 $4.99N/A (N/A)0 .. 20,0000%00:00 (00:00)Heart's ChoiceHeart's Choice
381 Cyanotype Daydream -The Girl Who Dreamed the World- Feb 9, 2022 $39.99N/A (N/A)0 .. 20,0000%00:00 (00:00)LaplacianLaplacian
382 OS:Memories Feb 9, 2022 $2.44N/A (N/A)0 .. 20,0000%00:00 (00:00)BASI StudiosBASI Studios
383 戛然而止的音符 Feb 7, 2022 $0.99N/A (N/A)0 .. 20,0000%00:00 (00:00)临雪制作组临雪制作组
384 挂机神话 Feb 6, 2022 $1.99N/A (N/A)100,000 .. 200,0000%00:00 (00:00)摸鱼猫工作室摸鱼猫工作室
385 7 Days to End with You Feb 6, 2022 $4.99N/A (N/A)50,000 .. 100,0000%00:00 (00:00)LizardryLizardry
386 Bad Faith Feb 4, 2022 $9.99N/A (N/A)0 .. 20,0000%00:00 (00:00)MadoMado
387 Community College Hero: Fun and Games Feb 3, 2022 $3.99N/A (N/A)0 .. 20,0000%00:00 (00:00)Hosted GamesHosted Games
388 Leningrad Jan 31, 2022 $0.99N/A (N/A)50,000 .. 100,0000%00:00 (00:00)Under ThreeUnder Three
389 瓔珞事件簿之誰殺了愛情 Jan 30, 2022 $4.99N/A (N/A)0 .. 20,0000%00:00 (00:00)傅真Genuine Studio Ltd
390 120 Yen Stories Jan 27, 2022 $19.99N/A (N/A)0 .. 20,0000%00:00 (00:00)NekoNeko SoftiMoe Games
391 The VII Enigma Jan 25, 2022 $9.99N/A (N/A)0 .. 20,0000%00:00 (00:00)Spire GamesSpire Games
392 アーキタイプ・アーカディア Jan 23, 2022 $29.99N/A (N/A)0 .. 20,0000%00:00 (00:00)Water PhoenixKEMCO
393 我就是要红 Jan 23, 2022 $5.99N/A (N/A)0 .. 20,0000%00:00 (00:00)闪艺互动闪艺互动
394 Lastone: Behind the Choice Jan 21, 2022 $4.99N/A (N/A)0 .. 20,0000%00:00 (00:00)Dragon Emperors, Great Conspiracy TheoryDragon Emperors
395 Word Crack Jan 21, 2022 $2.99N/A (N/A)0 .. 20,0000%00:00 (00:00)LonelyOcelotLonelyOcelot
396 NEEDY STREAMER OVERLOAD Jan 21, 2022 $15.99N/A (N/A)200,000 .. 500,0000%00:00 (00:00)WSS playground, xemonoWSS playground
397 Shuzzler Jan 20, 2022 $14.99N/A (N/A)0 .. 20,0000%00:00 (00:00)DC Creation StudiosDC Creation Studios
398 Late Bird Jan 20, 2022 $0.99N/A (N/A)0 .. 20,0000%00:00 (00:00)Vladimir SlavColdwild Games
399 Energy Island Corp. Jan 19, 2022 $5.99N/A (N/A)0 .. 20,0000%00:00 (00:00)SpirkopGamesSpirkopGames
400 Black Lazar Jan 19, 2022 $6.99N/A (N/A)50,000 .. 100,0000%00:00 (00:00)Pleon WordsPleon Words
401 Follow the Black Kitten Jan 17, 2022 $0.99N/A (N/A)0 .. 20,0000%00:00 (00:00)TotalЛД [ЛетоДайджест]
402 The Soul Stone War 2 Jan 13, 2022 $6.99N/A (N/A)0 .. 20,0000%00:00 (00:00)Hosted GamesHosted Games
403 Cataplexy Jan 12, 2022 $1.99N/A (N/A)0 .. 20,0000%00:00 (00:00)gooodboringDiada Novels
404 My Nemesis and Hero - A Slice of Life BL/Yaoi Visual Novel Jan 11, 2022 $4.99N/A (N/A)0 .. 20,0000%00:00 (00:00)ChaniMKChaniMK
405 Sakura Alien Jan 10, 2022 $9.99N/A (N/A)0 .. 20,0000%00:00 (00:00)Winged CloudWinged Cloud
406 An Outcry Jan 5, 2022 $9.99N/A (N/A)0 .. 20,0000%00:00 (00:00)Quinn K.Quinn K.
407 Peculiar Tales of Mid-Lake Pavilion Dec 31, 2021 $3.59N/A (N/A)0 .. 20,0000%00:00 (00:00)致意致意
408 风起长安:驭骨人 Dec 30, 2021 $13.99N/A (N/A)0 .. 20,0000%00:00 (00:00)轻梨工作室咕咕工作室
409 Devil's Eyes Dec 28, 2021 $3.24N/A (N/A)0 .. 20,0000%00:00 (00:00)Rapid Duck StudioRapid Duck Studio
410 World Wide Hack Dec 22, 2021 $16.99N/A (N/A)0 .. 20,0000%00:00 (00:00)Lotus InnovationsLotus Innovations
411 Jay Schilling's Edge of Chaos Dec 21, 2021 $4.99N/A (N/A)0 .. 20,0000%00:00 (00:00)Jolt CountryJolt Country
412 Item synthesis and dungeon exploration Dec 21, 2021 $6.99N/A (N/A)0 .. 20,0000%00:00 (00:00)OikariBunchoOikariBuncho
413 陌生人 Dec 21, 2021 $1.99N/A (N/A)0 .. 20,0000%00:00 (00:00)Plot ClubPlot Club
414 江湖乐子人 Dec 21, 2021 $0.99N/A (N/A)0 .. 20,0000%00:00 (00:00)乐子人乐子人
415 The Cloud Dream of the Nine Dec 20, 2021 $19.99N/A (N/A)0 .. 20,0000%00:00 (00:00)SesisoftSesisoft
416 Code.Breaker() Dec 18, 2021 $9.99N/A (N/A)20,000 .. 50,0000%00:00 (00:00)HokaBento StudioHokaBento Studio GmbH
417 Cinemoji: Series Dec 17, 2021 $0.99N/A (N/A)0 .. 20,0000%00:00 (00:00)Gray BossGray Boss
418 Slobbish Dragon Princess 2 Dec 17, 2021 $14.99N/A (N/A)0 .. 20,0000%00:00 (00:00)WhirlpoolSekai Project
419 Rewrite+ Dec 17, 2021 $49.99N/A (N/A)0 .. 20,0000%00:00 (00:00)VisualArts/KeySekai Project
420 门里 Dec 17, 2021 $3.49N/A (N/A)0 .. 20,0000%00:00 (00:00)细分工作室 BD Games
421 Echoes Dec 16, 2021 $4.99N/A (N/A)0 .. 20,0000%00:00 (00:00)Baba NuraBaba Nura, Feodosiy
422 Milk outside a bag of milk outside a bag of milk Dec 16, 2021 $8.99N/A (N/A)100,000 .. 200,0009.09%00:02 (00:00)Nikita KryukovNikita Kryukov
423 贸易与马车 Dec 16, 2021 $2.99N/A (N/A)0 .. 20,0000%00:00 (00:00)SiTong TechSiTong Tech
424 Too Many Santas! Dec 14, 2021 $6.99N/A (N/A)20,000 .. 50,0000%00:00 (00:00)Oh, a Rock! StudiosOh, a Rock! Studios
425 Retired Men's Nude Beach Volleyball League Dec 10, 2021 $6.99N/A (N/A)0 .. 20,0000%00:00 (00:00)Snowrunner GamesSnowrunner Games
426 うんこタイピング Dec 10, 2021 $9.99N/A (N/A)0 .. 20,0000%00:00 (00:00)INORK GameINORK Game
427 Witchcraft U Dec 9, 2021 $4.99N/A (N/A)0 .. 20,0000%00:00 (00:00)Choice of GamesChoice of Games
428 VOICE Dec 9, 2021 $13.29N/A (N/A)0 .. 20,0000%00:00 (00:00)WTFMANWTFMAN
429 The Wishing Stone Dec 9, 2021 $8.99N/A (N/A)0 .. 20,0000%00:00 (00:00)Dream Nyght StudioDream Nyght Studio
430 QuizPoker: Mix of Quiz and Poker Dec 8, 2021 $5.99N/A (N/A)0 .. 20,0000%00:00 (00:00)SiwaluSiwalu
431 Sports Betting Simulator Dec 6, 2021 $0.99N/A (N/A)0 .. 20,0000%00:00 (00:00)Ashina GamesAshina Games
432 誰是犯案者 Who is the Criminal Dec 3, 2021 $7.99N/A (N/A)0 .. 20,0000%00:00 (00:00)莉莉恩工作室莉莉恩工作室
433 The Divine Deception Dec 3, 2021 $14.99N/A (N/A)20,000 .. 50,0000%00:00 (00:00)ThemisianThemisian
434 Faerie's Bargain: The Price of Business Dec 2, 2021 $5.99N/A (N/A)0 .. 20,0000%00:00 (00:00)Choice of GamesChoice of Games
435 Tied by your Red Nov 28, 2021 $3.99N/A (N/A)0 .. 20,0000%00:00 (00:00)YurifYurif, Light of Creators
436 Space Hoarders Inc. Nov 26, 2021 $11.99N/A (N/A)0 .. 20,0000%00:00 (00:00)DogWater EntertainmentDogWater Entertainment
437 航天计划 Nov 25, 2021 $0.99N/A (N/A)0 .. 20,0000%00:00 (00:00)猎人飞驰猎人飞驰
438 My Cashy Side Job at Lost&Found in the Subway of Million-Person City Nov 25, 2021 $2.99N/A (N/A)0 .. 20,0000%00:00 (00:00)Unusual MeaningUnusual Meaning
439 Cliffhanger: Challenger of Tomorrow Nov 24, 2021 $5.99N/A (N/A)20,000 .. 50,0000%00:00 (00:00)Choice of GamesChoice of Games
440 猫不语 Nov 18, 2021 $6.99N/A (N/A)0 .. 20,0000%00:00 (00:00)库库尔坎游戏工作室库库尔坎游戏工作室
441 Augmented Future Nov 18, 2021 $4.99N/A (N/A)0 .. 20,0000%00:00 (00:00)Spicy Noodle StudiosSpicy Noodle Studios
442 异界转生 这次变成了传说中的勇者呢(受) Nov 18, 2021 $18.99N/A (N/A)0 .. 20,0000%00:00 (00:00)株式会社コンテンツシード, 株式会社プラス81株式会社クレイズ
443 BOT.vinnik Chess: Mid-Century USSR Championships Nov 17, 2021 $0.99N/A (N/A)0 .. 20,0000%00:00 (00:00)Deep Green GamesAbyssal Studios
444 Hardwork Simulator Nov 17, 2021 $1.99N/A (N/A)0 .. 20,0000%00:00 (00:00)MandingaMandinga
445 Sakura Forest Girls 3 Nov 15, 2021 $9.99N/A (N/A)0 .. 20,0000%00:00 (00:00)Winged CloudWinged Cloud
446 The Vellescian Gambit Nov 15, 2021 $4.99N/A (N/A)0 .. 20,0000%00:00 (00:00)Vellescian GamesVellescian Games
447 Guardian of the future Nov 15, 2021 $9.99N/A (N/A)0 .. 20,0000%00:00 (00:00)Lotos ProjectLotos Project
448 Temple of Endless Night Nov 12, 2021 $4.99N/A (N/A)0 .. 20,0000%00:00 (00:00)Hosted GamesHosted Games
449 Bobok Nov 11, 2021 $4.99N/A (N/A)0 .. 20,0000%00:00 (00:00)SectaSecta
450 Wager Nov 11, 2021 $4.99N/A (N/A)0 .. 20,0000%00:00 (00:00)Zever GamesZever Games
451 ReTox Nov 10, 2021 $11.99N/A (N/A)0 .. 20,0000%00:00 (00:00)Dopamine GamesDopamine Games
452 Death Becomes You - Mystery Visual Novel Nov 9, 2021 $8.99N/A (N/A)0 .. 20,0000%00:00 (00:00)Quill Game StudiosQuill Game Studios, Quill Yuri
453 The Sin Collector: Repentless Nov 9, 2021 $14.99N/A (N/A)20,000 .. 50,0000%00:00 (00:00)Sylen StudioSylen Studio
454 琴覆天下 Nov 8, 2021 $9.99N/A (N/A)0 .. 20,0000%00:00 (00:00)闪艺互动闪艺互动
455 Winning Love by Daylight [Ep 1+2] Nov 8, 2021 $3.99N/A (N/A)0 .. 20,0000%00:00 (00:00)Cutlass BoardgamesCutlass Boardgames
456 Cinemoji: Halloween Nov 7, 2021 $0.99N/A (N/A)0 .. 20,0000%00:00 (00:00)Gray BossGray Boss
457 Gear of Glass: Eolarn's war Nov 7, 2021 $14.99N/A (N/A)0 .. 20,0000%00:00 (00:00)Remnants of mosaicRemnants of mosaic
458 4 Alice Magical Autistic Girls Nov 6, 2021 N/AN/A (N/A)0 .. 20,0000%00:00 (00:00)MiaMia
459 Meet PIP Nov 6, 2021 $2.99N/A (N/A)0 .. 20,0000%00:00 (00:00)PaperMill GamesPaperMill Games
460 Drynk: Board and Drinking Game Nov 5, 2021 $5.99N/A (N/A)0 .. 20,0000%00:00 (00:00)SiwaluSiwalu
461 The Oath of The Dark Magic Queen Nov 5, 2021 $4.99N/A (N/A)0 .. 20,0000%00:00 (00:00)DessertTheorySekai Project
462 舔狗模拟器 Nov 5, 2021 $4.99N/A (N/A)0 .. 20,0000%00:00 (00:00)Studio SixStudio Six
463 The Railway Nov 4, 2021 $1.99N/A (N/A)0 .. 20,0000%00:00 (00:00)Honest NovelsHonest Novels
464 Saimin Gakushū: Secret Desire Nov 4, 2021 $19.99N/A (N/A)0 .. 20,0000%00:00 (00:00)Dark One!Shiravune
465 Sumy Shelltris - ICEBLOCKS 1 Nov 3, 2021 $1.99N/A (N/A)0 .. 20,0000%00:00 (00:00)Mario Roberto da SilvaStar Shell
466 方块地牢 Nov 3, 2021 $1.99N/A (N/A)50,000 .. 100,0000%00:00 (00:00)小五小五
467 1f y0u're a gh0st ca11 me here! 幽铃热线 Nov 1, 2021 $6.99N/A (N/A)0 .. 20,0000%00:00 (00:00)Furoshiki Lab.WhisperGames
468 The Hunter's Journals - Tattered Sails Oct 31, 2021 $5.99N/A (N/A)0 .. 20,0000%00:00 (00:00)Grindwheel GamesGrindwheel Games
469 Atomic Cards Oct 28, 2021 $9.99N/A (N/A)20,000 .. 50,0000%00:00 (00:00)SerVGHide Head
470 Vampire: The Masquerade — Parliament of Knives Oct 28, 2021 $9.99N/A (N/A)0 .. 20,0000%00:00 (00:00)Choice of GamesChoice of Games
471 Plan B from Outer Space: A Bavarian Odyssey Oct 28, 2021 $12.49N/A (N/A)50,000 .. 100,0000%00:00 (00:00)RobotPumpkin GamesAssemble Entertainment
472 Once More Oct 27, 2021 $14.99N/A (N/A)0 .. 20,0000%00:00 (00:00)Malheur GamesMalheur Games
473 Franchise Hockey Manager 8 Oct 26, 2021 $19.99N/A (N/A)0 .. 20,0000%00:00 (00:00)Out of the Park Developments, Minos GamesOut of the Park Developments
474 Hermitage: Strange Case Files Oct 26, 2021 $19.99N/A (N/A)0 .. 20,0000%00:00 (00:00)ArrowizGiiku Games
475 Amazing Superhero Squad Oct 22, 2021 $6.99N/A (N/A)0 .. 20,0000%00:00 (00:00)Siberian KoalaSiberian Koala
476 Foul Play - Yuri Visual Novel Oct 21, 2021 $13.99N/A (N/A)0 .. 20,0000%00:00 (00:00)Bandit Visual GamesBandit Visual Games
477 Motivational Hero Vol. 2 Oct 21, 2021 $0.99N/A (N/A)0 .. 20,0000%00:00 (00:00)Euclides LopesEuclides Lopes
478 Sword Princess Amaltea - The Visual Novel Oct 21, 2021 $24.99N/A (N/A)0 .. 20,0000%00:00 (00:00)Senpai Media GroupNatalia Batista
479 Rubicon : a conspiracy of silence Oct 20, 2021 $9.99N/A (N/A)0 .. 20,0000%00:00 (00:00)Midnight Mood Studio, La Belle GamesLa Belle Games
480 Summer In Trigue Oct 18, 2021 $17.99N/A (N/A)0 .. 20,0000%00:00 (00:00)Winter WolvesWinter Wolves
481 Chronicles of Tal'Dun: The Remainder - Act 2 Oct 18, 2021 N/AN/A (N/A)0 .. 20,0000%00:00 (00:00)Square Weasel StudioSquare Weasel Studio
482 Tales of the Black Death Oct 15, 2021 $9.99N/A (N/A)0 .. 20,0000%00:00 (00:00)Doubleton Game StudioDoubleton Game Studio
483 Love Duction! The Guide for Galactic Lovers Oct 15, 2021 $12.99N/A (N/A)0 .. 20,0000%00:00 (00:00)US8Sekai Project
484 Copy Editor: A RegEx Puzzle Oct 14, 2021 $6.99N/A (N/A)0 .. 20,0000%00:00 (00:00)Christopher JarvisCinq-Mars Media
485 Draft Day Sports: Pro Football 2022 Oct 14, 2021 $24.99N/A (N/A)0 .. 20,0000%00:00 (00:00)Wolverine StudiosWolverine Studios
486 Ninki Seiyuu: How to Make a Pop Voice Actress Oct 14, 2021 $39.99N/A (N/A)0 .. 20,0000%00:00 (00:00)MintCUBEShiravune
487 Increlution Oct 13, 2021 $2.99N/A (N/A)50,000 .. 100,0000%00:00 (00:00)GnillerGniller
488 The Last Will Oct 13, 2021 $1.99N/A (N/A)0 .. 20,0000%00:00 (00:00)ODBear StudiosODBear Studios
489 SCP Foundation: ITTLG - Chapter 1 Oct 13, 2021 $1.99N/A (N/A)0 .. 20,0000%00:00 (00:00)Deniz DzhevatovNek-Orb Studios
490 Toolnich Village Oct 13, 2021 $0.99N/A (N/A)0 .. 20,0000%00:00 (00:00)BionutulBionutul
491 风信楼 Oct 13, 2021 $11.99N/A (N/A)100,000 .. 200,0000%00:00 (00:00)Pingfang GamesPingfang Games
492 Not It: Spookiest Edition Oct 12, 2021 $6.99N/A (N/A)20,000 .. 50,0000%00:00 (00:00)Snowhaven StudiosSnowhaven Studios
493 ASTRA Oct 12, 2021 $0.99N/A (N/A)20,000 .. 50,0000%00:00 (00:00)Crooked RoadPiece Of Voxel
494 Hidden Words Oct 8, 2021 $4.99N/A (N/A)0 .. 20,0000%00:00 (00:00)Alcedo GamesAlcedo Games
495 投资模拟器:打工人 Oct 7, 2021 $11.99N/A (N/A)50,000 .. 100,0000%00:00 (00:00)Bosa-GamesBD Games
496 Interstellar Airgap Oct 7, 2021 $4.99N/A (N/A)20,000 .. 50,0000%00:00 (00:00)Hosted GamesHosted Games
497 This Game is Crap Oct 5, 2021 $6.99N/A (N/A)0 .. 20,0000%00:00 (00:00)Marek SlowigMarek Slowig
498 CLOSED HANDS Oct 4, 2021 $5.99N/A (N/A)0 .. 20,0000%00:00 (00:00)PASSENGERPASSENGER
499 Typer Hero (打字英雄) Oct 2, 2021 $0.99N/A (N/A)0 .. 20,0000%00:00 (00:00)KeKaiXinLeKeKaiXinLe
500 Last Days Oct 2, 2021 $2.99N/A (N/A)20,000 .. 50,0000%00:00 (00:00)琉璃花糖制作组, Garakowa Marshmallow琉璃花糖制作组, Garakowa Marshmallow
501 Legends of Murder Collection Oct 1, 2021 $6.99N/A (N/A)50,000 .. 100,0000%00:00 (00:00)Softdisk PublishingZiggurat
502 The prisoner of the Night Oct 1, 2021 $16.99N/A (N/A)0 .. 20,0000%00:00 (00:00)RMALRMAL
503 Dear Agony Aunt Oct 1, 2021 $2.49N/A (N/A)0 .. 20,0000%00:00 (00:00)Faye StrawberryFaye Strawberry
504 The Summit High School: Prologue Episode Sep 30, 2021 N/AN/A (N/A)0 .. 20,0000%00:00 (00:00)GLOBINSGLOBINS
505 WORDDING Sep 30, 2021 FreeN/A (N/A)0 .. 20,0000%00:00 (00:00)RoomsForRocketsRoomsForRockets
506 Would you like to run an idol café? 2 Sep 27, 2021 $9.99N/A (N/A)0 .. 20,0000%00:00 (00:00)StarlightTree GamesWinged Cloud
507 Visual Novel Sisters Sep 23, 2021 $1.39N/A (N/A)0 .. 20,0000%00:00 (00:00)Ultimate 3D NovelsUltimate 3D Novels
508 ARISEN - Chronicles of Var'Nagal Sep 21, 2021 $15.99N/A (N/A)0 .. 20,0000%00:00 (00:00)Maratus, Homecoming StudioMaratus, Homecoming Studio
509 当火车鸣笛三秒 Sep 19, 2021 $9.99N/A (N/A)0 .. 20,0000%00:00 (00:00)蒐藏馆工作室MedusasGame
510 Wraiths of SENTINEL Sep 16, 2021 $5.99N/A (N/A)0 .. 20,0000%00:00 (00:00)Choice of GamesChoice of Games
511 Motivational Hero Sep 14, 2021 $1.99N/A (N/A)0 .. 20,0000%00:00 (00:00)Euclides LopesEuclides Lopes
512 BASIC ROGUE Sep 11, 2021 $2.99N/A (N/A)20,000 .. 50,0000%00:00 (00:00)Indie Jon S.The Doomed Studio
513 Cauldrons of War - Stalingrad Sep 10, 2021 $11.24N/A (N/A)0 .. 20,0000%00:00 (00:00)Maestro CinetikGaming at Work
514 ANYEK - The Keyboard Puzzle Sep 10, 2021 $7.99N/A (N/A)0 .. 20,0000%00:00 (00:00)Garage StudioGarage Studio
515 The Vampire Regent Sep 9, 2021 $6.99N/A (N/A)0 .. 20,0000%00:00 (00:00)Hosted GamesHosted Games
516 Dull Grey Sep 8, 2021 $4.99N/A (N/A)20,000 .. 50,0000%00:00 (00:00)Provodnik GamesProvodnik Games
517 Timothy Leary's Mind Mirror Sep 2, 2021 $5.99N/A (N/A)0 .. 20,0000%00:00 (00:00)Futique, Inc.Moon Books LLC
518 BOT.vinnik Chess: Early USSR Championships Sep 2, 2021 $0.59N/A (N/A)0 .. 20,0000%00:00 (00:00)Deep Green GamesAbyssal Studios
519 Idle Trading Simulator Sep 2, 2021 $1.99N/A (N/A)20,000 .. 50,0000%00:00 (00:00)DiamosDevDiamosDev
520 A Curse From Beyond Aug 30, 2021 $4.99N/A (N/A)0 .. 20,0000%00:00 (00:00)Cave Ghost GamesCave Ghost Games
521 幸存者乐园 Aug 28, 2021 $4.99N/A (N/A)0 .. 20,0000%00:00 (00:00)幸存者乐园幸存者乐园
522 Arcade Boy Aug 27, 2021 FreeN/A (N/A)100,000 .. 200,0000%00:00 (00:00)Edvar StudioEdvar Studio
523 The Play's the Thing Aug 26, 2021 $4.99N/A (N/A)0 .. 20,0000%00:00 (00:00)Choice of GamesChoice of Games
524 The Craft of the Samurai Aug 25, 2021 FreeN/A (N/A)0 .. 20,0000%00:00 (00:00)Evgeniy SevostyanovEvgeniy Sevostyanov
525 Embraced by Autumn Aug 24, 2021 $18.99N/A (N/A)0 .. 20,0000%00:00 (00:00)ebi-himeebi-hime
526 WAVER: A Typing Adventure Aug 20, 2021 $11.99N/A (N/A)0 .. 20,0000%00:00 (00:00)Buried ThingsBuried Things
527 Help Me! Aug 20, 2021 $17.99N/A (N/A)0 .. 20,0000%00:00 (00:00)UnicONUnicON
528 BlackberryNOVA Aug 19, 2021 $4.99N/A (N/A)0 .. 20,0000%00:00 (00:00)Nova B12Nova B12
529 Blood for Poppies Aug 19, 2021 $4.99N/A (N/A)20,000 .. 50,0000%00:00 (00:00)Hosted GamesHosted Games
530 Blackout: The Darkest Night Aug 19, 2021 $5.99N/A (N/A)0 .. 20,0000%00:00 (00:00)MiniChimera Game StudioMiniChimera Game Studio
531 Vain Riser Aug 19, 2021 $10.39N/A (N/A)0 .. 20,0000%00:00 (00:00)弦语蝶梦弦语蝶梦
532 Confessions Aug 18, 2021 $2.99N/A (N/A)0 .. 20,0000%00:00 (00:00)Peace & Love GamesPeace & Love Games
533 START AGAIN: a prologue Aug 18, 2021 $10.99N/A (N/A)50,000 .. 100,0000%00:00 (00:00)insertdisc5insertdisc5
534 Space to Grow Aug 13, 2021 $9.99N/A (N/A)0 .. 20,0000%00:00 (00:00)Metasepia GamesMetasepia Games
535 Battlemage: Magic by Mail Aug 12, 2021 $4.99N/A (N/A)0 .. 20,0000%00:00 (00:00)Choice of GamesChoice of Games
536 You Can Kana - Learn Japanese Hiragana & Katakana Aug 11, 2021 $9.99N/A (N/A)0 .. 20,0000%00:00 (00:00)James MoulangJames Moulang
537 Tales of the Mirror Aug 11, 2021 $7.99N/A (N/A)20,000 .. 50,0000%00:00 (00:00)Cotton GameCotton Game
538 Deus Lo Veult Aug 10, 2021 $9.99N/A (N/A)0 .. 20,0000%00:00 (00:00)PageBoyGamePageBoyGame
539 Do 11 Aug 9, 2021 $1.99N/A (N/A)0 .. 20,0000%00:00 (00:00)SJR TeamSJR Team
540 IdolDays Aug 5, 2021 $12.99N/A (N/A)0 .. 20,0000%00:00 (00:00)iMel, qureatequreate
541 汉字大冒险 Aug 4, 2021 $3.49N/A (N/A)0 .. 20,0000%00:00 (00:00)InsVolcStudioInsVolcStudio
542 Medium: The Psychic Party Game Aug 2, 2021 $9.99N/A (N/A)0 .. 20,0000%00:00 (00:00)Unboxed Games LLC, Oh My GamesUnboxed Games LLC
543 Eternal Secret Jul 30, 2021 $2.99N/A (N/A)20,000 .. 50,0000%00:00 (00:00)Piotr KaniewskiGGEntertainment
544 BUSTAFELLOWS Jul 30, 2021 $39.99N/A (N/A)20,000 .. 50,0000%00:00 (00:00)NIPPON CULTURAL BROADCASTING EXTEND INC.PQube
545 kana!kana? Jul 30, 2021 $0.49N/A (N/A)0 .. 20,0000%00:00 (00:00)花果山勇士神选OFFICIAL花果山勇士神选OFFICIAL
546 Murder on the Marine Express Jul 30, 2021 $4.99N/A (N/A)0 .. 20,0000%00:00 (00:00)1564 Studio1564 Studio
547 Vampire: The Masquerade — Out for Blood Jul 29, 2021 $11.99N/A (N/A)0 .. 20,0000%00:00 (00:00)Choice of GamesChoice of Games
548 Fairy Sister Jul 29, 2021 $1.99N/A (N/A)0 .. 20,0000%00:00 (00:00)玫瑰工作室玫瑰工作室
549 Nothing To Remember Jul 29, 2021 $1.99N/A (N/A)0 .. 20,0000%00:00 (00:00)Guts UnitedGuts United
550 Traditional Chinese Medicine Simulator Jul 28, 2021 $19.99N/A (N/A)0 .. 20,0000%00:00 (00:00)曲波曲波
551 Wishlair Jul 28, 2021 $4.99N/A (N/A)0 .. 20,0000%00:00 (00:00)ChronogearsChronogears
552 Shadows on the Vatican: Nightingale Jul 27, 2021 $2.99N/A (N/A)0 .. 20,0000%00:00 (00:00)Binary Charm, Daring TouchBinary Charm
553 Game of Love Jul 26, 2021 $4.99N/A (N/A)0 .. 20,0000%00:00 (00:00)Golden Castle StudioGolden Castle Studio
554 Sakura Forest Girls 2 Jul 26, 2021 $9.99N/A (N/A)0 .. 20,0000%00:00 (00:00)Winged CloudWinged Cloud
555 Heal Hitler Jul 22, 2021 $4.99N/A (N/A)0 .. 20,0000%00:00 (00:00)Jon AegisJon Aegis
556 Reality's Reverse Side Jul 22, 2021 FreeN/A (N/A)20,000 .. 50,0000%00:00 (00:00)CupcakeTime TeamPhoenix_co
557 Dead-End Detective: The Sixpence Strangler Jul 21, 2021 $3.99N/A (N/A)20,000 .. 50,0000%00:00 (00:00)A RanDom FellaA RanDom Fella
558 Follow Your Heart Jul 20, 2021 $24.99N/A (N/A)0 .. 20,0000%00:00 (00:00)玫瑰工作室玫瑰工作室
559 Evil Shogun Jul 20, 2021 $1N/A (N/A)50,000 .. 100,0000%00:00 (00:00)A. A. Bills, Rino ItoFlat 47 Productions
560 秘封フラグメント Jul 16, 2021 $14.99N/A (N/A)0 .. 20,0000%00:00 (00:00)シカクゲームズPhoenixx Inc.
561 Pugmire: Treasure of the Sea Dogs Jul 15, 2021 $3.99N/A (N/A)0 .. 20,0000%00:00 (00:00)Choice of GamesChoice of Games
562 Phantom Typist Jul 14, 2021 $2.99N/A (N/A)0 .. 20,0000%00:00 (00:00)Wysiwyg InteractiveWysiwyg Interactive
563 古代人生 Ancient Life Jul 12, 2021 $4.99N/A (N/A)0 .. 20,0000%00:00 (00:00)Wingjoy GamesWingjoy Games
564 摆地摊 Jul 12, 2021 $0.99N/A (N/A)0 .. 20,0000%00:00 (00:00)皮蛋打番茄皮蛋打番茄
565 猫头鹰和灯塔 Jul 11, 2021 $14.99N/A (N/A)0 .. 20,0000%00:00 (00:00)WoodenWolfWoodenWolf
566 To Be With You Aug 10, 2020 $2.99N/A (N/A)0 .. 20,0000%00:00 (00:00)Illus Seed GamesIllus Seed Games
567 functional Jul 9, 2021 $6.99N/A (N/A)0 .. 20,0000%00:00 (00:00)yancoutoMarvellous Soft
568 Legend of Homebody Jul 8, 2021 $5.99N/A (N/A)20,000 .. 50,0000%00:00 (00:00)疯王子CrazyPrince
569 Death Realm Jul 7, 2021 $12.99N/A (N/A)0 .. 20,0000%00:00 (00:00)PEPOLA INDIA Pvt. Ltd.PEPOLA INDIA Pvt. Ltd.
570 Billionaire Lovers Jul 2, 2021 $2.99N/A (N/A)100,000 .. 200,0000%00:00 (00:00)Ayacat GamesAyacat Games
571 Revizor Jul 2, 2021 $4.99N/A (N/A)0 .. 20,0000%00:00 (00:00)RevizorGameStudioRevizorGameStudio
572 CompactO - Idle Game Jun 30, 2021 $2.99N/A (N/A)20,000 .. 50,0000%00:00 (00:00)CryptoGrounds Games LLCCryptoGrounds Games LLC
573 BeeFense BeeMastered Jun 24, 2021 $9.99N/A (N/A)0 .. 20,0000%00:00 (00:00)ByteRockers' GamesByteRockers' Games
574 Equestrian Training Jun 24, 2021 $19.99N/A (N/A)0 .. 20,0000%00:00 (00:00)Smart Tale GamesMicroids
575 *NEW* SCUFFED EPIC VISUAL NOVEL Jun 23, 2021 FreeN/A (N/A)0 .. 20,0000%00:00 (00:00)Chris Shanaz, Scuffed Developmentshanaz game studios
576 Belle-de-Nuit Jun 17, 2021 $3.99N/A (N/A)0 .. 20,0000%00:00 (00:00)Heart's ChoiceHeart's Choice
577 WORDLAND 3 Jun 17, 2021 $1.39N/A (N/A)0 .. 20,0000%00:00 (00:00)Robotizar GamesRobotizar Games
578 The Terrible Persistence of Memory Jun 15, 2021 $1.99N/A (N/A)0 .. 20,0000%00:00 (00:00)Pixels and Pins StudioPixels and Pins Studio
579 The Chatters Show Jun 11, 2021 $4.99N/A (N/A)0 .. 20,0000%00:00 (00:00)FumetsuHitoFumetsuHito
580 The Hurt in Secret Jun 11, 2021 $2.99N/A (N/A)0 .. 20,0000%00:00 (00:00)Soaker / 大貍, MaouCat Studio / 魔王貓工作室, MuGeNeon / 無限Acrossbeavers Studio/翻滾海貍工作室
581 Motesolo : No Girlfriend Since Birth Jun 9, 2021 $22.99N/A (N/A)50,000 .. 100,0000%00:00 (00:00)INDICAVA INTERACTIVEINDICAVA INTERACTIVE
582 Would you like to run an idol café? Jun 7, 2021 $9.99N/A (N/A)0 .. 20,0000%00:00 (00:00)StarlightTree GamesWinged Cloud
583 Rhythm Hero Jun 4, 2021 $3.99N/A (N/A)0 .. 20,0000%00:00 (00:00)WonTak GamesWonTak Games
584 The Kotonoha Sisters and the Legend of Lysant Island Jun 3, 2021 $16.99N/A (N/A)20,000 .. 50,0000%00:00 (00:00)DeskClub GamesDeskClub Games
585 WORDLAND 2 Jun 3, 2021 $1.99N/A (N/A)0 .. 20,0000%00:00 (00:00)Robotizar GamesRobotizar Games
586 Far Away Train Jun 3, 2021 $18.99N/A (N/A)0 .. 20,0000%00:00 (00:00)Tatamibeya 畳部屋Tatamibeya 畳部屋
587 Tennis Elbow Manager 2 Jun 2, 2021 $29.99N/A (N/A)0 .. 20,0000%00:00 (00:00)Mana GamesMana Games
588 Memories of East Coast Jun 1, 2021 $2.99N/A (N/A)0 .. 20,0000%00:00 (00:00)Roomah GamingRoomah Gaming
589 Setup Developer Tool 2021 May 31, 2021 $19.99N/A (N/A)0 .. 20,0000%00:00 (00:00)Tim McArthurMonkey Face Software LLC
590 The Blind Of The New World May 28, 2021 $9.99N/A (N/A)0 .. 20,0000%00:00 (00:00)TALESSHOP Co., Ltd.TALESSHOP Co., Ltd.
591 hallucination - 幻觉 May 28, 2021 $9.99N/A (N/A)0 .. 20,0000%00:00 (00:00)灰烬天国灰烬天国
592 VERSUS: The Deathscapes May 27, 2021 $4.99N/A (N/A)0 .. 20,0000%00:00 (00:00)Choice of GamesChoice of Games
593 RONIN: Two Souls CHAPTER 1 May 27, 2021 $14.99N/A (N/A)50,000 .. 100,0000%00:00 (00:00)M11 StudioM11 Studio
594 Niinamigota Feb 21, 2021 $0.99N/A (N/A)0 .. 20,0000%00:00 (00:00)Colin Sandquist, Kadokawa Future Publishing, EnterbrainSandquist Games, Kadokawa Future Publishing, Enterbrain
595 Ichth.ys May 25, 2021 $9.99N/A (N/A)50,000 .. 100,0000%00:00 (00:00)Steganographia GamesSteganographia Games
596 Hiragana Katakana Ninja: Joyo Kanji May 24, 2021 $0.99N/A (N/A)0 .. 20,0000%00:00 (00:00)Wholetone GamesWholetone Games
597 The Sin May 20, 2021 $4.99N/A (N/A)50,000 .. 100,0000%00:00 (00:00)Baba NuraBaba Nura, Feodosiy
598 Realm of Night: The Forbidden Knowledge May 20, 2021 $13.99N/A (N/A)0 .. 20,0000%00:00 (00:00)Mitredel studioMitredel
599 If It Please the Court May 20, 2021 $4.99N/A (N/A)0 .. 20,0000%00:00 (00:00)Heart's ChoiceHeart's Choice
600 Kosmo Laika : Guide to Space May 19, 2021 $1.99N/A (N/A)0 .. 20,0000%00:00 (00:00)Animalle StudioAnimalle Studio
601 CLEARWORLD Sep 25, 2020 $4.99N/A (N/A)0 .. 20,0000%00:00 (00:00)TOEI ANIMATION CO., LTD., Plus 81Yggdrasill Interactive
602 Lady in Mystery May 15, 2021 $24.99N/A (N/A)0 .. 20,0000%00:00 (00:00)nolsoftnolsoft
603 JPN Burst May 14, 2021 $4.99N/A (N/A)0 .. 20,0000%00:00 (00:00)Thomas NgoThomas Ngo
604 Fantasy Tavern Sextet -Vol.3 Postlude Days- May 13, 2021 $12.99N/A (N/A)0 .. 20,0000%00:00 (00:00)iMel, qureatequreate
605 Redeliver May 10, 2021 $0.99N/A (N/A)0 .. 20,0000%00:00 (00:00)NyfariousNyfarious
606 Starlight Shores Oct 30, 2020 $3.99N/A (N/A)0 .. 20,0000%00:00 (00:00)Delphinium InteractiveDelphinium Interactive
607 Try To Remember May 7, 2021 $1.99N/A (N/A)0 .. 20,0000%00:00 (00:00)Sergi Monreal Ibañez, Miquel Villalobos Verde, Carlos Diaz Muñoz, Kainaris AlzabaarSergi Monreal Ibañez, Miquel Villalobos Verde, Carlos Diaz Muñoz, Kainaris Alzabaar
608 The Sekimeiya: Spun Glass May 6, 2021 $29.99N/A (N/A)0 .. 20,0000%00:00 (00:00)Trinitite TeamTrinitite Team
609 Lux, City of Secrets May 6, 2021 $6.99N/A (N/A)0 .. 20,0000%00:00 (00:00)Hosted GamesHosted Games
610 WORDLAND May 5, 2021 $1.99N/A (N/A)0 .. 20,0000%00:00 (00:00)Robotizar GamesRobotizar Games
611 Eternia: Pet Whisperer May 5, 2021 $2.99N/A (N/A)0 .. 20,0000%00:00 (00:00)Shirakumo GamesNicolas Hafner
612 The Simplest Game May 5, 2021 $1.99N/A (N/A)0 .. 20,0000%00:00 (00:00)Simple StudioSimple Studio
613 Anachronism\> May 4, 2021 $0.99N/A (N/A)20,000 .. 50,0000%00:00 (00:00)Easy~ Interactive SoftwareEasy~ Interactive Software
614 Tales of Farhollow Apr 30, 2021 $1.99N/A (N/A)0 .. 20,0000%00:00 (00:00)Gabaghoul Games LLCGabaghoul Games LLC
615 My Dear Prince Apr 30, 2021 $9.99N/A (N/A)0 .. 20,0000%00:00 (00:00)ebi-himeebi-hime
616 喰人記 Apr 29, 2021 $11.99N/A (N/A)0 .. 20,0000%00:00 (00:00)SukoyakaMeteorSukoyakaMeteor
617 Before Began 开始之前 Apr 29, 2021 $2.99N/A (N/A)0 .. 20,0000%00:00 (00:00)TSW_HanTSW
618 大禹治水 Flood Fighting Hero Apr 28, 2021 $6.99N/A (N/A)20,000 .. 50,0000%00:00 (00:00)北京图之未来信息科技有限公司图之未来
619 铁道少女:梦想轨迹 2.0 Railway To Dream Apr 27, 2021 $6.99N/A (N/A)0 .. 20,0000%00:00 (00:00)39Softmoe north railway
620 Cinemoji: Oscar Apr 23, 2021 $0.99N/A (N/A)0 .. 20,0000%00:00 (00:00)Gray BossGray Boss
621 Sakura Forest Girls Apr 19, 2021 $9.99N/A (N/A)0 .. 20,0000%00:00 (00:00)Winged CloudWinged Cloud
622 Aventura Pisicului Pierdut Apr 19, 2021 $2.99N/A (N/A)0 .. 20,0000%00:00 (00:00)Dragut Stefan, Aurora BorealaDragut Stefan
623 Polgar: Magic detective Apr 15, 2021 $11.99N/A (N/A)0 .. 20,0000%00:00 (00:00)Cooking and PublishingCooking and Publishing
624 Day Repeat Day Apr 13, 2021 $7.99N/A (N/A)0 .. 20,0000%00:00 (00:00)Kimmo LahtinenKimmo Factor Oy
625 Curiosity Apr 11, 2021 $3.99N/A (N/A)0 .. 20,0000%00:00 (00:00)NonStandardCodeNonStandardCode
626 Girls in Glasses Apr 9, 2021 $9.99N/A (N/A)0 .. 20,0000%00:00 (00:00)nostalgiaSekai Project
627 Scarlet Hood and the Wicked Wood Apr 8, 2021 $14.99N/A (N/A)0 .. 20,0000%00:00 (00:00)Devespresso GamesHeadup, WhisperGames
628 Cinemoji Apr 8, 2021 $0.99N/A (N/A)0 .. 20,0000%00:00 (00:00)Gray BossGray Boss
629 Inkslinger Apr 8, 2021 $4.99N/A (N/A)0 .. 20,0000%00:00 (00:00)GatewayGateway
630 单身狗的最后机会 Apr 8, 2021 $0.99N/A (N/A)0 .. 20,0000%00:00 (00:00)小鱼工作室小鱼工作室
631 The Mermaid of Zennor Apr 8, 2021 $4.99N/A (N/A)0 .. 20,0000%00:00 (00:00)ebi-himeebi-hime
632 Battle for Sea 3D Apr 8, 2021 $0.99N/A (N/A)0 .. 20,0000%00:00 (00:00)HedeHede
633 a guard walks into a tavern Mar 31, 2021 $7.99N/A (N/A)20,000 .. 50,0000%00:00 (00:00)SuQingSuQing
634 The Wild Case Apr 6, 2021 $8.99N/A (N/A)50,000 .. 100,0000%00:00 (00:00)Specialbit StudioSpecialbit Studio
635 Reconnect Apr 5, 2021 $1.99N/A (N/A)0 .. 20,0000%00:00 (00:00)HFOTAHFOTA
636 Transporter Manager Tycoon Apr 2, 2021 $9.99N/A (N/A)0 .. 20,0000%00:00 (00:00)Softwaves, New Games WavesSoftwaves Dist.
637 Keeper of the Day and Night Apr 1, 2021 $5.99N/A (N/A)0 .. 20,0000%00:00 (00:00)Hosted GamesHosted Games
638 Apollyon: River of Life Mar 31, 2021 $14.99N/A (N/A)0 .. 20,0000%00:00 (00:00)ThuynderThuynder
639 StudyX - Save Game Codes & Study Any Subject Mar 31, 2021 $4.99N/A (N/A)0 .. 20,0000%00:00 (00:00)PlazSoftPlazSoft
640 Paid Trade Mar 29, 2021 $0.99N/A (N/A)0 .. 20,0000%00:00 (00:00)Jonas TagJonas Tag
641 Bed Survival! Mar 29, 2021 $0.99N/A (N/A)0 .. 20,0000%00:00 (00:00)AvoCavoAvoCavo
642 Pro Wrestling Sim Mar 29, 2021 $19.99N/A (N/A)0 .. 20,0000%00:00 (00:00)Pro Wrestling SimPro Wrestling Sim
643 记得我 Mar 26, 2021 $1.94N/A (N/A)0 .. 20,0000%00:00 (00:00)七彩绘色游戏七彩绘色游戏
644 只是一座楼 Mar 24, 2021 $3.99N/A (N/A)0 .. 20,0000%00:00 (00:00)虾狐乱动画虾狐乱动画
645 PSweet Mar 15, 1999 $7.99N/A (N/A)50,000 .. 100,0000%00:00 (00:00)Future ProofFuture Proof
646 Venus: Improbable Dream Mar 19, 2021 $12.99N/A (N/A)0 .. 20,0000%00:00 (00:00)BorealisBorealis
647 重叠·前夜谭:猫与少女 Mar 19, 2021 $1.99N/A (N/A)0 .. 20,0000%00:00 (00:00)顽童计划顽童计划
648 Mini Words: Polyglot Mar 18, 2021 $1.39N/A (N/A)0 .. 20,0000%00:00 (00:00)Mens Sana InteractiveMens Sana Interactive
649 Deep Therapy Mar 15, 2021 $1.99N/A (N/A)0 .. 20,0000%00:00 (00:00)Difranal StudioDifranal Studio
650 Blobert Mar 13, 2021 $0.99N/A (N/A)0 .. 20,0000%00:00 (00:00)Dean CampagnoloDean Campagnolo
651 Occultism Limbo: The ritual of little nightmares Mar 11, 2021 $4.99N/A (N/A)0 .. 20,0000%00:00 (00:00)Trigger the MonsterCooking and Publishing
652 Raptors of SouthEdge Mar 9, 2021 $2.99N/A (N/A)20,000 .. 50,0000%00:00 (00:00)SouthEdge StudiosSouthEdge Studios
653 Textreme 2 Aug 6, 2020 $2.99N/A (N/A)0 .. 20,0000%00:00 (00:00)Ash K, Amber S. Fiddlemouth, Loboda MaksymAsh K
654 Bunker Down Feb 27, 2021 $1.99N/A (N/A)0 .. 20,0000%00:00 (00:00)Something Something GamesSomething Something Games
655 My Dear Frankenstein Feb 26, 2021 $4.99N/A (N/A)0 .. 20,0000%00:00 (00:00)NUMBER7NUMBER7
656 Majikoi! Love Me Seriously! Feb 26, 2021 $34.99N/A (N/A)0 .. 20,0000%00:00 (00:00)Minato SoftJAST USA
657 InfiniteCorp: Cyberpunk Cards Feb 22, 2021 $3.99N/A (N/A)0 .. 20,0000%00:00 (00:00)T-BullT-Bull
658 Endless Furry Clicker Feb 20, 2021 $0.49N/A (N/A)0 .. 20,0000%00:00 (00:00)Tegridy Made GamesTegridy Made Games
659 Buddy Simulator 1984 Feb 18, 2021 $9.99N/A (N/A)100,000 .. 200,0000%00:00 (00:00)Not a Sailor StudiosNot a Sailor Studios
660 Learn Programming: Python - Retro Feb 18, 2021 $2.99N/A (N/A)0 .. 20,0000%00:00 (00:00)Niema MoshiriNiema Moshiri
661 Half Past Fate: Romantic Distancing Feb 14, 2021 $5.99N/A (N/A)0 .. 20,0000%00:00 (00:00)Serenity ForgeWay Down Deep
662 Distant Transmission Feb 12, 2021 $4.99N/A (N/A)0 .. 20,0000%00:00 (00:00)Caleb FossCaleb Foss
663 Suicide Countdown: 7 Days Feb 12, 2021 $1.49N/A (N/A)100,000 .. 200,0000%00:00 (00:00)致意致意
664 Aquadine Feb 11, 2021 $19.99N/A (N/A)20,000 .. 50,0000%00:00 (00:00)SoftColorsSoftColors
665 飞花令 春饼 Feb 11, 2021 $0.99N/A (N/A)0 .. 20,0000%00:00 (00:00)CHEN YUANJICHEN YUANJI
666 CELLAR | Roguelike + Quest Feb 10, 2021 $4.99N/A (N/A)20,000 .. 50,0000%00:00 (00:00)Pavel DivnenkoPavel Divnenko
667 第五件遗留物 Feb 8, 2021 $4.99N/A (N/A)20,000 .. 50,0000%00:00 (00:00)狼烟游戏studio, 雪糕棒NiceBoat
668 Leap of Love - Safe Edition Feb 7, 2021 $6.99N/A (N/A)0 .. 20,0000%00:00 (00:00)Andrealphus GamesAndreaphus Games
669 The Great Plague Exodus Feb 5, 2021 $7.99N/A (N/A)0 .. 20,0000%00:00 (00:00)Priory GamesPriory Games
670 Comet 64 Feb 5, 2021 $14.99N/A (N/A)0 .. 20,0000%00:00 (00:00)Onur Ayaswhat sorceress this
671 My Ten-day Girlfriend Feb 4, 2021 $3.99N/A (N/A)0 .. 20,0000%00:00 (00:00)NinePlus StudioSoma Games
672 Cartridge Monsters Feb 4, 2021 FreeN/A (N/A)20,000 .. 50,0000%00:00 (00:00)Happenstance GamesHappenstance Games
673 Firework Feb 3, 2021 $9.99N/A (N/A)500,000 .. 1,000,0004.17%00:57 (00:19)Shiying StudioGamera Games
674 The Sych story Feb 2, 2021 $0.99N/A (N/A)20,000 .. 50,0000%00:00 (00:00)Svyatoslav BurobinSvyatoslav Burobin
675 Dark Podval Feb 1, 2021 $0.99N/A (N/A)50,000 .. 100,0000%00:00 (00:00)ХаБеБуPiece Of Voxel
676 Coffee flavor of love 咖啡甜恋 Feb 1, 2021 $3.99N/A (N/A)0 .. 20,0000%00:00 (00:00)P.G.制作组, V.P. TEAM33ParadoX&igstore
677 Annual Intruders Jan 30, 2021 N/AN/A (N/A)0 .. 20,0000%00:00 (00:00)ClickBuildGamesClickBuildGames
678 The USB Stick Found in the Grass Jan 29, 2021 $9.99N/A (N/A)20,000 .. 50,0000%00:00 (00:00)Marcin BorkowskiBPP
679 Gladiator Manager Jan 28, 2021 $7.99N/A (N/A)0 .. 20,0000%00:00 (00:00)Eternity GamesEternity Games
680 Fate of the Storm Gods Jan 28, 2021 $5.99N/A (N/A)0 .. 20,0000%00:00 (00:00)Choice of GamesChoice of Games
681 Ghost in the pool Jan 27, 2021 $4.99N/A (N/A)20,000 .. 50,0000%00:00 (00:00)CASCHA GAMESCASCHA GAMES
682 Memories of Tomorrow Jan 26, 2021 $1.99N/A (N/A)0 .. 20,0000%00:00 (00:00)Digital Bard GamesDigital Bard Games
683 Crossword City Chronicles Jan 25, 2021 $4.99N/A (N/A)0 .. 20,0000%00:00 (00:00)Trailblazer GamesTrailblazer Games
684 Open Sorcery: Sea++ Jan 25, 2021 $14.99N/A (N/A)0 .. 20,0000%00:00 (00:00)Abigail CorfmanOpen Sorcery Games
685 Typing Fingers - Enemy Jan 24, 2021 $14.99N/A (N/A)0 .. 20,0000%00:00 (00:00)Foriero s.r.o.Foriero s.r.o.
686 夏日的回忆 Jan 23, 2021 $10.99N/A (N/A)20,000 .. 50,0000%00:00 (00:00)Shao LeiShao Lei
687 The Zodiac Trial Jan 21, 2021 $14.99N/A (N/A)50,000 .. 100,0000%00:00 (00:00)ThemisianThemisian
688 No Lights Jan 21, 2021 $0.99N/A (N/A)0 .. 20,0000%00:00 (00:00)Master StudiosMaster Studios
689 Who Needs a Hero? Jan 21, 2021 $2.39N/A (N/A)20,000 .. 50,0000%00:00 (00:00)Henrique Faitta Chitolina, Pidro SoftBaby Stone Studios
690 Desktop NEKO Girl Jan 22, 2021 $5.99N/A (N/A)0 .. 20,0000%00:00 (00:00)泠慕晴泠慕晴
691 Super Dango Jan 19, 2021 $2.99N/A (N/A)0 .. 20,0000%00:00 (00:00)Super RiceSuper Rice
692 Rebels - Under the Spell of Magic (Chapter 1) Jan 19, 2021 $3.99N/A (N/A)0 .. 20,0000%00:00 (00:00)BrotherWood GamesBrotherWood Games
693 戾谈 Jan 18, 2021 FreeN/A (N/A)100,000 .. 200,0000%00:00 (00:00)SPG MistarilleSPG Mistarille
694 Doomsday Room Jan 15, 2021 $19.99N/A (N/A)0 .. 20,0000%00:00 (00:00)Doubleton Game StudioDoubleton Game Studio
695 AI Dungeon Jul 28, 2022 $29.99N/A (N/A)50,000 .. 100,0000%00:00 (00:00)LatitudeLatitude
696 Knights College Jan 15, 2021 $24.99N/A (N/A)50,000 .. 100,0000%00:00 (00:00)KAIJYU-09KAIJYU-09
697 Lotus Reverie: First Nexus Jan 14, 2021 $15.99N/A (N/A)0 .. 20,0000%00:00 (00:00)Keinart LobreKeinart Lobre
698 Amazing Pyramids: Rebirth Jan 14, 2021 $6.99N/A (N/A)0 .. 20,0000%00:00 (00:00)Oleg SeredaOleg Sereda
699 흡혈귀의 연애방법 Jul 27, 2020 $17.99N/A (N/A)0 .. 20,0000%00:00 (00:00)BlackRoom Co., LtdBlackRoom Co., Ltd
700 Quarantine: Global Pandemic Jan 13, 2021 $3.99N/A (N/A)20,000 .. 50,0000%00:00 (00:00)Buck StudiosBuck Studios
701 Cinderella Phenomenon: Evermore Dec 22, 2020 $9.99N/A (N/A)0 .. 20,0000%00:00 (00:00)DicesukiDicesuki
702 Death off the Cuff Jan 11, 2021 $2.99N/A (N/A)0 .. 20,0000%00:00 (00:00)Simon ChristiansenSiChris Productions
703 그랑 엠파이어 Jan 11, 2021 $2.99N/A (N/A)0 .. 20,0000%00:00 (00:00)유진게임즈유진게임즈
704 The Labyrinth Jan 8, 2021 $4.99N/A (N/A)20,000 .. 50,0000%00:00 (00:00)Alexander SpillmanAlexander Spillman
705 Relics of the Lost Age Jan 7, 2021 $5.99N/A (N/A)0 .. 20,0000%00:00 (00:00)Hosted GamesHosted Games
706 Chat Millions - Stream Quiz Game Jan 1, 2021 $5.99N/A (N/A)0 .. 20,0000%00:00 (00:00)Britnet MediaBritnet Media
707 CRYPTIC Dec 25, 2020 $2.99N/A (N/A)0 .. 20,0000%00:00 (00:00)Shoho GamesShoho Games
708 像素男友 语音完整版 Dec 24, 2020 $3.99N/A (N/A)0 .. 20,0000%00:00 (00:00)HIROKO IMAKIPujia8 Studio
709 Yolo Space Hacker Dec 24, 2020 $24.99N/A (N/A)0 .. 20,0000%00:00 (00:00)BKNLabBKNLab
710 约会模拟器:原型 Dec 24, 2020 $0.99N/A (N/A)0 .. 20,0000%00:00 (00:00)WW
711 Think_ Dec 25, 2020 $1.99N/A (N/A)0 .. 20,0000%00:00 (00:00)MaxPIMaxPI
712 Sayonara Electric Dec 23, 2020 $9.99N/A (N/A)0 .. 20,0000%00:00 (00:00)KaminGamesKaminGames
713 Bloody Service Dec 22, 2020 $4.99N/A (N/A)20,000 .. 50,0000%00:00 (00:00)CASECASE
714 Pon Para and the Unconquerable Scorpion Dec 17, 2020 $7.99N/A (N/A)0 .. 20,0000%00:00 (00:00)Choice of GamesChoice of Games
715 Unscripted Dec 17, 2020 $6.99N/A (N/A)20,000 .. 50,0000%00:00 (00:00)Marquis KurtMarquis Kurt
716 The Luminous Underground Dec 17, 2020 $6.99N/A (N/A)0 .. 20,0000%00:00 (00:00)Choice of GamesChoice of Games
717 NETABOKU -A robot girl changes my life as a bedridden boy- Dec 17, 2020 $9.99N/A (N/A)0 .. 20,0000%00:00 (00:00)Atelier ATICAtelier ATIC
718 Franchise Hockey Manager 7 Dec 16, 2020 $19.99N/A (N/A)0 .. 20,0000%00:00 (00:00)Out of the Park Developments, Minos GamesOut of the Park Developments
719 Ken ga Kimi: Momoyo Tsuzuri Dec 15, 2020 $49.99N/A (N/A)0 .. 20,0000%00:00 (00:00)RejetBeijing Happy Entertainment Technology
720 Playing Pride & Prejudice 1: An Austen Armoire Dec 15, 2020 $11.99N/A (N/A)0 .. 20,0000%00:00 (00:00)MInerva InteractiveMinerva Interactive
721 Orwell's Animal Farm Dec 10, 2020 $9.99N/A (N/A)50,000 .. 100,0000%00:00 (00:00)NerialThe Dairymen
722 Text Twisted Pro Dec 9, 2020 $2.99N/A (N/A)0 .. 20,0000%00:00 (00:00)Lighthouse Studio EuropeLighthouse Studio Europe
723 Super tanks RPG Dec 9, 2020 $0.99N/A (N/A)0 .. 20,0000%00:00 (00:00)SRV-gamePiece Of Voxel
724 Silmaris: Dice Kingdom Dec 3, 2020 $9.99N/A (N/A)0 .. 20,0000%00:00 (00:00)PyrogenMi-Clos Studio, Fractale
725 Wet steps Dec 2, 2020 $1.99N/A (N/A)20,000 .. 50,0000%00:00 (00:00)Orika NekoiMoonworks
726 Control Over Dec 2, 2020 $5.99N/A (N/A)0 .. 20,0000%00:00 (00:00)AshcraftAshcraft
727 EndlessShinyBlues Nov 30, 2020 $2.99N/A (N/A)0 .. 20,0000%00:00 (00:00)YouthAndLoveYouthAndLove
728 The Wednesday Nov 30, 2020 N/AN/A (N/A)20,000 .. 50,0000%00:00 (00:00)GamBridzyGamBridzy
729 吾光笔记Holimas Z Notebook Nov 29, 2020 $4.99N/A (N/A)20,000 .. 50,0000%00:00 (00:00)Static springStatic spring
730 Field Hospital: Dr. Taylor's Story Nov 27, 2020 $4.99N/A (N/A)0 .. 20,0000%00:00 (00:00)Gard InteractiveGard Interactive
731 Overslept Nov 22, 2020 $1.99N/A (N/A)0 .. 20,0000%00:00 (00:00)Justus YewJarze Games
732 Lighthouse Keeper Nov 22, 2020 $0.99N/A (N/A)50,000 .. 100,0000%00:00 (00:00)Nikita KafMissing Calm
733 The Prologue to a Dream of Home Nov 20, 2020 $0.99N/A (N/A)0 .. 20,0000%00:00 (00:00)KN1053KN1053
734 狂潮-Staggering Through The Dark Nov 18, 2020 $1.99N/A (N/A)0 .. 20,0000%00:00 (00:00)Longxi ZhaoLongxi Zhao
735 Twisted: A Dark Fairytale Oct 30, 2020 $9.99N/A (N/A)0 .. 20,0000%00:00 (00:00)Fablesoft StudiosFablesoft Studios
736 Super Ultimatum Quiz Nov 16, 2020 $0.99N/A (N/A)0 .. 20,0000%00:00 (00:00)Ruskija Game ExperienceTero Lunkka
737 The Adventurer - Episode 2: New Dreams Nov 11, 2020 $0.99N/A (N/A)20,000 .. 50,0000%00:00 (00:00)ZemunBRESA Industry
738 I'm Oh, So Busy...: A Week with Yoshimi Nov 13, 2020 $9.99N/A (N/A)0 .. 20,0000%00:00 (00:00)The Berry GuildThe Berry Guild
739 Seiga Kaku uses her amazing Taoist arts and gives you a life lesson Nov 13, 2020 $0.99N/A (N/A)20,000 .. 50,0000%00:00 (00:00)Skuhataagyall devSkuhataagyall dev
740 Jolly Good: Cakes and Ale Nov 12, 2020 $9.99N/A (N/A)0 .. 20,0000%00:00 (00:00)Choice of GamesChoice of Games
741 墨心:波云诡船 Nov 11, 2020 $2.99N/A (N/A)100,000 .. 200,0000%00:00 (00:00)1001 Studio1001 Studio
742 1 For Yes, 0 For No Nov 6, 2020 N/AN/A (N/A)0 .. 20,0000%00:00 (00:00)Alyssa GenereauAlyssa Genereau
743 Timequest Jan 1, 1993 $6.99N/A (N/A)0 .. 20,0000%00:00 (00:00)Legend EntertainmentZiggurat
744 Television Trivia Nov 6, 2020 $0.99N/A (N/A)0 .. 20,0000%00:00 (00:00)LoadUpGames.comLoadUpGames.com
745 The Remission of Sins Nov 5, 2020 $1.19N/A (N/A)0 .. 20,0000%00:00 (00:00)KaminGamesTsukiakari Studios, KaminGames
746 Mini Words: Top Games Nov 5, 2020 $0.99N/A (N/A)0 .. 20,0000%00:00 (00:00)Mens Sana InteractiveMens Sana Interactive
747 Secret Agent Allan Martin in ... Phoenix Erupting Nov 3, 2020 $1.99N/A (N/A)20,000 .. 50,0000%00:00 (00:00)SC GamesSC Games
748 Choices That Matter: And The Sun Went Out Nov 3, 2020 $1.79N/A (N/A)20,000 .. 50,0000%00:00 (00:00)Tin Man GamesTin Man Games
749 Fateful End: True Case Files Nov 3, 2020 $9.99N/A (N/A)0 .. 20,0000%00:00 (00:00)GenuineGiiku Games
750 Sakura Succubus 3 Nov 2, 2020 $9.99N/A (N/A)50,000 .. 100,0000%00:00 (00:00)Winged CloudWinged Cloud
751 Lurkers Nov 2, 2020 $5.99N/A (N/A)0 .. 20,0000%00:00 (00:00)Ertal GamesErtal Games
752 恋爱绮谭~不存在的夏天~ Oct 31, 2020 $8.99N/A (N/A)50,000 .. 100,0000%00:00 (00:00)Never Knows BestNever Knows Best
753 The Hunter's Journals - Red Ripper Oct 31, 2020 $5.99N/A (N/A)0 .. 20,0000%00:00 (00:00)Grindwheel GamesGrindwheel Games
754 Maitetsu:Last Run!! Oct 30, 2020 $34.99N/A (N/A)20,000 .. 50,0000%00:00 (00:00)LoseHIKARI FIELD
755 赛博侦探:艾尔塔特 Oct 1, 2020 $3.99N/A (N/A)0 .. 20,0000%00:00 (00:00)认真玩工作室认真玩工作室
756 Touhou Gensokyo Visitor Oct 30, 2020 $2.99N/A (N/A)0 .. 20,0000%00:00 (00:00)GameGate69Gate
757 Who Wants To Be A Millionaire Oct 29, 2020 $29.99N/A (N/A)0 .. 20,0000%00:00 (00:00)Appeal StudiosMicroids
758 Marcella Moon: Saboteurs on the River Oct 29, 2020 $3.19N/A (N/A)0 .. 20,0000%00:00 (00:00)Hidden Ocean GamesHidden Ocean Games
759 自西徂东 Oct 28, 2020 $5N/A (N/A)0 .. 20,0000%00:00 (00:00)为了共和开发团队为了共和发行团队
760 Fast Typing Master Oct 28, 2020 $0.99N/A (N/A)0 .. 20,0000%00:00 (00:00)Boogygames StudiosBoogygames Studios
761 PAGO FOREST: DRAGON'S REVENGE Oct 27, 2020 $2.69N/A (N/A)50,000 .. 100,0000%00:00 (00:00)FuturtechNova's Army
762 Monster Prom 2: Monster Camp Oct 23, 2020 $11.99N/A (N/A)200,000 .. 500,0000%00:00 (00:00)Beautiful GlitchBeautiful Glitch
763 Way Walkers: University 2 Oct 18, 2013 $4.99N/A (N/A)100,000 .. 200,0000%00:00 (00:00)Hosted GamesHosted Games
764 Rogue Jun 1, 1985 $2.99N/A (N/A)100,000 .. 200,0000%00:00 (00:00)Epyx, Inc.Pixel Games UK
765 Way Walkers: University Aug 31, 2012 $3.99N/A (N/A)20,000 .. 50,0000%00:00 (00:00)Hosted GamesHosted Games
766 TEXT: Russia Oct 21, 2020 $2.99N/A (N/A)0 .. 20,0000%00:00 (00:00)Laush Dmitriy SergeevichLaush Studio
767 Stranded 2 Oct 19, 2020 $1.99N/A (N/A)0 .. 20,0000%00:00 (00:00)JimJams GamesJimJams Games
768 The Metamorphosis Oct 19, 2020 $2.71N/A (N/A)0 .. 20,0000%00:00 (00:00)Izmir Games CollectiveIzmir Games Collective
769 KIRO Oct 16, 2020 $2.99N/A (N/A)0 .. 20,0000%00:00 (00:00)BlekohBlekoh
770 10mg: Cover Me In Leaves Oct 15, 2020 $1.99N/A (N/A)0 .. 20,0000%00:00 (00:00)Elliot Herriman10mg
771 10mg: SLASHER, Interrupted Oct 15, 2020 $1.99N/A (N/A)0 .. 20,0000%00:00 (00:00)Softerror Interactive10mg
772 Fox Spirit: A Two-Tailed Adventure Oct 15, 2020 $5.99N/A (N/A)0 .. 20,0000%00:00 (00:00)Choice of GamesChoice of Games
773 Unmemory Oct 13, 2020 $9.99N/A (N/A)50,000 .. 100,0000%00:00 (00:00)PATRONES & ESCONDITESPATRONES & ESCONDITES
774 The Haunted House of Doom Oct 13, 2020 $3.99N/A (N/A)0 .. 20,0000%00:00 (00:00)Paul BirdMarjupi Games
775 Too Different Oct 9, 2020 $4.99N/A (N/A)20,000 .. 50,0000%00:00 (00:00)Hosted GamesHosted Games
776 Throw Me in the River Oct 5, 2020 $2.99N/A (N/A)0 .. 20,0000%00:00 (00:00)Side GroupSide Group
777 The HeartBeat Oct 5, 2020 $0.99N/A (N/A)0 .. 20,0000%00:00 (00:00)猫柚工作室猫柚工作室
778 Love's Sweet Garnish 2 Oct 2, 2020 $16.99N/A (N/A)0 .. 20,0000%00:00 (00:00)Canvas+GardenSekai Project
779 Nice to NO you Oct 1, 2020 $4.99N/A (N/A)0 .. 20,0000%00:00 (00:00)QuaranTime GamesQuaranTime Games
780 Draft Day Sports: Pro Football 2021 Oct 1, 2020 $19.99N/A (N/A)0 .. 20,0000%00:00 (00:00)Wolverine StudiosWolverine Studios
781 Takorita Meets Fries Sep 30, 2020 $4.99N/A (N/A)20,000 .. 50,0000%00:00 (00:00)ROSEVERTEROSEVERTE, Pleasant Rain Ltd
782 BOT.vinnik Chess: Winning Patterns Sep 30, 2020 $0.99N/A (N/A)0 .. 20,0000%00:00 (00:00)Deep Green GamesAbyssal Studios
783 Server is Down Sep 25, 2020 $6.99N/A (N/A)0 .. 20,0000%00:00 (00:00)DbVectra, AlexTykhDbVectra & AlexTykh
784 Cauldrons of War - Barbarossa Sep 25, 2020 $14.99N/A (N/A)0 .. 20,0000%00:00 (00:00)Maestro CinetikGaming at Work
785 LA FORET DE PAGO : LA VENGEANCE DU DRAGON Sep 24, 2020 $5.99N/A (N/A)20,000 .. 50,0000%00:00 (00:00)FuturtechNova's Army
786 Vampire: The Masquerade — Night Road Sep 24, 2020 $9.99N/A (N/A)20,000 .. 50,0000%00:00 (00:00)Choice of GamesChoice of Games
787 Living in the Ending World Sep 22, 2020 $5.99N/A (N/A)0 .. 20,0000%00:00 (00:00)illuCalabSekai Project
788 My Vow to My Liege Sep 21, 2020 $6.49N/A (N/A)100,000 .. 200,0000%00:00 (00:00)YETU GAME方块游戏(CubeGame)
789 Journey of the Broken Circle Sep 18, 2020 $9.99N/A (N/A)0 .. 20,0000%00:00 (00:00)Lovable Hat CultNakana.io, Lovable Hat Cult
790 Dallen Clicker Ultimate Sep 20, 2020 $0.99N/A (N/A)0 .. 20,0000%00:00 (00:00)Dallen Larson GamesDallen Larson Games
791 Chaotic Airport Construction Manager Sep 17, 2020 $7.99N/A (N/A)20,000 .. 50,0000%00:00 (00:00)Illusive ReflectionSteckenpferd Enterprises
792 Morth Sep 16, 2020 $0.99N/A (N/A)100,000 .. 200,0000%00:00 (00:00)Hidden Crawlspace StudiosHidden Crawlspace Studios
793 Hero or Villain: Battle Royale Sep 16, 2020 $4.99N/A (N/A)0 .. 20,0000%00:00 (00:00)Hosted GamesHosted Games
794 Friendly Find Sep 4, 2020 $0.99N/A (N/A)20,000 .. 50,0000%00:00 (00:00)DgelioncelDgelioncel
795 Bleeding Moons Sep 3, 2020 $9.99N/A (N/A)0 .. 20,0000%00:00 (00:00)IAN GamesPhoenix Online Publishing
796 Cartomante – Fortune Teller Sep 1, 2020 $4.99N/A (N/A)20,000 .. 50,0000%00:00 (00:00)Garoa StudiosGaroa Studios
797 Alias Aug 31, 2020 $5.99N/A (N/A)0 .. 20,0000%00:00 (00:00)PotatoIndustriesPotatoIndustries
798 Roast Party Aug 28, 2020 FreeN/A (N/A)0 .. 20,0000%00:00 (00:00)FraccasDevFraccas
799 Move Code Lines Aug 28, 2020 $5.99N/A (N/A)0 .. 20,0000%00:00 (00:00)FewjixFewjix
800 Schastye Aug 27, 2020 $0.99N/A (N/A)20,000 .. 50,0000%00:00 (00:00)Garage HeathenMissing Calm
801 A Lozenge Aug 26, 2020 $1.99N/A (N/A)0 .. 20,0000%00:00 (00:00)Party for IntrovertsParty for Introverts
802 Milk inside a bag of milk inside a bag of milk Aug 26, 2020 $0.99N/A (N/A)200,000 .. 500,0000%00:00 (00:00)Nikita KryukovMissing Calm
803 Dream Stone 2 Aug 26, 2020 $0.5N/A (N/A)50,000 .. 100,0000%00:00 (00:00)QuickSaveSA Industry
804 Xtreme Typing Aug 25, 2020 $3.99N/A (N/A)0 .. 20,0000%00:00 (00:00)Individual SoftwareIndividual Software
805 The Call Centre Aug 22, 2020 $0.99N/A (N/A)0 .. 20,0000%00:00 (00:00)Junaid JavedJunaid Javed
806 Kidnapped! A Royal Birthday Aug 20, 2020 $3.99N/A (N/A)0 .. 20,0000%00:00 (00:00)Choice of GamesChoice of Games
807 《Curse of disaster spirit : Anecdotes of mansion》 Aug 11, 2020 $7.99N/A (N/A)0 .. 20,0000%00:00 (00:00)Kaili GongKaili Gong
808 Divine Favor Jul 19, 2020 $0.99N/A (N/A)0 .. 20,0000%00:00 (00:00)Samantha ArehartSamantha Arehart
809 灰烬行星与填鸭少女 Aug 8, 2020 $199.99N/A (N/A)0 .. 20,0000%00:00 (00:00)世界末日高考组Dmk
810 The Last Survey Aug 7, 2020 $4.99N/A (N/A)0 .. 20,0000%00:00 (00:00)Nicholas O'BrienNicholas O'Brien
811 The Floating City Aug 6, 2020 $3.99N/A (N/A)0 .. 20,0000%00:00 (00:00)Hosted GamesHosted Games
812 Sphere Game Aug 5, 2020 $0.99N/A (N/A)0 .. 20,0000%00:00 (00:00)D.P.L.D.SD.P.L.D.S
813 Starship Intruder Aug 4, 2020 $2.99N/A (N/A)20,000 .. 50,0000%00:00 (00:00)Isocube SoftwareIsocube Software
814 HEX Hacking Simulator Jul 31, 2020 $9.99N/A (N/A)0 .. 20,0000%00:00 (00:00)Solis StudiosSolis Studios
815 Love Mystery Club Jul 30, 2020 $0.99N/A (N/A)20,000 .. 50,0000%00:00 (00:00)GMatrixGMatrix
816 3 min per day! Improve your aged eyes(Presbyopia) Jul 30, 2020 $0.99N/A (N/A)0 .. 20,0000%00:00 (00:00)Hellshake YanoHellshake Yano.
817 Snowdome Jul 23, 2020 $6.99N/A (N/A)50,000 .. 100,0000%00:00 (00:00)Lunatic WorksLunatic Works, Kikai Digital
818 Werewolves 2: Pack Mentality Jul 23, 2020 $5.99N/A (N/A)0 .. 20,0000%00:00 (00:00)Choice of GamesChoice of Games
819 My Dangerous Life Jul 23, 2020 $12.99N/A (N/A)0 .. 20,0000%00:00 (00:00)HituzigumoGiiku Games
820 Quiz Pro - Guess Pictures Jul 22, 2020 $2.99N/A (N/A)0 .. 20,0000%00:00 (00:00)Boogygames StudiosBoogygames Studios
821 Power Of Language Jul 18, 2020 $1.99N/A (N/A)0 .. 20,0000%00:00 (00:00)ZAZA
822 迷雾之夏-The Vigilant Villa Jul 17, 2020 $7.99N/A (N/A)50,000 .. 100,0000%00:00 (00:00)知行合一游艺春秋
823 My Isekai After Life is an RPG!? Jul 17, 2020 $5.99N/A (N/A)0 .. 20,0000%00:00 (00:00)Nyanko GamesNyanko Games
824 Edge of Reality Jul 16, 2020 $1.99N/A (N/A)0 .. 20,0000%00:00 (00:00)Moon EclipsePhoenix_co
825 We should talk. Jul 16, 2020 $6.99N/A (N/A)0 .. 20,0000%00:00 (00:00)Insatiable CycleWhitethorn Games, Insatiable Cycle
826 Eternal Pain: Epiphany Jul 13, 2020 $2.99N/A (N/A)0 .. 20,0000%00:00 (00:00)GDOAD EIS DGDOAD EIS D
827 归途 Jul 12, 2020 $74.99N/A (N/A)0 .. 20,0000%00:00 (00:00)xuhuixuhui
828 他人世界末 On-looker Jul 10, 2020 $8.99N/A (N/A)50,000 .. 100,0000%00:00 (00:00)8A studio昆布科技
829 The Wake: Mourning Father, Mourning Mother Jul 10, 2020 $4.99N/A (N/A)0 .. 20,0000%00:00 (00:00)SomiSomi, indienova
830 Ephemera Jul 10, 2020 $7.99N/A (N/A)0 .. 20,0000%00:00 (00:00)Ashley MooreAshley Moore
831 180 Files: The Aegis Project Jul 9, 2020 $4.99N/A (N/A)0 .. 20,0000%00:00 (00:00)Choice of GamesChoice of Games
832 Surprise Party! Jun 30, 2020 $6.99N/A (N/A)20,000 .. 50,0000%00:00 (00:00)Dylan RadovnikovicDylan Radovnikovic
833 The Door Of Redemption Jun 30, 2020 $0.99N/A (N/A)0 .. 20,0000%00:00 (00:00)地航者地航者
834 Space Court Jun 25, 2020 $1.49N/A (N/A)0 .. 20,0000%00:00 (00:00)Uphill PromiseUphill Promise
835 机忆 Jun 18, 2020 $0.99N/A (N/A)0 .. 20,0000%00:00 (00:00)futurelovegamefuturelovegame
836 Demonic Blade Jun 17, 2020 $9.99N/A (N/A)0 .. 20,0000%00:00 (00:00)Mikołaj SpychałMikołaj Spychał
837 Marcella Moon: Secret on the Hill Jun 15, 2020 $1.74N/A (N/A)20,000 .. 50,0000%00:00 (00:00)Hidden Ocean GamesHidden Ocean Games
838 KANAPOCALYPSE Jun 13, 2020 $2.99N/A (N/A)0 .. 20,0000%00:00 (00:00)PamPam StudioPamPam Studio
839 Light Years Apart Jun 11, 2020 $4.99N/A (N/A)0 .. 20,0000%00:00 (00:00)Choice of GamesChoice of Games
840 War for Magincia Jun 4, 2020 $4.99N/A (N/A)0 .. 20,0000%00:00 (00:00)Hosted GamesHosted Games
841 Swamp Castle Jul 29, 2016 $2.99N/A (N/A)0 .. 20,0000%00:00 (00:00)Hosted GamesHosted Games
842 Life of a Mercenary Dec 27, 2018 $3.99N/A (N/A)0 .. 20,0000%00:00 (00:00)Hosted GamesHosted Games
843 My Mud Game May 29, 2020 $15.99N/A (N/A)0 .. 20,0000%00:00 (00:00)Red Cat StudioRed Cat Studio
844 Out of Shapes May 19, 2020 $8.99N/A (N/A)0 .. 20,0000%00:00 (00:00)One Percent Games LLCOne Percent Games LLC
845 The Hostage May 25, 2020 $0.99N/A (N/A)0 .. 20,0000%00:00 (00:00)Respect StudiosRespect Studios
846 Astonishing Baseball Manager 20 May 15, 2020 $7.99N/A (N/A)0 .. 20,0000%00:00 (00:00)AerilysZero One
847 A Squire's Tale May 14, 2020 $3.99N/A (N/A)0 .. 20,0000%00:00 (00:00)Choice of GamesChoice of Games
848 My Wet Leto Comic May 9, 2020 $6.39N/A (N/A)50,000 .. 100,0000%00:00 (00:00)Fusen StudioFusen Studio, Limor Gaming
849 Real Life Plus Ver. Kaname Komatsuzaki May 8, 2020 $12.99N/A (N/A)0 .. 20,0000%00:00 (00:00)Fan-naSekai Project
850 String Tyrant May 8, 2020 $4.99N/A (N/A)0 .. 20,0000%00:00 (00:00)Bottled StarlightBottled Starlight
851 The Parenting Simulator Sep 30, 2019 $3.99N/A (N/A)0 .. 20,0000%00:00 (00:00)Hosted GamesHosted Games
852 Wayhaven Chronicles: Book Two May 7, 2020 $6.99N/A (N/A)0 .. 20,0000%00:00 (00:00)Hosted GamesHosted Games
853 Mask of the Plague Doctor Apr 23, 2020 $6.99N/A (N/A)0 .. 20,0000%00:00 (00:00)Choice of GamesChoice of Games
854 Never Date Werewolves Apr 16, 2020 $3.99N/A (N/A)0 .. 20,0000%00:00 (00:00)Heart's ChoiceHeart's Choice
855 Project DeepWeb Apr 15, 2020 $4.99N/A (N/A)0 .. 20,0000%00:00 (00:00)NightCat StudiosNightCat Studios
856 Mini Words: Top Movies Apr 10, 2020 $0.99N/A (N/A)0 .. 20,0000%00:00 (00:00)Mens Sana InteractiveMens Sana Interactive
857 Blackstone Academy for the Magical Arts Apr 9, 2020 $4.99N/A (N/A)0 .. 20,0000%00:00 (00:00)Choice of GamesChoice of Games
858 Wanderlust: Transsiberian Apr 9, 2020 $4.99N/A (N/A)0 .. 20,0000%00:00 (00:00)Different TalesWalkabout
859 The Aegis Saga Apr 2, 2020 $5.99N/A (N/A)0 .. 20,0000%00:00 (00:00)Hosted GamesHosted Games
860 In Her Eyes Apr 1, 2020 $9.99N/A (N/A)0 .. 20,0000%00:00 (00:00)NotDeadLuna StudioNotDeadLuna Studio
861 This Is Not The End Mar 31, 2020 $4.99N/A (N/A)0 .. 20,0000%00:00 (00:00)Cracked EggCracked Egg
862 Over the Alps Mar 31, 2020 $12.99N/A (N/A)0 .. 20,0000%00:00 (00:00)Stave StudiosStave Studios
863 QUIZ PRO! - General Knowledge Mar 28, 2020 $2.99N/A (N/A)0 .. 20,0000%00:00 (00:00)Boogygames StudiosBoogygames Studios
864 Amairo Chocolate Mar 19, 2020 $24.99N/A (N/A)0 .. 20,0000%00:00 (00:00)Cabbage SoftSekai Project
865 ASCIIDENT Mar 18, 2020 $9.99N/A (N/A)0 .. 20,0000%00:00 (00:00)UAB Puzzle LabBlack Maple Games
866 The Travelyan Home Mar 12, 2020 $4.99N/A (N/A)0 .. 20,0000%00:00 (00:00)The Shepherd MoonThe Shepherd Moon
867 The Soul Stone War Mar 5, 2020 $6.99N/A (N/A)0 .. 20,0000%00:00 (00:00)Hosted GamesHosted Games
868 World Seed Classic Feb 28, 2020 $5.99N/A (N/A)20,000 .. 50,0000%00:00 (00:00)KortesApe Egg
869 Ironheart Feb 27, 2020 $5.99N/A (N/A)0 .. 20,0000%00:00 (00:00)Choice of GamesChoice of Games
870 Zip! Speedster of Valiant City Feb 20, 2020 $4.99N/A (N/A)0 .. 20,0000%00:00 (00:00)Choice of GamesChoice of Games
871 Survive In Russia Feb 17, 2020 $5.99N/A (N/A)0 .. 20,0000%00:00 (00:00)Alexander SablinAlexander Sablin
872 apartment: a separated place Feb 14, 2020 $14.99N/A (N/A)0 .. 20,0000%00:00 (00:00)The Elsewhere CompanyThe Elsewhere Company
873 El Remedio de Aldorf Feb 14, 2020 $3.99N/A (N/A)0 .. 20,0000%00:00 (00:00)Breakover InteractiveBreakover Interactive
874 Chatventures Feb 14, 2020 $2.99N/A (N/A)0 .. 20,0000%00:00 (00:00)Sokpop CollectiveSokpop Collective
875 A Player's Heart Feb 13, 2020 $3.99N/A (N/A)0 .. 20,0000%00:00 (00:00)Heart's ChoiceHeart's Choice
876 Naked News Feb 7, 2020 $0.89N/A (N/A)0 .. 20,0000%00:00 (00:00)Randumb StudiosRandumb Studios
877 The Shadow Society Feb 6, 2020 $6.99N/A (N/A)0 .. 20,0000%00:00 (00:00)Hosted GamesHosted Games
878 Alpacapaca Double Dash Jan 28, 2020 $5.99N/A (N/A)0 .. 20,0000%00:00 (00:00)Synnergy Circle GamesSynnergy Circle Games
879 Sky Pirates of Actorius Jan 23, 2020 $4.99N/A (N/A)20,000 .. 50,0000%00:00 (00:00)Choice of GamesChoice of Games
880 Little One - A Visual Novel Jan 14, 2020 $9.99N/A (N/A)0 .. 20,0000%00:00 (00:00)Dim Sum OneGiiku Games
881 Street Jam: The Rise Jan 9, 2020 $5.99N/A (N/A)0 .. 20,0000%00:00 (00:00)Hosted GamesHosted Games
882 Em-A-Li Jan 1, 2020 $1.99N/A (N/A)0 .. 20,0000%00:00 (00:00)YobobYobob Games
883 Medieval Monarch Jan 1, 2020 $7.99N/A (N/A)20,000 .. 50,0000%00:00 (00:00)Mr.LordyMr.Lordy
884 An Odyssey: Echoes of War Dec 26, 2019 $5.99N/A (N/A)0 .. 20,0000%00:00 (00:00)Choice of GamesChoice of Games
885 The Magician's Workshop Dec 19, 2019 $4.99N/A (N/A)0 .. 20,0000%00:00 (00:00)Choice of GamesChoice of Games
886 Photo Quiz - Animals Dec 13, 2019 $0.99N/A (N/A)0 .. 20,0000%00:00 (00:00)Boogygames StudiosBoogygames Studios
887 Rocwood Academy Dec 13, 2019 $2.99N/A (N/A)0 .. 20,0000%00:00 (00:00)DigiLab InteractionDigiLab Interaction
888 DIVINATION Dec 12, 2019 $1.99N/A (N/A)100,000 .. 200,0000%00:00 (00:00)MojikenMojiken
889 In the Service of Mrs. Claus Dec 12, 2019 $3.99N/A (N/A)0 .. 20,0000%00:00 (00:00)Choice of GamesChoice of Games
890 Winter Polaris Dec 12, 2019 $14.99N/A (N/A)0 .. 20,0000%00:00 (00:00)stage-nanaSekai Project
891 Murder On The Island Dec 10, 2019 $2.99N/A (N/A)0 .. 20,0000%00:00 (00:00)Forever Young GamesForever Young Games
892 A Pirate's Pleasure Dec 2, 2019 $5.99N/A (N/A)0 .. 20,0000%00:00 (00:00)Heart's ChoiceHeart's Choice
893 Adventureland XL Dec 2, 2019 $4.99N/A (N/A)0 .. 20,0000%00:00 (00:00)Clopas LLCClopas LLC
894 Jazz Age Dec 2, 2019 $3.99N/A (N/A)0 .. 20,0000%00:00 (00:00)Heart's ChoiceHeart's Choice
895 Dawnfall Dec 2, 2019 $4.99N/A (N/A)0 .. 20,0000%00:00 (00:00)Heart's ChoiceHeart's Choice
896 Creme de la Creme Nov 27, 2019 $6.99N/A (N/A)0 .. 20,0000%00:00 (00:00)Choice of GamesChoice of Games
897 Markov Alg Nov 26, 2019 $2.99N/A (N/A)0 .. 20,0000%00:00 (00:00)FewjixFewjix
898 BatMUD Apr 14, 1990 $4.99N/A (N/A)0 .. 20,0000%00:00 (00:00)Antti A. Luostarinen, Emil Nilimaa, Niklas Lindroos, Matti A. Virtanen, Riku-Ville Mäkelä, Lauri Holmas, Polar Night Software Sp. z o.o.Balanced Alternative Techniques ry
899 A Familiar Fairytale Dyslexic Text Based Adventure Nov 18, 2019 $0.99N/A (N/A)0 .. 20,0000%00:00 (00:00)Alastair LowLowtek Games
900 Kyle is Famous: Complete Edition Nov 18, 2019 $14.99N/A (N/A)50,000 .. 100,0000%00:00 (00:00)John SzymanskiJohn Szymanski
901 Breach: The Archangel Job Nov 14, 2019 $6.99N/A (N/A)0 .. 20,0000%00:00 (00:00)Hosted GamesHosted Games
902 The War for the West Nov 14, 2019 $6.99N/A (N/A)0 .. 20,0000%00:00 (00:00)Hosted GamesHosted Games
903 Feels Nov 13, 2019 $3.99N/A (N/A)0 .. 20,0000%00:00 (00:00)Copper Heart FactoryCopper Heart Factory
904 Grand Academy II: Attack of the Sequel Nov 7, 2019 $4.99N/A (N/A)0 .. 20,0000%00:00 (00:00)Choice of GamesChoice of Games
905 [MISC] TIMELINES Nov 6, 2019 $0.99N/A (N/A)0 .. 20,0000%00:00 (00:00)Misc.261Misc.261
906 Dimensionality 3.5 Nov 4, 2019 $0.99N/A (N/A)0 .. 20,0000%00:00 (00:00)NPC S StudioNPC S Studio
907 The Hunter's Journals - Blissful Ignorance Oct 31, 2019 $5.99N/A (N/A)0 .. 20,0000%00:00 (00:00)Grindwheel GamesGrindwheel Games
908 Detective Kobayashi - A Visual Novel Oct 24, 2019 $12.99N/A (N/A)0 .. 20,0000%00:00 (00:00)GenuineGiiku Games
909 Mini Words - minimalist puzzle Oct 24, 2019 $1.99N/A (N/A)0 .. 20,0000%00:00 (00:00)Mens Sana InteractiveMens Sana Interactive
910 The Fog Knows Your Name Oct 24, 2019 $5.99N/A (N/A)0 .. 20,0000%00:00 (00:00)Choice of GamesChoice of Games
911 My Typing Skill Oct 18, 2019 $0.49N/A (N/A)0 .. 20,0000%00:00 (00:00)RewindAppRewindApp
912 The Eye of Borrack Oct 17, 2019 $1.49N/A (N/A)0 .. 20,0000%00:00 (00:00)JimJams GamesJimJams Games
913 R.U.B.Y.寻常交织的日常 Oct 15, 2019 $0.64N/A (N/A)0 .. 20,0000%00:00 (00:00)ShiinaYashiroShiinaYashiro
914 Victoriana - Steampunk Text Adventure Oct 13, 2019 $2.99N/A (N/A)0 .. 20,0000%00:00 (00:00)Dr. Cyril SplutterworthDr. Cyril Splutterworth
915 Nanairo Reincarnation Sep 27, 2019 $29.99N/A (N/A)0 .. 20,0000%00:00 (00:00)Silky's Plus Wasabi, Silky’s Plus AlphaSekai Project
916 A Legionary's Life Sep 25, 2019 $7.99N/A (N/A)50,000 .. 100,00050%00:01 (00:01)Alessandro RobertiAlessandro Roberti
917 Tokyo Wizard Dec 16, 2016 $3.99N/A (N/A)0 .. 20,0000%00:00 (00:00)Hosted GamesHosted Games
918 Hero or Villain: Genesis Sep 19, 2019 $3.99N/A (N/A)0 .. 20,0000%00:00 (00:00)Hosted GamesHosted Games
919 Sword of the Slayer Sep 12, 2019 $4.99N/A (N/A)0 .. 20,0000%00:00 (00:00)Choice of GamesChoice of Games
920 Fit For a King Sep 5, 2019 $9.99N/A (N/A)0 .. 20,0000%00:00 (00:00)Brent Ellison, Tanya X. ShortKitfox Games
921 Samurai of Hyuga Book 4 Aug 29, 2019 $7.99N/A (N/A)0 .. 20,0000%00:00 (00:00)Hosted GamesHosted Games
922 Norman's Great Illusion Aug 29, 2019 $2.99N/A (N/A)0 .. 20,0000%00:00 (00:00)Civil SavagesCivil Savages
923 Zombien Mar 6, 2015 $2.99N/A (N/A)0 .. 20,0000%00:00 (00:00)Hosted GamesHosted Games
924 A Wanderer's Adventure Aug 22, 2019 $1.99N/A (N/A)0 .. 20,0000%00:00 (00:00)A WandererWander Studios
925 Paradigm City Apr 14, 2017 $3.99N/A (N/A)0 .. 20,0000%00:00 (00:00)Hosted GamesHosted Games
926 Psy High 2: High Summer Aug 15, 2019 $5.99N/A (N/A)0 .. 20,0000%00:00 (00:00)Choice of GamesChoice of Games
927 Stone Story RPG Aug 8, 2019 $19.99N/A (N/A)0 .. 20,0000%00:00 (00:00)Martian Rex, standardcomboMartian Rex
928 Lightstep Chronicles Aug 1, 2019 $9.99N/A (N/A)0 .. 20,0000%00:00 (00:00)Eipix EntertainmentEipix Entertainment
929 60 Seconds! Reatomized Jul 25, 2019 $9.99N/A (N/A)500,000 .. 1,000,0001.56%03:14 (02:09)Robot GentlemanRobot Gentleman
930 Heroes of Myth Jul 25, 2019 $6.99N/A (N/A)0 .. 20,0000%00:00 (00:00)Choice of GamesChoice of Games
931 Iseshima mystery annai: Itsuwari no Kuro shinnjyu Jul 24, 2019 $9.99N/A (N/A)0 .. 20,0000%00:00 (00:00)Happymeal Inc., ESQUADRA,inc.Flyhigh Works
932 Nocked! True Tales of Robin Hood Jul 16, 2019 $19.99N/A (N/A)0 .. 20,0000%00:00 (00:00)Andrew G. SchneiderAndrew G. Schneider
933 Round Rooms Jul 16, 2019 $0.99N/A (N/A)0 .. 20,0000%00:00 (00:00)The PsychiartistThe Psychiartist
934 The Hunter's Journals - Vile Philosophy Jul 15, 2019 $5.99N/A (N/A)0 .. 20,0000%00:00 (00:00)Grindwheel GamesGrindwheel Games
935 Welcome To... Chichester 3 : Plenty Of Time To Live Jul 11, 2019 $1.99N/A (N/A)0 .. 20,0000%00:00 (00:00)Triority Interactive NovelsTriority Interactive Novels
936 Exile of the Gods Jul 11, 2019 $6.99N/A (N/A)0 .. 20,0000%00:00 (00:00)Choice of GamesChoice of Games
937 Zorg The Typing Warrior Jun 28, 2019 $0.99N/A (N/A)20,000 .. 50,0000%00:00 (00:00)SplendortekSplendortek
938 Monsters of Little Haven Jul 9, 2019 $11.99N/A (N/A)0 .. 20,0000%00:00 (00:00)Nikita KafMissing Calm
939 The Hunter's Journals - Pale Harbour Jun 24, 2019 $5.99N/A (N/A)0 .. 20,0000%00:00 (00:00)Grindwheel GamesGrindwheel Games
940 LuGame: Lunchtime Games Club! Jun 20, 2019 $9.99N/A (N/A)0 .. 20,0000%00:00 (00:00)H. Hochkins, Jellyfish ParadeUrban Meadows
941 Asteroid Run: No Questions Asked Jun 20, 2019 $5.99N/A (N/A)0 .. 20,0000%00:00 (00:00)Choice of GamesChoice of Games
942 Trivia Throwdown Jun 18, 2019 $4.99N/A (N/A)0 .. 20,0000%00:00 (00:00)Eclectic City GamesEclectic City Games
943 Courage for a Kiss Jun 13, 2019 $19.99N/A (N/A)0 .. 20,0000%00:00 (00:00)Mikołaj SpychałMikołaj Spychał
944 New England Detective: Breakfast in Boston Jun 7, 2019 $4.99N/A (N/A)0 .. 20,0000%00:00 (00:00)Little Black Book EntertainmentLittle Black Book Entertainment
945 Sanator: Scarlet Scarf Jun 6, 2019 $9.99N/A (N/A)20,000 .. 50,0000%00:00 (00:00)Ignis SanatIgnis Sanat
946 Ord. Jun 5, 2019 $1.99N/A (N/A)0 .. 20,0000%00:00 (00:00)Mujo Games, Stuffed WombatMujo Games
947 Global Soccer: A Management Game 2019 May 31, 2019 $8.99N/A (N/A)0 .. 20,0000%00:00 (00:00)Forever Young GamesForever Young Games
948 Fool! May 23, 2019 $6.99N/A (N/A)0 .. 20,0000%00:00 (00:00)Choice of GamesChoice of Games
949 An Adventurer's Tale May 23, 2019 N/AN/A (N/A)0 .. 20,0000%00:00 (00:00)Epic WorksOther Ocean Group
950 The Fifth Horseman May 16, 2019 $1.99N/A (N/A)0 .. 20,0000%00:00 (00:00)Angelo ParodiAngelo Parodi
951 Happy Words May 16, 2019 $4.99N/A (N/A)0 .. 20,0000%00:00 (00:00)LAN - GAMES LTDLAN - GAMES LTD
952 Adventure in Russia: Road to Harvetsky May 9, 2019 $1.99N/A (N/A)0 .. 20,0000%00:00 (00:00)NewCo EntertainmentNewCo Entertainment
953 Pon Para and the Great Southern Labyrinth May 9, 2019 $6.99N/A (N/A)0 .. 20,0000%00:00 (00:00)Choice of GamesChoice of Games
954 The Psychiatrist: Major Depression May 3, 2019 $5.99N/A (N/A)0 .. 20,0000%00:00 (00:00)Demir LeylekDemir Leylek
955 Fog of War: The Battle for Cerberus Apr 26, 2019 $3.99N/A (N/A)0 .. 20,0000%00:00 (00:00)Choice of GamesChoice of Games
956 Beyond The Veil Apr 19, 2019 $4.99N/A (N/A)0 .. 20,0000%00:00 (00:00)Incubator CreationsIncubator Creations
957 Totem Force Apr 4, 2019 $4.99N/A (N/A)0 .. 20,0000%00:00 (00:00)Hosted GamesHosted Games
958 Ozapell Mystery Text Adventure Apr 1, 2019 $1.99N/A (N/A)0 .. 20,0000%00:00 (00:00)OzapellOzapell
959 The Superlatives: Shattered Worlds Mar 28, 2019 $4.99N/A (N/A)0 .. 20,0000%00:00 (00:00)Choice of GamesChoice of Games
960 Slave RPG Mar 27, 2019 $4.99N/A (N/A)0 .. 20,0000%00:00 (00:00)Rising Sun InteractiveRising Sun Interactive
961 Choice of the Dragon Jan 1, 2010 $4.99N/A (N/A)0 .. 20,0000%00:00 (00:00)Choice of GamesChoice of Games
962 Spellcasting Collection Mar 18, 2019 $6.99N/A (N/A)0 .. 20,0000%00:00 (00:00)Legend EntertainmentZiggurat
963 Drag Star! Mar 14, 2019 $3.99N/A (N/A)0 .. 20,0000%00:00 (00:00)Choice of GamesChoice of Games
964 Trancelation Mar 12, 2019 $3.99N/A (N/A)0 .. 20,0000%00:00 (00:00)MythicOwlMythicOwl
965 In.My.Mind Mar 12, 2019 $7.99N/A (N/A)0 .. 20,0000%00:00 (00:00)Scarlet StudioScarlet Studio
966 Your Future Self Mar 8, 2019 $2.99N/A (N/A)0 .. 20,0000%00:00 (00:00)Contortionist GamesContortionist Games
967 Sordwin: The Evertree Saga Mar 7, 2019 $4.99N/A (N/A)0 .. 20,0000%00:00 (00:00)Hosted GamesHosted Games
968 最后的47小时 - The Last 47 Hours Feb 28, 2019 $1.99N/A (N/A)20,000 .. 50,0000%00:00 (00:00)Lingtan StudioLingtan Studio
969 Electric Sleep Feb 22, 2019 $4.99N/A (N/A)0 .. 20,0000%00:00 (00:00)Vlad Abadzhiev, Matthew Weekes, Jack Sanderson-Thwaite, Michael BeczeVlad Abadzhiev
970 Dragon Racer Jan 31, 2019 $3.99N/A (N/A)0 .. 20,0000%00:00 (00:00)Hosted GamesHosted Games
971 Tales of Ancient Nights Jan 29, 2019 $1.99N/A (N/A)0 .. 20,0000%00:00 (00:00)Demir LeylekDemir Leylek
972 Keeper of the Sun and Moon Jan 24, 2019 $3.99N/A (N/A)0 .. 20,0000%00:00 (00:00)Hosted GamesHosted Games
973 Gladiator: Road to the Colosseum Jan 17, 2019 $3.99N/A (N/A)0 .. 20,0000%00:00 (00:00)Hosted GamesHosted Games
974 Chronicon Apocalyptica Jan 11, 2019 $5.99N/A (N/A)0 .. 20,0000%00:00 (00:00)Choice of GamesChoice of Games
975 Zeliria Sanctuary Jan 7, 2019 $9.99N/A (N/A)50,000 .. 100,0000%00:00 (00:00)Salangan GamesPhoenix_co
976 Breacher Story Jan 2, 2019 $5.99N/A (N/A)0 .. 20,0000%00:00 (00:00)Doubleton Game StudioDoubleton Game Studio
977 Timeflow – Life Sim Jan 1, 2019 $9.99N/A (N/A)50,000 .. 100,0000%00:00 (00:00)Look Book IncLook Book Inc
978 The Ghost of You Dec 21, 2018 $5.99N/A (N/A)0 .. 20,0000%00:00 (00:00)Noodletub GamesNoodletub Games
979 Tower Behind the Moon Dec 20, 2018 $6.99N/A (N/A)0 .. 20,0000%00:00 (00:00)Choice of GamesChoice of Games
980 The Aether: Life as a God Dec 18, 2018 $2.99N/A (N/A)0 .. 20,0000%00:00 (00:00)Hosted GamesHosted Games
981 7th Sea: A Pirate's Pact Dec 14, 2018 $4.99N/A (N/A)0 .. 20,0000%00:00 (00:00)Choice of GamesChoice of Games
982 Death Collector Dec 6, 2018 $5.99N/A (N/A)0 .. 20,0000%00:00 (00:00)Choice of GamesChoice of Games
983 Weyrwood Nov 29, 2018 $4.99N/A (N/A)0 .. 20,0000%00:00 (00:00)Choice of GamesChoice of Games
984 Beer Bar Nov 20, 2018 $0.99N/A (N/A)50,000 .. 100,0000%00:00 (00:00)BrainStorming Team, КиКоКиКо
985 Whispering Flames Nov 17, 2018 $2.99N/A (N/A)20,000 .. 50,0000%00:00 (00:00)Red CattusRed Cattus
986 The Lost Legends of Redwall: Escape the Gloomer Nov 16, 2018 $4.99N/A (N/A)0 .. 20,0000%00:00 (00:00)Soma Games, Clopas LLCSoma Games
987 ARTé: Mecenas Nov 16, 2018 $9.99N/A (N/A)0 .. 20,0000%00:00 (00:00)TriseumTriseum
988 Love at Elevation Nov 8, 2018 $5.99N/A (N/A)0 .. 20,0000%00:00 (00:00)Hosted GamesHosted Games
989 A Gentlemanly Adventure Nov 2, 2018 $2.99N/A (N/A)0 .. 20,0000%00:00 (00:00)Not Chicken GamesNot Chicken Games
990 Gilded Rails Nov 1, 2018 $5.99N/A (N/A)0 .. 20,0000%00:00 (00:00)Choice of GamesChoice of Games
991 Nuclear Powered Toaster Oct 25, 2018 $2.99N/A (N/A)0 .. 20,0000%00:00 (00:00)Hosted GamesHosted Games
992 The Watson-Scott Test Oct 19, 2018 $4.99N/A (N/A)20,000 .. 50,0000%00:00 (00:00)Normal Wholesome GamesNormal Wholesome Games
993 To Burn in Memory (Anniversary Edition) Oct 1, 2018 $2.99N/A (N/A)0 .. 20,0000%00:00 (00:00)OrihausOrihaus
994 Terror for Two Oct 10, 2018 $0.99N/A (N/A)0 .. 20,0000%00:00 (00:00)Koala SquadKoala Squad
995 The Martian Job Oct 5, 2018 $3.99N/A (N/A)0 .. 20,0000%00:00 (00:00)Choice of GamesChoice of Games
996 The Twelve Trials Sep 27, 2018 $2.99N/A (N/A)0 .. 20,0000%00:00 (00:00)Hosted GamesHosted Games
997 The Grim and I Sep 27, 2018 $3.99N/A (N/A)0 .. 20,0000%00:00 (00:00)Hosted GamesHosted Games
998 The Mysteries of Baroque Sep 20, 2018 $4.99N/A (N/A)0 .. 20,0000%00:00 (00:00)Choice of GamesChoice of Games
999 The Dark Room Sep 20, 2018 $13.99N/A (N/A)0 .. 20,0000%00:00 (00:00)Developers At Large, John RobertsonJohn Robertson
1000 MMA Simulator Sep 17, 2018 $9.99N/A (N/A)0 .. 20,0000%00:00 (00:00)Zever GamesZever Games
1001 Help Me Escape! The Puzzle Maker's Office Sep 10, 2018 $4.99N/A (N/A)0 .. 20,0000%00:00 (00:00)Brahn GamesBrahn Communications, Inc.
1002 Choice of Broadsides: HMS Foraker Sep 6, 2018 $4.99N/A (N/A)0 .. 20,0000%00:00 (00:00)Choice of GamesChoice of Games
1003 Seul (Alone): The entrée Aug 31, 2018 $1.01N/A (N/A)0 .. 20,0000%00:00 (00:00)Paranormal GamesParanormal Games
1004 DinoKnights Aug 22, 2018 $4.99N/A (N/A)0 .. 20,0000%00:00 (00:00)Choice of GamesChoice of Games
1005 The Magician's Burden Aug 16, 2018 $4.99N/A (N/A)0 .. 20,0000%00:00 (00:00)Hosted GamesHosted Games
1006 Amulet Zero 零物语 - Optimize Aug 14, 2018 $0.64N/A (N/A)20,000 .. 50,0000%00:00 (00:00)ShiinaYashiroShiinaYashiro
1007 Retro Hacker Aug 13, 2018 $9.99N/A (N/A)0 .. 20,0000%00:00 (00:00)Matthew DiazMatthew Diaz
1008 Choice of Magics Aug 10, 2018 $6.99N/A (N/A)0 .. 20,0000%00:00 (00:00)Choice of GamesChoice of Games
1009 The Last Wizard Aug 3, 2018 $4.99N/A (N/A)0 .. 20,0000%00:00 (00:00)Hosted GamesHosted Games
1010 Answer The Question Aug 2, 2018 $0.99N/A (N/A)0 .. 20,0000%00:00 (00:00)Penny McDonaldSay Again Studio
1011 The Outpost Nine: Episode 1 Jul 27, 2018 $4.99N/A (N/A)0 .. 20,0000%00:00 (00:00)Benjy BatesSedoc LLC
1012 Werewolves: Haven Rising Jul 26, 2018 $5.99N/A (N/A)0 .. 20,0000%00:00 (00:00)Choice of GamesChoice of Games
1013 Adventures in the Light & Dark Jul 24, 2018 $0.99N/A (N/A)20,000 .. 50,0000%00:00 (00:00)Protoria StudiosProtoria Studios
1014 The Harbinger's Head Jul 19, 2018 $2.99N/A (N/A)0 .. 20,0000%00:00 (00:00)Hosted GamesHosted Games
1015 Unnatural Jul 19, 2018 $2.99N/A (N/A)0 .. 20,0000%00:00 (00:00)Hosted GamesHosted Games
1016 Blood Money Jul 12, 2018 $5.99N/A (N/A)0 .. 20,0000%00:00 (00:00)Choice of GamesChoice of Games
1017 Dust and Salt: The Battle for Murk Jul 11, 2018 $3.99N/A (N/A)0 .. 20,0000%00:00 (00:00)Prime GamesPrime Games
1018 Paper Shakespeare: Loves Labor(s) Lost Jul 5, 2018 $2.99N/A (N/A)0 .. 20,0000%00:00 (00:00)Stegalosaurus Game DevelopmentStegalosaurus Game Development
1019 Professor Watts Word Search: Yummy Foods Jul 2, 2018 $4.99N/A (N/A)0 .. 20,0000%00:00 (00:00)Ripknot SystemsRipknot Systems
1020 I, Cyborg Jun 28, 2018 $5.99N/A (N/A)0 .. 20,0000%00:00 (00:00)Choice of GamesChoice of Games
1021 Professor Watts Word Search: Pirates Life Jun 28, 2018 $4.99N/A (N/A)20,000 .. 50,0000%00:00 (00:00)Ripknot SystemsRipknot Systems
1022 Doomsday on Demand 2 Jun 26, 2018 $2.99N/A (N/A)0 .. 20,0000%00:00 (00:00)Hosted GamesHosted Games
1023 Doomsday on Demand May 6, 2016 $2.99N/A (N/A)0 .. 20,0000%00:00 (00:00)Hosted GamesHosted Games
1024 Professor Watts Word Search: Space Voyage Jun 25, 2018 $4.99N/A (N/A)20,000 .. 50,0000%00:00 (00:00)Ripknot SystemsRipknot Systems
1025 Trivia Vault: Music Trivia Jun 22, 2018 $9.99N/A (N/A)0 .. 20,0000%00:00 (00:00)Ripknot SystemsRipknot Systems
1026 Trivia Vault: Literature Trivia Jun 1, 2018 $9.99N/A (N/A)0 .. 20,0000%00:00 (00:00)Ripknot SystemsRipknot Systems
1027 Project Pastorate May 31, 2018 $1.09N/A (N/A)20,000 .. 50,0000%00:00 (00:00)PsyRobMeridian4
1028 Longest Monday: Unveiling May 30, 2018 N/AN/A (N/A)0 .. 20,0000%00:00 (00:00)GamenesisGamenesis
1029 Trivia Vault: Food Trivia May 30, 2018 $9.99N/A (N/A)0 .. 20,0000%00:00 (00:00)Ripknot SystemsRipknot Systems
1030 Tell Me Everything May 29, 2018 $0.99N/A (N/A)50,000 .. 100,0000%00:00 (00:00)LizardFactoryLizardFactory
1031 Tsundere Idol May 29, 2018 $9.99N/A (N/A)0 .. 20,0000%00:00 (00:00)NornCherry Kiss Games
1032 Trivia Vault: Toy Trivia May 25, 2018 $9.99N/A (N/A)0 .. 20,0000%00:00 (00:00)Ripknot SystemsRipknot Systems
1033 Rent-a-Vice May 24, 2018 $3.99N/A (N/A)0 .. 20,0000%00:00 (00:00)Choice of GamesChoice of Games
1034 Trivia Vault: Fashion Trivia May 24, 2018 $9.99N/A (N/A)0 .. 20,0000%00:00 (00:00)Ripknot SystemsRipknot Systems
1035 Disturbed: Beyond Aramor May 18, 2018 $4.99N/A (N/A)20,000 .. 50,0000%00:00 (00:00)iBlackpeniBlackpen
1036 Community College Hero: Knowledge is Power May 17, 2018 $4.99N/A (N/A)0 .. 20,0000%00:00 (00:00)Hosted GamesHosted Games
1037 Trivia Vault: Business Trivia May 17, 2018 $9.99N/A (N/A)0 .. 20,0000%00:00 (00:00)Ripknot SystemsRipknot Systems
1038 STAY May 16, 2018 $11.99N/A (N/A)20,000 .. 50,0000%00:00 (00:00)Appnormals TeamAppnormals Team
1039 Paper Shakespeare: Stick Merchant of Venice May 11, 2018 $1.99N/A (N/A)0 .. 20,0000%00:00 (00:00)Stegalosaurus Game DevelopmentStegalosaurus Game Development
1040 Trivia Vault: Art Trivia May 5, 2018 $9.99N/A (N/A)0 .. 20,0000%00:00 (00:00)Ripknot SystemsRipknot Systems
1041 Trivia Vault: TV Trivia May 3, 2018 $9.99N/A (N/A)0 .. 20,0000%00:00 (00:00)Ripknot SystemsRipknot Systems
1042 Trivia Vault: Celebrity Trivia May 2, 2018 $9.99N/A (N/A)0 .. 20,0000%00:00 (00:00)Ripknot SystemsRipknot Systems
1043 Austen Translation May 1, 2018 $6.99N/A (N/A)20,000 .. 50,0000%00:00 (00:00)Worthing & MoncrieffWorthing & Moncrieff
1044 Trivia Vault: Movie Trivia Apr 27, 2018 $9.99N/A (N/A)0 .. 20,0000%00:00 (00:00)Ripknot SystemsRipknot Systems
1045 The Road to Canterbury Apr 26, 2018 $4.99N/A (N/A)0 .. 20,0000%00:00 (00:00)Choice of GamesChoice of Games
1046 Trivia Vault: Soccer Trivia Apr 23, 2018 $9.99N/A (N/A)0 .. 20,0000%00:00 (00:00)Ripknot SystemsRipknot Systems
1047 Trivia Vault: Tennis Trivia Apr 19, 2018 $9.99N/A (N/A)0 .. 20,0000%00:00 (00:00)Ripknot SystemsRipknot Systems
1048 Doodle Date Apr 19, 2018 $1.99N/A (N/A)20,000 .. 50,0000%00:00 (00:00)Nicholas LivesNicholas Lives
1049 Silverworld Apr 12, 2018 $6.99N/A (N/A)0 .. 20,0000%00:00 (00:00)Choice of GamesChoice of Games
1050 The Hero Project: Open Season Apr 5, 2018 $3.99N/A (N/A)0 .. 20,0000%00:00 (00:00)Choice of GamesChoice of Games
1051 Trivia Vault: Hockey Trivia Apr 3, 2018 $9.99N/A (N/A)0 .. 20,0000%00:00 (00:00)Ripknot SystemsRipknot Systems
1052 Sudoku Zenkai Apr 2, 2018 $2.99N/A (N/A)0 .. 20,0000%00:00 (00:00)ImaginationOverflowImaginationOverflow
1053 Trivia Vault: Golf Trivia Mar 29, 2018 $9.99N/A (N/A)0 .. 20,0000%00:00 (00:00)Ripknot SystemsRipknot Systems
1054 Harmonium Mar 28, 2018 $4.99N/A (N/A)0 .. 20,0000%00:00 (00:00)From The BardFrom The Bard
1055 Trivia Vault: Auto Racing Trivia Mar 28, 2018 $9.99N/A (N/A)0 .. 20,0000%00:00 (00:00)Ripknot SystemsRipknot Systems
1056 Trivia Vault: Boxing Trivia Mar 24, 2018 $9.99N/A (N/A)0 .. 20,0000%00:00 (00:00)Ripknot SystemsRipknot Systems
1057 Fallen Hero: Rebirth Mar 15, 2018 $3.99N/A (N/A)0 .. 20,0000%00:00 (00:00)Hosted GamesHosted Games
1058 Highway Wars Mar 15, 2018 $3.99N/A (N/A)0 .. 20,0000%00:00 (00:00)Hosted GamesHosted Games
1059 Wayhaven Chronicles: Book One Mar 8, 2018 $4.99N/A (N/A)0 .. 20,0000%00:00 (00:00)Hosted GamesHosted Games
1060 Magikiras Mar 11, 2011 $3.99N/A (N/A)0 .. 20,0000%00:00 (00:00)Hosted GamesHosted Games
1061 TOMORROW DON'T COME - Puzzling Depression Mar 5, 2018 $2.99N/A (N/A)0 .. 20,0000%00:00 (00:00)Peace & Love GamesPeace & Love Games
1062 Omen Exitio: Plague Mar 5, 2018 $9.99N/A (N/A)20,000 .. 50,0000%00:00 (00:00)Tiny Bull StudiosTiny Bull Studios, 2P Games
1063 Trivia Vault Basketball Trivia Mar 3, 2018 $9.99N/A (N/A)0 .. 20,0000%00:00 (00:00)Ripknot SystemsRipknot Systems
1064 Trivia Vault Baseball Trivia Mar 2, 2018 $9.99N/A (N/A)0 .. 20,0000%00:00 (00:00)Ripknot SystemsRipknot Systems
1065 Trivia Vault Olympics Trivia Feb 28, 2018 $9.99N/A (N/A)0 .. 20,0000%00:00 (00:00)Ripknot SystemsRipknot Systems
1066 Trivia Vault Football Trivia Feb 27, 2018 $9.99N/A (N/A)0 .. 20,0000%00:00 (00:00)Ripknot SystemsRipknot Systems
1067 The Great Tournament 2 Feb 26, 2018 $2.99N/A (N/A)0 .. 20,0000%00:00 (00:00)Hosted GamesHosted Games
1068 The Fielder's Choice Feb 22, 2018 $3.99N/A (N/A)0 .. 20,0000%00:00 (00:00)Choice of GamesChoice of Games
1069 Bad Government Feb 16, 2018 $2.99N/A (N/A)20,000 .. 50,0000%00:00 (00:00)Free Time DevFree Time Dev
1070 Border of her Heart Feb 14, 2018 $0.99N/A (N/A)20,000 .. 50,0000%00:00 (00:00)Tuomo LaineTuomo's games
1071 Trivia Vault: Mixed Trivia 2 Feb 13, 2018 $14.99N/A (N/A)0 .. 20,0000%00:00 (00:00)Ripknot SystemsRipknot Systems
1072 The Great Tournament Mar 3, 2017 $4.99N/A (N/A)0 .. 20,0000%00:00 (00:00)Hosted GamesHosted Games
1073 Choice of the Vampire Aug 27, 2010 $5.99N/A (N/A)0 .. 20,0000%00:00 (00:00)Choice of GamesChoice of Games
1074 Choice of the Vampire: The Fall of Memphis Aug 2, 2013 $5.99N/A (N/A)0 .. 20,0000%00:00 (00:00)Choice of GamesChoice of Games
1075 Anchorhead Jan 31, 2018 $9.99N/A (N/A)0 .. 20,0000%00:00 (00:00)Michael GentryMichael Gentry
1076 Undercover Agent Jan 25, 2018 $3.99N/A (N/A)0 .. 20,0000%00:00 (00:00)Choice of GamesChoice of Games
1077 Trivia Vault: Health Trivia Deluxe Jan 23, 2018 $14.99N/A (N/A)0 .. 20,0000%00:00 (00:00)Ripknot SystemsRipknot Systems
1078 For Rent: Haunted House Aug 31, 2012 $4.99N/A (N/A)0 .. 20,0000%00:00 (00:00)Choice of GamesChoice of Games
1079 Yeti's Parole Officer Sep 26, 2014 $2.99N/A (N/A)0 .. 20,0000%00:00 (00:00)Choice of GamesChoice of Games
1080 The Treasure Seekers of Lady Luck Apr 12, 2013 $2.99N/A (N/A)0 .. 20,0000%00:00 (00:00)Choice of GamesChoice of Games
1081 To the City of the Clouds Oct 26, 2012 $2.99N/A (N/A)0 .. 20,0000%00:00 (00:00)Choice of GamesChoice of Games
1082 Showdown at Willow Creek Jan 18, 2018 $2.99N/A (N/A)0 .. 20,0000%00:00 (00:00)Choice of GamesChoice of Games
1083 Oh No! Ninjas! Jan 4, 2018 $1.99N/A (N/A)0 .. 20,0000%00:00 (00:00)Blot InteractiveBlot Interactive
1084 Zhulik.exe Dec 27, 2017 $0.99N/A (N/A)20,000 .. 50,0000%00:00 (00:00)DarkDes LabsDarkDes Labs
1085 The Cryptkeepers of Hallowford Dec 22, 2017 $6.99N/A (N/A)0 .. 20,0000%00:00 (00:00)Choice of GamesChoice of Games
1086 Trivia Vault: Technology Trivia Deluxe Dec 21, 2017 $14.99N/A (N/A)0 .. 20,0000%00:00 (00:00)Ripknot SystemsRipknot Systems
1087 Captive of Fortune Dec 19, 2017 $1.99N/A (N/A)0 .. 20,0000%00:00 (00:00)Hosted GamesHosted Games
1088 Trial of the Demon Hunter Dec 19, 2017 $1.99N/A (N/A)0 .. 20,0000%00:00 (00:00)Hosted GamesHosted Games
1089 Grey Hack Dec 14, 2017 $19.99N/A (N/A)50,000 .. 100,0000%00:00 (00:00)Loading HomeLoading Home
1090 Tally Ho Dec 14, 2017 $6.99N/A (N/A)0 .. 20,0000%00:00 (00:00)Choice of GamesChoice of Games
1091 T-Rex Time Machine Dec 7, 2017 $3.99N/A (N/A)0 .. 20,0000%00:00 (00:00)Choice of GamesChoice of Games
1092 Hostil Dec 1, 2017 $2.99N/A (N/A)20,000 .. 50,0000%00:00 (00:00)Eteru StudioEteru Studio
1093 Samurai of Hyuga Book 3 Dec 1, 2017 $5.99N/A (N/A)0 .. 20,0000%00:00 (00:00)Hosted GamesHosted Games
1094 Broadway: 1849 Nov 22, 2017 $3.99N/A (N/A)0 .. 20,0000%00:00 (00:00)Choice of GamesChoice of Games
1095 Wild Romance: Mofu Mofu Edition Nov 20, 2017 $14.99N/A (N/A)20,000 .. 50,0000%00:00 (00:00)NornCherry Kiss Games
1096 Choice of the Ninja Nov 17, 2017 $4.99N/A (N/A)0 .. 20,0000%00:00 (00:00)Choice of GamesChoice of Games
1097 Choice of the Rock Star Nov 17, 2017 $2.99N/A (N/A)0 .. 20,0000%00:00 (00:00)Choice of GamesChoice of Games
1098 NOLA is Burning Nov 17, 2017 $2.99N/A (N/A)0 .. 20,0000%00:00 (00:00)Choice of GamesChoice of Games
1099 Sorry, James Nov 10, 2017 $4.99N/A (N/A)50,000 .. 100,0000%00:00 (00:00)KonstructorsHook Games, GrabTheGames, WhisperGames
1100 Choice of Rebels: Uprising Nov 9, 2017 $6.99N/A (N/A)0 .. 20,0000%00:00 (00:00)Choice of GamesChoice of Games
1101 Cleansuit Nov 1, 2017 $3.99N/A (N/A)0 .. 20,0000%00:00 (00:00)Goblin CouncilGoblin Council
1102 The Ultimate Trivia Challenge Oct 27, 2017 $4.99N/A (N/A)0 .. 20,0000%00:00 (00:00)LoadUpGames.comLoadUpGames.com
1103 American Angst (Steam Deluxe Edition) Oct 26, 2017 $0.99N/A (N/A)0 .. 20,0000%00:00 (00:00)M3G1DD0M3G1DD0
1104 Heart of the House Oct 26, 2017 $5.99N/A (N/A)0 .. 20,0000%00:00 (00:00)Choice of GamesChoice of Games
1105 Trivia Vault: Video Game Trivia Deluxe Oct 24, 2017 $14.99N/A (N/A)0 .. 20,0000%00:00 (00:00)Ripknot SystemsRipknot Systems
1106 The Superlatives: Aetherfall Oct 19, 2017 $5.99N/A (N/A)0 .. 20,0000%00:00 (00:00)Choice of GamesChoice of Games
1107 Choice of Broadsides Apr 1, 2010 $4.99N/A (N/A)0 .. 20,0000%00:00 (00:00)Choice of GamesChoice of Games
1108 Thaumistry: In Charm's Way Oct 7, 2017 $3.99N/A (N/A)0 .. 20,0000%00:00 (00:00)Bobbates LLC.Bobbates LLC.
1109 Throne of Lies: Medieval Politics Sep 29, 2017 $1.99N/A (N/A)200,000 .. 500,0000%00:00 (00:00)PT.farm Inc., Imperium42®, LLCPT.farm Inc.
1110 Highlands, Deep Waters Sep 28, 2017 $3.99N/A (N/A)0 .. 20,0000%00:00 (00:00)Hosted GamesHosted Games
1111 The Last Monster Master Sep 28, 2017 $5.99N/A (N/A)0 .. 20,0000%00:00 (00:00)Choice of GamesChoice of Games
1112 Choice of the Cat Sep 28, 2017 $6.99N/A (N/A)0 .. 20,0000%00:00 (00:00)Choice of GamesChoice of Games
1113 Trivia Vault: Mini Mixed Trivia 4 Sep 21, 2017 $9.99N/A (N/A)0 .. 20,0000%00:00 (00:00)Ripknot SystemsRipknot Systems
1114 Trivia Vault: Mini Mixed Trivia 3 Sep 19, 2017 $9.99N/A (N/A)0 .. 20,0000%00:00 (00:00)Ripknot SystemsRipknot Systems
1115 "StockUp" Sep 8, 2017 $1.04N/A (N/A)0 .. 20,0000%00:00 (00:00)EcoGamesEcoGames
1116 Trivia Vault: Mini Mixed Trivia 2 Sep 17, 2017 $9.99N/A (N/A)0 .. 20,0000%00:00 (00:00)Ripknot SystemsRipknot Systems
1117 Trivia Vault: Mini Mixed Trivia Sep 15, 2017 $9.99N/A (N/A)0 .. 20,0000%00:00 (00:00)Ripknot SystemsRipknot Systems
1118 Grand Academy for Future Villains Sep 14, 2017 $4.99N/A (N/A)0 .. 20,0000%00:00 (00:00)Choice of GamesChoice of Games
1119 Epic Tavern Sep 13, 2017 $24.99N/A (N/A)0 .. 20,0000%00:00 (00:00)Hyperkinetic StudiosEpic Tavern Holdings
1120 Trackless Sep 12, 2017 $9.99N/A (N/A)0 .. 20,0000%00:00 (00:00)12 East Games12 East Games
1121 Trivia Vault: Super Heroes Trivia 2 Sep 12, 2017 $9.99N/A (N/A)0 .. 20,0000%00:00 (00:00)Ripknot SystemsRipknot Systems
1122 Code World Sep 11, 2017 $4.99N/A (N/A)0 .. 20,0000%00:00 (00:00)FewjixFewjix
1123 Star Story: The Horizon Escape Sep 5, 2017 $14.99N/A (N/A)0 .. 20,0000%00:00 (00:00)EvilCoGamesEvilCoGames
1124 All Haze Eve Sep 1, 2017 $2.99N/A (N/A)0 .. 20,0000%00:00 (00:00)xrrawvaxrrawva
1125 Trivia Vault: Science & History Trivia 2 Sep 1, 2017 $9.99N/A (N/A)0 .. 20,0000%00:00 (00:00)Ripknot SystemsRipknot Systems
1126 Trivia Vault: Classic Rock Trivia 2 Aug 23, 2017 $9.99N/A (N/A)0 .. 20,0000%00:00 (00:00)Ripknot SystemsRipknot Systems
1127 Trivia Vault: 1980's Trivia 2 Aug 22, 2017 $9.99N/A (N/A)0 .. 20,0000%00:00 (00:00)Ripknot SystemsRipknot Systems
1128 Trivia Vault: Classic Rock Trivia Aug 17, 2017 $9.99N/A (N/A)0 .. 20,0000%00:00 (00:00)Ripknot SystemsRipknot Systems
1129 Trivia Vault: 1980's Trivia Aug 16, 2017 $9.99N/A (N/A)0 .. 20,0000%00:00 (00:00)Ripknot SystemsRipknot Systems
1130 Trivia Vault: Super Heroes Trivia Aug 15, 2017 $9.99N/A (N/A)0 .. 20,0000%00:00 (00:00)Ripknot SystemsRipknot Systems
1131 Trivia Vault: Science & History Trivia Aug 14, 2017 $9.99N/A (N/A)0 .. 20,0000%00:00 (00:00)Ripknot SystemsRipknot Systems
1132 Code 7: A Story-Driven Hacking Adventure Aug 11, 2017 $5.99N/A (N/A)0 .. 20,0000%00:00 (00:00)Goodwolf StudioGoodwolf Studio
1133 Trivia Vault: Mixed Trivia Aug 11, 2017 $14.99N/A (N/A)0 .. 20,0000%00:00 (00:00)Ripknot SystemsRipknot Systems
1134 Trials of the Thief-Taker Aug 10, 2017 $3.99N/A (N/A)0 .. 20,0000%00:00 (00:00)Choice of GamesChoice of Games
1135 Alter Ego May 1, 1986 $7.99N/A (N/A)0 .. 20,0000%00:00 (00:00)Choose Multiple LLCChoose Multiple LLC
1136 The Hero Unmasked! Jul 27, 2017 $5.99N/A (N/A)0 .. 20,0000%00:00 (00:00)Choice of GamesChoice of Games
1137 Professor Watts Word Search: Into The Ocean Jul 16, 2017 $4.99N/A (N/A)0 .. 20,0000%00:00 (00:00)Ripknot SystemsRipknot Systems
1138 Sorcerer's Dream Jul 13, 2017 $4.99N/A (N/A)0 .. 20,0000%00:00 (00:00)Arai Koh Create OfficeYOX-Project
1139 Choice of Zombies Apr 13, 2012 $3.99N/A (N/A)0 .. 20,0000%00:00 (00:00)Choice of GamesChoice of Games
1140 All You Can Eat Jul 13, 2017 $1.99N/A (N/A)20,000 .. 50,0000%00:00 (00:00)GamechuckGamechuck
1141 Thomaz Jul 10, 2017 $0.99N/A (N/A)0 .. 20,0000%00:00 (00:00)FürstFürst
1142 Warsim: The Realm of Aslona Jun 28, 2017 $7.99N/A (N/A)50,000 .. 100,0000%00:00 (00:00)Huw MillwardHuw Millward
1143 Avatar of the Wolf Jun 22, 2017 $3.99N/A (N/A)0 .. 20,0000%00:00 (00:00)Choice of GamesChoice of Games
1144 Pixel Painter Jun 19, 2017 $0.99N/A (N/A)1,000,000 .. 2,000,0000%00:00 (00:00)Dio Alias GamesDio Alias Games
1145 Choice of the Star Captain Sep 26, 2012 $3.99N/A (N/A)0 .. 20,0000%00:00 (00:00)Choice of GamesChoice of Games
1146 Reckless Space Pirates Dec 6, 2013 $3.99N/A (N/A)0 .. 20,0000%00:00 (00:00)Choice of GamesChoice of Games
1147 The Fleet Nov 30, 2012 $3.99N/A (N/A)0 .. 20,0000%00:00 (00:00)Choice of GamesChoice of Games
1148 Demon Mark: A Russian Saga Jun 1, 2017 $4.99N/A (N/A)0 .. 20,0000%00:00 (00:00)Choice of GamesChoice of Games
1149 Zarya-1: Mystery on the Moon May 30, 2017 $3.99N/A (N/A)0 .. 20,0000%00:00 (00:00)Your Story InteractivePlug In Digital
1150 LoveKami -Useless Goddess- May 29, 2017 $2.59N/A (N/A)20,000 .. 50,0000%00:00 (00:00)MoeNovelMoeNovel
1151 Welcome to Moreytown May 5, 2017 $3.99N/A (N/A)0 .. 20,0000%00:00 (00:00)Choice of GamesChoice of Games
1152 Academagia: The Making of Mages Aug 13, 2010 $15.99N/A (N/A)20,000 .. 50,0000%00:00 (00:00)Black Chicken Studios, inc.Black Chicken Studios, inc.
1153 Zork Anthology Jul 14, 1989 $3.89N/A (N/A)0 .. 20,0000%00:00 (00:00)InfocomActivision
1154 The Eagle's Heir Mar 30, 2017 $4.99N/A (N/A)0 .. 20,0000%00:00 (00:00)Choice of GamesChoice of Games
1155 "MakeThatMoney" Mar 22, 2017 $0.89N/A (N/A)0 .. 20,0000%00:00 (00:00)EcoGamesEcoGames
1156 Life of a Wizard Feb 27, 2013 $2.99N/A (N/A)0 .. 20,0000%00:00 (00:00)Hosted GamesHosted Games
1157 Life of a Mobster Jul 11, 2014 $2.99N/A (N/A)0 .. 20,0000%00:00 (00:00)Hosted GamesHosted Games
1158 The Lost Heir 3: Demon War Mar 17, 2017 $4.99N/A (N/A)0 .. 20,0000%00:00 (00:00)Hosted GamesHosted Games
1159 The Filmmaker - A Text Adventure Dec 19, 2016 $2.99N/A (N/A)0 .. 20,0000%00:00 (00:00)Storycentric WorldsUnimatrix Productions
1160 Runt of the Litter Feb 23, 2017 $3.99N/A (N/A)0 .. 20,0000%00:00 (00:00)Choice of GamesChoice of Games
1161 Open Sorcery Feb 22, 2017 $3.99N/A (N/A)0 .. 20,0000%00:00 (00:00)Abigail CorfmanOpen Sorcery Games
1162 20something Jan 26, 2017 $2.99N/A (N/A)0 .. 20,0000%00:00 (00:00)Jake TuckerJake Tucker
1163 Evertree Inn Jan 20, 2017 $3.99N/A (N/A)0 .. 20,0000%00:00 (00:00)Hosted GamesHosted Games
1164 VERSUS: The Elite Trials Dec 16, 2016 $3.99N/A (N/A)0 .. 20,0000%00:00 (00:00)Choice of GamesChoice of Games
1165 LoveKami -Divinity Stage- Dec 15, 2016 $2.59N/A (N/A)0 .. 20,0000%00:00 (00:00)MoeNovelMoeNovel
1166 Cannonfire Concerto Dec 8, 2016 $4.99N/A (N/A)0 .. 20,0000%00:00 (00:00)Choice of GamesChoice of Games
1167 Empyrean Dec 1, 2016 $5.99N/A (N/A)0 .. 20,0000%00:00 (00:00)Choice of GamesChoice of Games
1168 Saga of the North Wind Nov 17, 2016 $5.99N/A (N/A)0 .. 20,0000%00:00 (00:00)Choice of GamesChoice of Games
1169 Zombie Exodus: Safe Haven Oct 28, 2016 $4.99N/A (N/A)0 .. 20,0000%00:00 (00:00)Hosted GamesHosted Games
1170 Congresswolf Oct 28, 2016 $3.99N/A (N/A)0 .. 20,0000%00:00 (00:00)Choice of GamesChoice of Games
1171 Shady Brook - A Dark Mystery Text Adventure Aug 1, 2016 $2.99N/A (N/A)0 .. 20,0000%00:00 (00:00)Storycentric WorldsUnimatrix Productions
1172 Tennis Elbow Manager Feb 19, 2009 $9.99N/A (N/A)20,000 .. 50,0000%00:00 (00:00)Mana GamesMana Games
1173 Sorcery Is for Saps Oct 14, 2016 $4.99N/A (N/A)0 .. 20,0000%00:00 (00:00)Choice of GamesChoice of Games
1174 hackmud Sep 22, 2016 $19.99N/A (N/A)20,000 .. 50,0000%00:00 (00:00)Drizzly BearDrizzly Bear
1175 Lifestream - A Haunting Text Adventure Apr 25, 2016 $2.99N/A (N/A)0 .. 20,0000%00:00 (00:00)Storycentric WorldsUnimatrix Productions
1176 Fatehaven Aug 8, 2014 $2.99N/A (N/A)0 .. 20,0000%00:00 (00:00)Hosted GamesHosted Games
1177 Samurai of Hyuga Jul 17, 2015 $3.99N/A (N/A)0 .. 20,0000%00:00 (00:00)Hosted GamesHosted Games
1178 Samurai of Hyuga Book 2 Sep 16, 2016 $5.99N/A (N/A)0 .. 20,0000%00:00 (00:00)Hosted GamesHosted Games
1179 Machinations: Fog of War Aug 19, 2016 $3.99N/A (N/A)0 .. 20,0000%00:00 (00:00)Hosted GamesHosted Games
1180 The Away Team: Lost Exodus Jul 22, 2016 $4.4N/A (N/A)20,000 .. 50,0000%00:00 (00:00)Underflow StudiostinyBuild Games
1181 e-River Cabin Journal Jul 15, 2016 $9.99N/A (N/A)20,000 .. 50,0000%00:00 (00:00)Wilderness Journal GamesWilderness Journal Games
1182 Killing Time at Lightspeed: Enhanced Edition Jul 5, 2016 $9.99N/A (N/A)0 .. 20,0000%00:00 (00:00)GritfishGreen Stripe Snake
1183 Affairs of the Court: Choice of Romance Aug 16, 2013 $5.99N/A (N/A)0 .. 20,0000%00:00 (00:00)Choice of GamesChoice of Games
1184 Choice of Alexandria Jun 10, 2016 $2.99N/A (N/A)0 .. 20,0000%00:00 (00:00)Choice of GamesChoice of Games
1185 PataNoir Jun 1, 2016 $6.99N/A (N/A)0 .. 20,0000%00:00 (00:00)Simon ChristiansenSiChris Productions
1186 Choice of the Pirate May 20, 2016 $3.99N/A (N/A)0 .. 20,0000%00:00 (00:00)Choice of GamesChoice of Games
1187 The Sea Eternal Apr 22, 2016 $5.99N/A (N/A)0 .. 20,0000%00:00 (00:00)Choice of GamesChoice of Games
1188 Best of Us Apr 22, 2016 $2.99N/A (N/A)0 .. 20,0000%00:00 (00:00)Hosted GamesHosted Games
1189 Typefighters (Steam Edition) Apr 18, 2016 $1.99N/A (N/A)20,000 .. 50,00020%00:01 (00:00)Christian ReuterChristian Reuter
1190 The Hero Project: Redemption Season Apr 8, 2016 $3.99N/A (N/A)0 .. 20,0000%00:00 (00:00)Choice of GamesChoice of Games
1191 Guns of Infinity Mar 29, 2016 $4.99N/A (N/A)0 .. 20,0000%00:00 (00:00)Hosted GamesHosted Games
1192 Age of Gladiators Feb 25, 2016 $9.99N/A (N/A)0 .. 20,0000%00:00 (00:00)Creative Storm EntertainmentCreative Storm Entertainment
1193 The Daring Mermaid Expedition Feb 12, 2016 $2.99N/A (N/A)0 .. 20,0000%00:00 (00:00)Choice of GamesChoice of Games
1194 The Lost Heir 2: Forging a Kingdom Jan 29, 2016 $2.99N/A (N/A)0 .. 20,0000%00:00 (00:00)Hosted GamesHosted Games
1195 The Lost Heir: The Fall of Daria Feb 20, 2015 $2.99N/A (N/A)0 .. 20,0000%00:00 (00:00)Hosted GamesHosted Games
1196 Buried: An Interactive Story Jan 21, 2016 $2.99N/A (N/A)0 .. 20,0000%00:00 (00:00)Bromoco GamesBromoco Games
1197 Catacombs of the Undercity Jan 19, 2016 $1.49N/A (N/A)0 .. 20,0000%00:00 (00:00)Tin Man GamesTin Man Games
1198 Elysium: Blood Games Jan 5, 2016 $0.99N/A (N/A)50,000 .. 100,0000%00:00 (00:00)SimProse StudiosTrinity Project
1199 Sixth Grade Detective Dec 21, 2015 $3.99N/A (N/A)0 .. 20,0000%00:00 (00:00)Choice of GamesChoice of Games
1200 MetaHuman Inc. Dec 18, 2015 $5.99N/A (N/A)0 .. 20,0000%00:00 (00:00)Choice of GamesChoice of Games
1201 The ORPHEUS Ruse Dec 1, 2013 $3.99N/A (N/A)0 .. 20,0000%00:00 (00:00)Choice of GamesChoice of Games
1202 Monsterland Dec 14, 2015 $1.99N/A (N/A)0 .. 20,0000%00:00 (00:00)Second Variety GamesSecond Variety Games
1203 Choice of Kung Fu Dec 19, 2012 $3.99N/A (N/A)0 .. 20,0000%00:00 (00:00)Choice of GamesChoice of Games
1204 Community College Hero: Trial by Fire Dec 4, 2015 $3.99N/A (N/A)0 .. 20,0000%00:00 (00:00)Hosted GamesHosted Games
1205 Pendragon Rising Dec 4, 2015 $3.99N/A (N/A)0 .. 20,0000%00:00 (00:00)Choice of GamesChoice of Games
1206 A Study in Steampunk: Choice by Gaslight Nov 20, 2015 $3.99N/A (N/A)0 .. 20,0000%00:00 (00:00)Hosted GamesHosted Games
1207 Diabolical Nov 6, 2015 $3.99N/A (N/A)0 .. 20,0000%00:00 (00:00)Choice of GamesChoice of Games
1208 Deathless: The City's Thirst Oct 23, 2015 $3.99N/A (N/A)0 .. 20,0000%00:00 (00:00)Choice of GamesChoice of Games
1209 Zombie Exodus Dec 4, 2011 $7.99N/A (N/A)0 .. 20,0000%00:00 (00:00)Hosted GamesHosted Games
1210 This Book Is A Dungeon Oct 9, 2015 $4.99N/A (N/A)50,000 .. 100,0000%00:00 (00:00)Nathan MeunierPlug In Digital
1211 Ratings War Oct 2, 2015 $2.99N/A (N/A)0 .. 20,0000%00:00 (00:00)Choice of GamesChoice of Games
1212 A Wise Use of Time Sep 4, 2015 $5.99N/A (N/A)0 .. 20,0000%00:00 (00:00)Choice of GamesChoice of Games
1213 VERSUS: The Lost Ones Aug 21, 2015 $3.99N/A (N/A)0 .. 20,0000%00:00 (00:00)Choice of GamesChoice of Games
1214 King of Dragon Pass Jul 28, 2015 $11.99N/A (N/A)20,000 .. 50,0000%00:00 (00:00)A SharpHeroCraft PC
1215 Champion of the Gods Jul 17, 2015 $4.99N/A (N/A)0 .. 20,0000%00:00 (00:00)Choice of GamesChoice of Games
1216 It's Killing Time Jun 27, 2015 $3.99N/A (N/A)0 .. 20,0000%00:00 (00:00)Choice of GamesChoice of Games
1217 SpaceCorn Aug 30, 2012 $0.99N/A (N/A)50,000 .. 100,0000%00:00 (00:00)Henrique Pegacha, Rafael Lima, Nuno GuerreiroGentlemen in Tuxedos
1218 60 Seconds! May 25, 2015 $8.99N/A (N/A)500,000 .. 1,000,0000%00:00 (00:00)Robot GentlemanRobot Gentleman
1219 Hollywood Visionary May 1, 2015 $4.99N/A (N/A)0 .. 20,0000%00:00 (00:00)Choice of GamesChoice of Games
1220 Choice of the Petal Throne Apr 10, 2015 $3.99N/A (N/A)0 .. 20,0000%00:00 (00:00)Choice of GamesChoice of Games
1221 The Hero of Kendrickstone Mar 13, 2015 $4.99N/A (N/A)0 .. 20,0000%00:00 (00:00)Choice of GamesChoice of Games
1222 Social Justice Warriors Feb 27, 2015 $7.99N/A (N/A)100,000 .. 200,0000%00:00 (00:00)Nonadecimal CreativeNonadecimal Creative
1223 SanctuaryRPG: Black Edition Feb 13, 2015 $7.99N/A (N/A)100,000 .. 200,0000%00:00 (00:00)Black Shell MediaPlug In Digital
1224 Psy High Dec 22, 2014 $4.99N/A (N/A)0 .. 20,0000%00:00 (00:00)Choice of GamesChoice of Games
1225 Choice of Robots Dec 19, 2014 $5.99N/A (N/A)50,000 .. 100,0000%00:00 (00:00)Choice of GamesChoice of Games
1226 Creatures Such as We Dec 12, 2014 $4.99N/A (N/A)0 .. 20,0000%00:00 (00:00)Choice of GamesChoice of Games
1227 Mecha Ace Jun 13, 2014 $4.99N/A (N/A)0 .. 20,0000%00:00 (00:00)Choice of GamesChoice of Games
1228 Hadean Lands Oct 30, 2014 $11.99N/A (N/A)0 .. 20,0000%00:00 (00:00)Zarfhome SoftwareZarfhome Software
1229 Thieves' Gambit: The Curse of the Black Cat Oct 17, 2014 $2.99N/A (N/A)0 .. 20,0000%00:00 (00:00)Choice of GamesChoice of Games
1230 Choice of the Deathless Dec 20, 2013 $3.99N/A (N/A)0 .. 20,0000%00:00 (00:00)Choice of GamesChoice of Games
1231 Heroes Rise: HeroFall Jul 11, 2014 $3.99N/A (N/A)0 .. 20,0000%00:00 (00:00)Choice of GamesChoice of Games
1232 Heroes Rise: The Prodigy Jul 13, 2012 $3.99N/A (N/A)20,000 .. 50,0000%00:00 (00:00)Choice of GamesChoice of Games
1233 Heroes Rise: The Hero Project Sep 20, 2013 $4.99N/A (N/A)0 .. 20,0000%00:00 (00:00)Choice of GamesChoice of Games
1234 Bot Colony Jun 16, 2014 $14.99N/A (N/A)0 .. 20,0000%00:00 (00:00)North SideNorth Side
1235 Neighbourhood Necromancer May 16, 2014 $3.99N/A (N/A)0 .. 20,0000%00:00 (00:00)Choice of GamesChoice of Games
1236 Tin Star Jun 5, 2015 $4.99N/A (N/A)0 .. 20,0000%00:00 (00:00)Hosted GamesHosted Games
1237 99 Spirits Nov 12, 2013 $9.99N/A (N/A)200,000 .. 500,0000%00:00 (00:00)TORaIKIFruitbat Factory
1238 Type:Rider Nov 6, 2013 $4.99N/A (N/A)100,000 .. 200,0000%00:00 (00:00)Ex Nihilo, ARTE FranceARTE France
1239 Zafehouse: Diaries Sep 6, 2013 $1.99N/A (N/A)50,000 .. 100,0000%00:00 (00:00)Screwfly StudiosScrewfly Studios
1240 SLAMMED! Jun 28, 2013 $5.99N/A (N/A)0 .. 20,0000%00:00 (00:00)Choice of GamesChoice of Games
1241 Sabres of Infinity Jun 21, 2013 $2.99N/A (N/A)0 .. 20,0000%00:00 (00:00)Hosted GamesHosted Games
1242 7 Grand Steps: What Ancients Begat Jun 7, 2013 $19.99N/A (N/A)50,000 .. 100,0000%00:00 (00:00)MousechiefMousechief
1243 Monster Loves You! Mar 18, 2013 $9.99N/A (N/A)200,000 .. 500,0000%00:00 (00:00)Radial Games Corp, Dejobaan Games, LLCRadial Games Corp
1244 Tsukumogami May 31, 2012 $29.99N/A (N/A)20,000 .. 50,0000%00:00 (00:00)TORaIKIFruitbat Factory
1245 Hacker Evolution Sep 14, 2010 $0.5N/A (N/A)200,000 .. 500,0000%00:00 (00:00)exosyphen studiosexosyphen studios
1246 Mystery P.I. - The Vegas Heist Jun 4, 2008 $4.99N/A (N/A)0 .. 20,0000%00:00 (00:00)SpinTop GamesPopCap Games, Inc.
1247 Premier Manager 08 Aug 16, 2007 $2.99N/A (N/A)0 .. 20,0000%00:00 (00:00)ZOO Digital PublishingFunbox Media Ltd
1248 Premier Manager 06/07 Aug 18, 2006 $2.99N/A (N/A)0 .. 20,0000%00:00 (00:00)ZOO Digital PublishingFunbox Media Ltd
1249 Premier Manager 05/06 Aug 12, 2005 $2.99N/A (N/A)20,000 .. 50,0000%00:00 (00:00)ZOO Digital PublishingFunbox Media Ltd
1250 Premier Manager 04/05 Nov 5, 2004 $2.99N/A (N/A)0 .. 20,0000%00:00 (00:00)ZOO Digital PublishingFunbox Media Ltd
1251 Eric The Unready Jan 1, 1993 $6.99N/A (N/A)0 .. 20,0000%00:00 (00:00)Legend EntertainmentZiggurat
1252 Les Manley in: Search for the King Jan 1, 1990 $6.99N/A (N/A)100,000 .. 200,0000%00:00 (00:00)Accolade Inc.Ziggurat
Overview

Text-Based

Games with this tag: 1252
Average userscore: N/A%
Average metascore: 76.61%
Average playtime: 35:20
Total copies owned: 34,131,000
Average price: $7.73
Help

Owners: Estimated number of people owning this game. The number might be way too small for new releases and sometimes way too big for games that had free weekend event recently. Read more on About page.

Playtime: Average hours played in total per person that have actually launched this game since March 2009. This time is calculated for the whole lifetime, not for the particular year.

Average score: Average users and metacritic score for all games with this score assigned.

Average playtime: Average lifetime playtime for all games where this data is available.

Games in this genre: Self-explaining - number of games with this tag. Only inculdes games with sales data available.

Total copies owned: Refers to total copies of games with this tag acquired by users for the lifetime. Includes copies sold, downloaded for free and given out.

This number might be too small for recently released games or too big for games that had a free weekend in the last couple of months.

Graphs

Login required.

Please register or log in to see this information.

Login required.

Please register or log in to see this information.